<?xml version='1.0' encoding='UTF-8'?>
<gpx version="1.1" creator="https://www.komoot.de" xmlns="http://www.topografix.com/GPX/1/1" xmlns:xsi="http://www.w3.org/2001/XMLSchema-instance" xsi:schemaLocation="http://www.topografix.com/GPX/1/1 http://www.topografix.com/GPX/1/1/gpx.xsd">
  <metadata>
    <name>49_490MuttenzSchauenbur</name>
    <author>
      <link href="https://www.komoot.de">
        <text>komoot</text>
        <type>text/html</type>
      </link>
    </author>
  </metadata>
  <trk>
    <name>49_490MuttenzSchauenbur</name>
    <trkseg>
      <trkpt lat="47.541338" lon="7.870851">
        <ele>339.193757</ele>
        <time>2021-11-08T21:07:19.871Z</time>
      </trkpt>
      <trkpt lat="47.541410" lon="7.870791">
        <ele>339.193757</ele>
        <time>2021-11-08T21:07:21.164Z</time>
      </trkpt>
      <trkpt lat="47.541576" lon="7.870664">
        <ele>339.193757</ele>
        <time>2021-11-08T21:07:23.607Z</time>
      </trkpt>
      <trkpt lat="47.541550" lon="7.870601">
        <ele>339.193757</ele>
        <time>2021-11-08T21:07:24.415Z</time>
      </trkpt>
      <trkpt lat="47.541521" lon="7.870517">
        <ele>339.193757</ele>
        <time>2021-11-08T21:07:25.456Z</time>
      </trkpt>
      <trkpt lat="47.541606" lon="7.870424">
        <ele>339.193757</ele>
        <time>2021-11-08T21:07:27.094Z</time>
      </trkpt>
      <trkpt lat="47.541707" lon="7.870318">
        <ele>339.193757</ele>
        <time>2021-11-08T21:07:28.834Z</time>
      </trkpt>
      <trkpt lat="47.541910" lon="7.870106">
        <ele>339.193757</ele>
        <time>2021-11-08T21:07:32.767Z</time>
      </trkpt>
      <trkpt lat="47.542014" lon="7.870126">
        <ele>339.130172</ele>
        <time>2021-11-08T21:07:34.244Z</time>
      </trkpt>
      <trkpt lat="47.542118" lon="7.870135">
        <ele>339.030344</ele>
        <time>2021-11-08T21:07:35.982Z</time>
      </trkpt>
      <trkpt lat="47.542181" lon="7.870131">
        <ele>338.969918</ele>
        <time>2021-11-08T21:07:36.846Z</time>
      </trkpt>
      <trkpt lat="47.542317" lon="7.870012">
        <ele>338.818558</ele>
        <time>2021-11-08T21:07:38.961Z</time>
      </trkpt>
      <trkpt lat="47.542348" lon="7.869983">
        <ele>338.783425</ele>
        <time>2021-11-08T21:07:39.401Z</time>
      </trkpt>
      <trkpt lat="47.542329" lon="7.869820">
        <ele>338.676425</ele>
        <time>2021-11-08T21:07:41.182Z</time>
      </trkpt>
      <trkpt lat="47.542372" lon="7.869746">
        <ele>338.613265</ele>
        <time>2021-11-08T21:07:41.987Z</time>
      </trkpt>
      <trkpt lat="47.542657" lon="7.869354">
        <ele>338.240593</ele>
        <time>2021-11-08T21:07:46.786Z</time>
      </trkpt>
      <trkpt lat="47.542696" lon="7.869257">
        <ele>338.167560</ele>
        <time>2021-11-08T21:07:47.722Z</time>
      </trkpt>
      <trkpt lat="47.542722" lon="7.869201">
        <ele>338.123595</ele>
        <time>2021-11-08T21:07:48.315Z</time>
      </trkpt>
      <trkpt lat="47.543049" lon="7.868759">
        <ele>337.699408</ele>
        <time>2021-11-08T21:07:53.226Z</time>
      </trkpt>
      <trkpt lat="47.543105" lon="7.868711">
        <ele>337.637410</ele>
        <time>2021-11-08T21:07:53.964Z</time>
      </trkpt>
      <trkpt lat="47.543201" lon="7.868657">
        <ele>337.539009</ele>
        <time>2021-11-08T21:07:55.043Z</time>
      </trkpt>
      <trkpt lat="47.543657" lon="7.868359">
        <ele>336.908862</ele>
        <time>2021-11-08T21:08:00.838Z</time>
      </trkpt>
      <trkpt lat="47.543801" lon="7.868269">
        <ele>336.703203</ele>
        <time>2021-11-08T21:08:03.317Z</time>
      </trkpt>
      <trkpt lat="47.544214" lon="7.867988">
        <ele>336.105170</ele>
        <time>2021-11-08T21:08:10.934Z</time>
      </trkpt>
      <trkpt lat="47.544246" lon="7.867967">
        <ele>336.059116</ele>
        <time>2021-11-08T21:08:11.531Z</time>
      </trkpt>
      <trkpt lat="47.544410" lon="7.867825">
        <ele>335.809156</ele>
        <time>2021-11-08T21:08:14.784Z</time>
      </trkpt>
      <trkpt lat="47.544469" lon="7.867776">
        <ele>335.720152</ele>
        <time>2021-11-08T21:08:15.806Z</time>
      </trkpt>
      <trkpt lat="47.544568" lon="7.867693">
        <ele>335.570466</ele>
        <time>2021-11-08T21:08:17.733Z</time>
      </trkpt>
      <trkpt lat="47.545003" lon="7.867278">
        <ele>335.244935</ele>
        <time>2021-11-08T21:08:26.581Z</time>
      </trkpt>
      <trkpt lat="47.545160" lon="7.866985">
        <ele>335.464935</ele>
        <time>2021-11-08T21:08:31.232Z</time>
      </trkpt>
      <trkpt lat="47.545240" lon="7.866887">
        <ele>335.555374</ele>
        <time>2021-11-08T21:08:33.505Z</time>
      </trkpt>
      <trkpt lat="47.546096" lon="7.866147">
        <ele>336.418830</ele>
        <time>2021-11-08T21:08:58.575Z</time>
      </trkpt>
      <trkpt lat="47.546327" lon="7.865959">
        <ele>336.648452</ele>
        <time>2021-11-08T21:09:06.312Z</time>
      </trkpt>
      <trkpt lat="47.546510" lon="7.865766">
        <ele>337.065317</ele>
        <time>2021-11-08T21:09:13.413Z</time>
      </trkpt>
      <trkpt lat="47.546819" lon="7.865489">
        <ele>337.780537</ele>
        <time>2021-11-08T21:09:23.645Z</time>
      </trkpt>
      <trkpt lat="47.546889" lon="7.865225">
        <ele>338.159674</ele>
        <time>2021-11-08T21:09:28.836Z</time>
      </trkpt>
      <trkpt lat="47.546894" lon="7.864837">
        <ele>338.678404</ele>
        <time>2021-11-08T21:09:36.256Z</time>
      </trkpt>
      <trkpt lat="47.546885" lon="7.864500">
        <ele>339.129220</ele>
        <time>2021-11-08T21:09:43.044Z</time>
      </trkpt>
      <trkpt lat="47.546877" lon="7.864345">
        <ele>339.337012</ele>
        <time>2021-11-08T21:09:45.938Z</time>
      </trkpt>
      <trkpt lat="47.546592" lon="7.863006">
        <ele>340.606580</ele>
        <time>2021-11-08T21:10:11.947Z</time>
      </trkpt>
      <trkpt lat="47.546526" lon="7.861665">
        <ele>341.291977</ele>
        <time>2021-11-08T21:10:32.679Z</time>
      </trkpt>
      <trkpt lat="47.546487" lon="7.859119">
        <ele>341.178629</ele>
        <time>2021-11-08T21:11:05.300Z</time>
      </trkpt>
      <trkpt lat="47.546537" lon="7.857497">
        <ele>340.864903</ele>
        <time>2021-11-08T21:11:26.311Z</time>
      </trkpt>
      <trkpt lat="47.546582" lon="7.856413">
        <ele>340.669128</ele>
        <time>2021-11-08T21:11:40.664Z</time>
      </trkpt>
      <trkpt lat="47.546945" lon="7.851719">
        <ele>339.159997</ele>
        <time>2021-11-08T21:12:41.694Z</time>
      </trkpt>
      <trkpt lat="47.547040" lon="7.851059">
        <ele>338.757076</ele>
        <time>2021-11-08T21:12:49.266Z</time>
      </trkpt>
      <trkpt lat="47.547141" lon="7.850355">
        <ele>338.232826</ele>
        <time>2021-11-08T21:12:57.260Z</time>
      </trkpt>
      <trkpt lat="47.547143" lon="7.849985">
        <ele>337.744778</ele>
        <time>2021-11-08T21:13:01.168Z</time>
      </trkpt>
      <trkpt lat="47.547124" lon="7.848795">
        <ele>336.174720</ele>
        <time>2021-11-08T21:13:13.767Z</time>
      </trkpt>
      <trkpt lat="47.547274" lon="7.845536">
        <ele>332.115837</ele>
        <time>2021-11-08T21:13:48.528Z</time>
      </trkpt>
      <trkpt lat="47.547295" lon="7.844722">
        <ele>331.323939</ele>
        <time>2021-11-08T21:13:58.010Z</time>
      </trkpt>
      <trkpt lat="47.547313" lon="7.843735">
        <ele>330.561172</ele>
        <time>2021-11-08T21:14:09.799Z</time>
      </trkpt>
      <trkpt lat="47.547354" lon="7.842839">
        <ele>329.867396</ele>
        <time>2021-11-08T21:14:20.070Z</time>
      </trkpt>
      <trkpt lat="47.547448" lon="7.842262">
        <ele>329.260086</ele>
        <time>2021-11-08T21:14:26.871Z</time>
      </trkpt>
      <trkpt lat="47.547549" lon="7.842268">
        <ele>329.057797</ele>
        <time>2021-11-08T21:14:28.565Z</time>
      </trkpt>
      <trkpt lat="47.547674" lon="7.842266">
        <ele>328.807625</ele>
        <time>2021-11-08T21:14:30.660Z</time>
      </trkpt>
      <trkpt lat="47.548105" lon="7.842284">
        <ele>327.944741</ele>
        <time>2021-11-08T21:14:37.416Z</time>
      </trkpt>
      <trkpt lat="47.549188" lon="7.842622">
        <ele>325.837956</ele>
        <time>2021-11-08T21:14:54.331Z</time>
      </trkpt>
      <trkpt lat="47.549582" lon="7.842702">
        <ele>325.351435</ele>
        <time>2021-11-08T21:15:00.519Z</time>
      </trkpt>
      <trkpt lat="47.549927" lon="7.842747">
        <ele>324.927734</ele>
        <time>2021-11-08T21:15:06.302Z</time>
      </trkpt>
      <trkpt lat="47.551243" lon="7.842849">
        <ele>323.660841</ele>
        <time>2021-11-08T21:15:30.440Z</time>
      </trkpt>
      <trkpt lat="47.551454" lon="7.842815">
        <ele>323.583396</ele>
        <time>2021-11-08T21:15:35.099Z</time>
      </trkpt>
      <trkpt lat="47.551668" lon="7.842770">
        <ele>323.504529</ele>
        <time>2021-11-08T21:15:39.657Z</time>
      </trkpt>
      <trkpt lat="47.551922" lon="7.842704">
        <ele>323.410435</ele>
        <time>2021-11-08T21:15:44.579Z</time>
      </trkpt>
      <trkpt lat="47.552380" lon="7.842592">
        <ele>323.241058</ele>
        <time>2021-11-08T21:15:53.473Z</time>
      </trkpt>
      <trkpt lat="47.552833" lon="7.842495">
        <ele>322.869737</ele>
        <time>2021-11-08T21:16:01.759Z</time>
      </trkpt>
      <trkpt lat="47.553133" lon="7.842431">
        <ele>322.466655</ele>
        <time>2021-11-08T21:16:07.043Z</time>
      </trkpt>
      <trkpt lat="47.553123" lon="7.842222">
        <ele>322.278596</ele>
        <time>2021-11-08T21:16:08.626Z</time>
      </trkpt>
      <trkpt lat="47.553216" lon="7.841849">
        <ele>321.921694</ele>
        <time>2021-11-08T21:16:11.834Z</time>
      </trkpt>
      <trkpt lat="47.553224" lon="7.841671">
        <ele>321.761576</ele>
        <time>2021-11-08T21:16:13.180Z</time>
      </trkpt>
      <trkpt lat="47.553231" lon="7.841529">
        <ele>321.633785</ele>
        <time>2021-11-08T21:16:14.335Z</time>
      </trkpt>
      <trkpt lat="47.552939" lon="7.839526">
        <ele>319.625286</ele>
        <time>2021-11-08T21:16:29.871Z</time>
      </trkpt>
      <trkpt lat="47.552802" lon="7.839009">
        <ele>319.039313</ele>
        <time>2021-11-08T21:16:34.192Z</time>
      </trkpt>
      <trkpt lat="47.552736" lon="7.838578">
        <ele>318.573049</ele>
        <time>2021-11-08T21:16:37.631Z</time>
      </trkpt>
      <trkpt lat="47.552697" lon="7.838068">
        <ele>318.031553</ele>
        <time>2021-11-08T21:16:41.647Z</time>
      </trkpt>
      <trkpt lat="47.552719" lon="7.836790">
        <ele>316.665647</ele>
        <time>2021-11-08T21:16:51.674Z</time>
      </trkpt>
      <trkpt lat="47.552714" lon="7.835010">
        <ele>314.542776</ele>
        <time>2021-11-08T21:17:05.424Z</time>
      </trkpt>
      <trkpt lat="47.552700" lon="7.833938">
        <ele>312.646761</ele>
        <time>2021-11-08T21:17:12.991Z</time>
      </trkpt>
      <trkpt lat="47.552696" lon="7.833789">
        <ele>312.383070</ele>
        <time>2021-11-08T21:17:13.988Z</time>
      </trkpt>
      <trkpt lat="47.552452" lon="7.833284">
        <ele>311.284805</ele>
        <time>2021-11-08T21:17:18.314Z</time>
      </trkpt>
      <trkpt lat="47.552467" lon="7.833198">
        <ele>311.127730</ele>
        <time>2021-11-08T21:17:18.926Z</time>
      </trkpt>
      <trkpt lat="47.552511" lon="7.833072">
        <ele>310.876861</ele>
        <time>2021-11-08T21:17:19.931Z</time>
      </trkpt>
      <trkpt lat="47.552556" lon="7.832977">
        <ele>310.671621</ele>
        <time>2021-11-08T21:17:20.748Z</time>
      </trkpt>
      <trkpt lat="47.552616" lon="7.832891">
        <ele>310.452895</ele>
        <time>2021-11-08T21:17:21.554Z</time>
      </trkpt>
      <trkpt lat="47.552690" lon="7.832598">
        <ele>309.842104</ele>
        <time>2021-11-08T21:17:23.755Z</time>
      </trkpt>
      <trkpt lat="47.552645" lon="7.830686">
        <ele>306.057864</ele>
        <time>2021-11-08T21:17:36.877Z</time>
      </trkpt>
      <trkpt lat="47.552554" lon="7.829266">
        <ele>303.948680</ele>
        <time>2021-11-08T21:17:47.164Z</time>
      </trkpt>
      <trkpt lat="47.552416" lon="7.828822">
        <ele>303.348582</ele>
        <time>2021-11-08T21:17:50.828Z</time>
      </trkpt>
      <trkpt lat="47.552404" lon="7.828582">
        <ele>303.053138</ele>
        <time>2021-11-08T21:17:52.742Z</time>
      </trkpt>
      <trkpt lat="47.552421" lon="7.828481">
        <ele>302.925348</ele>
        <time>2021-11-08T21:17:53.498Z</time>
      </trkpt>
      <trkpt lat="47.552477" lon="7.828294">
        <ele>302.674193</ele>
        <time>2021-11-08T21:17:55.073Z</time>
      </trkpt>
      <trkpt lat="47.552515" lon="7.828094">
        <ele>302.419120</ele>
        <time>2021-11-08T21:17:56.792Z</time>
      </trkpt>
      <trkpt lat="47.552491" lon="7.827227">
        <ele>301.636904</ele>
        <time>2021-11-08T21:18:03.699Z</time>
      </trkpt>
      <trkpt lat="47.552567" lon="7.824508">
        <ele>300.242050</ele>
        <time>2021-11-08T21:18:27.547Z</time>
      </trkpt>
      <trkpt lat="47.552896" lon="7.820699">
        <ele>298.342027</ele>
        <time>2021-11-08T21:19:00.286Z</time>
      </trkpt>
      <trkpt lat="47.552948" lon="7.819358">
        <ele>297.763950</ele>
        <time>2021-11-08T21:19:11.825Z</time>
      </trkpt>
      <trkpt lat="47.552844" lon="7.816432">
        <ele>297.421471</ele>
        <time>2021-11-08T21:19:39.459Z</time>
      </trkpt>
      <trkpt lat="47.552711" lon="7.812955">
        <ele>298.597319</ele>
        <time>2021-11-08T21:20:20.114Z</time>
      </trkpt>
      <trkpt lat="47.552566" lon="7.810386">
        <ele>299.739578</ele>
        <time>2021-11-08T21:20:50.145Z</time>
      </trkpt>
      <trkpt lat="47.552398" lon="7.808880">
        <ele>300.404203</ele>
        <time>2021-11-08T21:21:08.626Z</time>
      </trkpt>
      <trkpt lat="47.552068" lon="7.806445">
        <ele>301.040073</ele>
        <time>2021-11-08T21:21:36.966Z</time>
      </trkpt>
      <trkpt lat="47.552015" lon="7.806307">
        <ele>300.978733</ele>
        <time>2021-11-08T21:21:38.689Z</time>
      </trkpt>
      <trkpt lat="47.551895" lon="7.806278">
        <ele>300.895312</ele>
        <time>2021-11-08T21:21:39.998Z</time>
      </trkpt>
      <trkpt lat="47.551651" lon="7.806246">
        <ele>300.727249</ele>
        <time>2021-11-08T21:21:43.761Z</time>
      </trkpt>
      <trkpt lat="47.551671" lon="7.806117">
        <ele>300.665957</ele>
        <time>2021-11-08T21:21:45.075Z</time>
      </trkpt>
      <trkpt lat="47.551681" lon="7.805477">
        <ele>300.369514</ele>
        <time>2021-11-08T21:21:52.773Z</time>
      </trkpt>
      <trkpt lat="47.551709" lon="7.805000">
        <ele>300.147797</ele>
        <time>2021-11-08T21:21:58.412Z</time>
      </trkpt>
      <trkpt lat="47.551731" lon="7.804667">
        <ele>299.992859</ele>
        <time>2021-11-08T21:22:02.998Z</time>
      </trkpt>
      <trkpt lat="47.551744" lon="7.804473">
        <ele>299.902582</ele>
        <time>2021-11-08T21:22:04.993Z</time>
      </trkpt>
      <trkpt lat="47.551741" lon="7.804294">
        <ele>299.819667</ele>
        <time>2021-11-08T21:22:07.329Z</time>
      </trkpt>
      <trkpt lat="47.551692" lon="7.803510">
        <ele>299.465679</ele>
        <time>2021-11-08T21:22:16.458Z</time>
      </trkpt>
      <trkpt lat="47.551751" lon="7.803369">
        <ele>299.391150</ele>
        <time>2021-11-08T21:22:18.393Z</time>
      </trkpt>
      <trkpt lat="47.551744" lon="7.803277">
        <ele>299.349558</ele>
        <time>2021-11-08T21:22:19.189Z</time>
      </trkpt>
      <trkpt lat="47.551732" lon="7.803125">
        <ele>299.280808</ele>
        <time>2021-11-08T21:22:20.586Z</time>
      </trkpt>
      <trkpt lat="47.551700" lon="7.802648">
        <ele>299.065465</ele>
        <time>2021-11-08T21:22:24.932Z</time>
      </trkpt>
      <trkpt lat="47.551688" lon="7.802394">
        <ele>298.951079</ele>
        <time>2021-11-08T21:22:27.326Z</time>
      </trkpt>
      <trkpt lat="47.551679" lon="7.802228">
        <ele>298.876265</ele>
        <time>2021-11-08T21:22:28.914Z</time>
      </trkpt>
      <trkpt lat="47.551671" lon="7.802077">
        <ele>298.808221</ele>
        <time>2021-11-08T21:22:30.549Z</time>
      </trkpt>
      <trkpt lat="47.551669" lon="7.801853">
        <ele>298.707582</ele>
        <time>2021-11-08T21:22:32.538Z</time>
      </trkpt>
      <trkpt lat="47.551666" lon="7.801632">
        <ele>298.598195</ele>
        <time>2021-11-08T21:22:34.687Z</time>
      </trkpt>
      <trkpt lat="47.551669" lon="7.801438">
        <ele>298.330621</ele>
        <time>2021-11-08T21:22:36.462Z</time>
      </trkpt>
      <trkpt lat="47.551672" lon="7.801147">
        <ele>297.929318</ele>
        <time>2021-11-08T21:22:38.719Z</time>
      </trkpt>
      <trkpt lat="47.551704" lon="7.800451">
        <ele>296.967389</ele>
        <time>2021-11-08T21:22:44.425Z</time>
      </trkpt>
      <trkpt lat="47.551712" lon="7.800249">
        <ele>296.688375</ele>
        <time>2021-11-08T21:22:45.934Z</time>
      </trkpt>
      <trkpt lat="47.551626" lon="7.800232">
        <ele>296.511119</ele>
        <time>2021-11-08T21:22:51.946Z</time>
      </trkpt>
      <trkpt lat="47.551626" lon="7.800232">
        <ele>296.511119</ele>
        <time>2021-11-08T21:22:51.979Z</time>
      </trkpt>
      <trkpt lat="47.551626" lon="7.800232">
        <ele>296.511119</ele>
        <time>2021-11-08T21:22:52.013Z</time>
      </trkpt>
      <trkpt lat="47.551712" lon="7.800249">
        <ele>296.333862</ele>
        <time>2021-11-08T21:22:58.022Z</time>
      </trkpt>
      <trkpt lat="47.551754" lon="7.799766">
        <ele>295.662356</ele>
        <time>2021-11-08T21:23:01.357Z</time>
      </trkpt>
      <trkpt lat="47.551793" lon="7.799434">
        <ele>295.197685</ele>
        <time>2021-11-08T21:23:03.682Z</time>
      </trkpt>
      <trkpt lat="47.551805" lon="7.799326">
        <ele>295.046761</ele>
        <time>2021-11-08T21:23:04.382Z</time>
      </trkpt>
      <trkpt lat="47.551948" lon="7.798607">
        <ele>293.087893</ele>
        <time>2021-11-08T21:23:09.488Z</time>
      </trkpt>
      <trkpt lat="47.552084" lon="7.798083">
        <ele>291.539656</ele>
        <time>2021-11-08T21:23:13.109Z</time>
      </trkpt>
      <trkpt lat="47.552152" lon="7.797876">
        <ele>290.904770</ele>
        <time>2021-11-08T21:23:14.572Z</time>
      </trkpt>
      <trkpt lat="47.552493" lon="7.797048">
        <ele>288.229807</ele>
        <time>2021-11-08T21:23:20.798Z</time>
      </trkpt>
      <trkpt lat="47.552762" lon="7.796425">
        <ele>286.796622</ele>
        <time>2021-11-08T21:23:25.758Z</time>
      </trkpt>
      <trkpt lat="47.552817" lon="7.796239">
        <ele>286.479368</ele>
        <time>2021-11-08T21:23:27.162Z</time>
      </trkpt>
      <trkpt lat="47.552823" lon="7.796217">
        <ele>286.442297</ele>
        <time>2021-11-08T21:23:27.325Z</time>
      </trkpt>
      <trkpt lat="47.552886" lon="7.795976">
        <ele>286.038528</ele>
        <time>2021-11-08T21:23:29.163Z</time>
      </trkpt>
      <trkpt lat="47.552930" lon="7.795600">
        <ele>285.442341</ele>
        <time>2021-11-08T21:23:32.052Z</time>
      </trkpt>
      <trkpt lat="47.552917" lon="7.795354">
        <ele>285.056841</ele>
        <time>2021-11-08T21:23:33.958Z</time>
      </trkpt>
      <trkpt lat="47.552909" lon="7.795229">
        <ele>284.860679</ele>
        <time>2021-11-08T21:23:34.939Z</time>
      </trkpt>
      <trkpt lat="47.552892" lon="7.795106">
        <ele>284.664529</ele>
        <time>2021-11-08T21:23:35.859Z</time>
      </trkpt>
      <trkpt lat="47.552861" lon="7.794992">
        <ele>284.472514</ele>
        <time>2021-11-08T21:23:36.749Z</time>
      </trkpt>
      <trkpt lat="47.552837" lon="7.794925">
        <ele>284.354011</ele>
        <time>2021-11-08T21:23:37.328Z</time>
      </trkpt>
      <trkpt lat="47.552826" lon="7.794894">
        <ele>284.299294</ele>
        <time>2021-11-08T21:23:37.593Z</time>
      </trkpt>
      <trkpt lat="47.552786" lon="7.794796">
        <ele>284.120368</ele>
        <time>2021-11-08T21:23:38.434Z</time>
      </trkpt>
      <trkpt lat="47.552763" lon="7.794750">
        <ele>284.030929</ele>
        <time>2021-11-08T21:23:38.955Z</time>
      </trkpt>
      <trkpt lat="47.552644" lon="7.794507">
        <ele>283.561882</ele>
        <time>2021-11-08T21:23:41.225Z</time>
      </trkpt>
      <trkpt lat="47.552532" lon="7.794285">
        <ele>283.344166</ele>
        <time>2021-11-08T21:23:43.393Z</time>
      </trkpt>
      <trkpt lat="47.552494" lon="7.794200">
        <ele>283.300461</ele>
        <time>2021-11-08T21:23:44.204Z</time>
      </trkpt>
      <trkpt lat="47.552384" lon="7.793915">
        <ele>283.159724</ele>
        <time>2021-11-08T21:23:46.953Z</time>
      </trkpt>
      <trkpt lat="47.552369" lon="7.793872">
        <ele>283.138974</ele>
        <time>2021-11-08T21:23:47.590Z</time>
      </trkpt>
      <trkpt lat="47.552292" lon="7.793607">
        <ele>283.015296</ele>
        <time>2021-11-08T21:23:49.990Z</time>
      </trkpt>
      <trkpt lat="47.552233" lon="7.793294">
        <ele>282.875988</ele>
        <time>2021-11-08T21:23:53.405Z</time>
      </trkpt>
      <trkpt lat="47.552216" lon="7.793160">
        <ele>282.817540</ele>
        <time>2021-11-08T21:23:54.564Z</time>
      </trkpt>
      <trkpt lat="47.552198" lon="7.792976">
        <ele>282.737840</ele>
        <time>2021-11-08T21:23:56.298Z</time>
      </trkpt>
      <trkpt lat="47.552184" lon="7.792540">
        <ele>282.550728</ele>
        <time>2021-11-08T21:24:00.706Z</time>
      </trkpt>
      <trkpt lat="47.552180" lon="7.792294">
        <ele>282.445245</ele>
        <time>2021-11-08T21:24:03.225Z</time>
      </trkpt>
      <trkpt lat="47.552182" lon="7.792040">
        <ele>282.336355</ele>
        <time>2021-11-08T21:24:05.390Z</time>
      </trkpt>
      <trkpt lat="47.552201" lon="7.791031">
        <ele>281.845189</ele>
        <time>2021-11-08T21:24:13.889Z</time>
      </trkpt>
      <trkpt lat="47.552135" lon="7.790302">
        <ele>281.481315</ele>
        <time>2021-11-08T21:24:20.317Z</time>
      </trkpt>
      <trkpt lat="47.552036" lon="7.789826">
        <ele>281.234905</ele>
        <time>2021-11-08T21:24:24.647Z</time>
      </trkpt>
      <trkpt lat="47.551858" lon="7.788906">
        <ele>280.658586</ele>
        <time>2021-11-08T21:24:32.678Z</time>
      </trkpt>
      <trkpt lat="47.551712" lon="7.788013">
        <ele>279.974125</ele>
        <time>2021-11-08T21:24:40.179Z</time>
      </trkpt>
      <trkpt lat="47.551694" lon="7.787879">
        <ele>279.872346</ele>
        <time>2021-11-08T21:24:41.293Z</time>
      </trkpt>
      <trkpt lat="47.551690" lon="7.787827">
        <ele>279.833359</ele>
        <time>2021-11-08T21:24:41.719Z</time>
      </trkpt>
      <trkpt lat="47.551672" lon="7.787603">
        <ele>279.665316</ele>
        <time>2021-11-08T21:24:43.473Z</time>
      </trkpt>
      <trkpt lat="47.551498" lon="7.785081">
        <ele>277.934874</ele>
        <time>2021-11-08T21:25:03.899Z</time>
      </trkpt>
      <trkpt lat="47.551479" lon="7.784929">
        <ele>277.834852</ele>
        <time>2021-11-08T21:25:05.154Z</time>
      </trkpt>
      <trkpt lat="47.551510" lon="7.784910">
        <ele>277.802691</ele>
        <time>2021-11-08T21:25:05.626Z</time>
      </trkpt>
      <trkpt lat="47.551531" lon="7.784884">
        <ele>277.776456</ele>
        <time>2021-11-08T21:25:05.978Z</time>
      </trkpt>
      <trkpt lat="47.551548" lon="7.784841">
        <ele>277.744211</ele>
        <time>2021-11-08T21:25:06.442Z</time>
      </trkpt>
      <trkpt lat="47.551554" lon="7.784788">
        <ele>277.709439</ele>
        <time>2021-11-08T21:25:06.912Z</time>
      </trkpt>
      <trkpt lat="47.551547" lon="7.784737">
        <ele>277.675765</ele>
        <time>2021-11-08T21:25:07.361Z</time>
      </trkpt>
      <trkpt lat="47.551525" lon="7.784691">
        <ele>277.639286</ele>
        <time>2021-11-08T21:25:07.867Z</time>
      </trkpt>
      <trkpt lat="47.551500" lon="7.784666">
        <ele>277.610372</ele>
        <time>2021-11-08T21:25:08.246Z</time>
      </trkpt>
      <trkpt lat="47.551472" lon="7.784654">
        <ele>277.582428</ele>
        <time>2021-11-08T21:25:08.611Z</time>
      </trkpt>
      <trkpt lat="47.551437" lon="7.784657">
        <ele>277.548819</ele>
        <time>2021-11-08T21:25:09.040Z</time>
      </trkpt>
      <trkpt lat="47.551439" lon="7.784323">
        <ele>277.332700</ele>
        <time>2021-11-08T21:25:11.967Z</time>
      </trkpt>
      <trkpt lat="47.551385" lon="7.783670">
        <ele>277.160954</ele>
        <time>2021-11-08T21:25:17.810Z</time>
      </trkpt>
      <trkpt lat="47.551302" lon="7.782671">
        <ele>276.984567</ele>
        <time>2021-11-08T21:25:27.568Z</time>
      </trkpt>
      <trkpt lat="47.551230" lon="7.781831">
        <ele>276.836182</ele>
        <time>2021-11-08T21:25:35.750Z</time>
      </trkpt>
      <trkpt lat="47.551198" lon="7.781475">
        <ele>276.769041</ele>
        <time>2021-11-08T21:25:39.258Z</time>
      </trkpt>
      <trkpt lat="47.551270" lon="7.781390">
        <ele>276.738448</ele>
        <time>2021-11-08T21:25:41.034Z</time>
      </trkpt>
      <trkpt lat="47.551208" lon="7.780694">
        <ele>276.580988</ele>
        <time>2021-11-08T21:25:47.773Z</time>
      </trkpt>
      <trkpt lat="47.551085" lon="7.779125">
        <ele>276.226710</ele>
        <time>2021-11-08T21:26:02.253Z</time>
      </trkpt>
      <trkpt lat="47.550982" lon="7.777915">
        <ele>275.984458</ele>
        <time>2021-11-08T21:26:12.815Z</time>
      </trkpt>
      <trkpt lat="47.550963" lon="7.777797">
        <ele>275.960835</ele>
        <time>2021-11-08T21:26:13.829Z</time>
      </trkpt>
      <trkpt lat="47.550782" lon="7.776690">
        <ele>275.739038</ele>
        <time>2021-11-08T21:26:24.602Z</time>
      </trkpt>
      <trkpt lat="47.550607" lon="7.775871">
        <ele>275.833450</ele>
        <time>2021-11-08T21:26:33.935Z</time>
      </trkpt>
      <trkpt lat="47.550598" lon="7.775828">
        <ele>275.847657</ele>
        <time>2021-11-08T21:26:34.421Z</time>
      </trkpt>
      <trkpt lat="47.550505" lon="7.775364">
        <ele>276.000399</ele>
        <time>2021-11-08T21:26:39.935Z</time>
      </trkpt>
      <trkpt lat="47.550320" lon="7.774602">
        <ele>276.255944</ele>
        <time>2021-11-08T21:26:49.424Z</time>
      </trkpt>
      <trkpt lat="47.550090" lon="7.773646">
        <ele>276.563689</ele>
        <time>2021-11-08T21:27:01.298Z</time>
      </trkpt>
      <trkpt lat="47.550061" lon="7.773283">
        <ele>276.656333</ele>
        <time>2021-11-08T21:27:05.436Z</time>
      </trkpt>
      <trkpt lat="47.550203" lon="7.772543">
        <ele>276.851318</ele>
        <time>2021-11-08T21:27:13.645Z</time>
      </trkpt>
      <trkpt lat="47.550199" lon="7.772076">
        <ele>276.969687</ele>
        <time>2021-11-08T21:27:18.634Z</time>
      </trkpt>
      <trkpt lat="47.550069" lon="7.771373">
        <ele>277.154428</ele>
        <time>2021-11-08T21:27:26.448Z</time>
      </trkpt>
      <trkpt lat="47.549845" lon="7.770734">
        <ele>277.517253</ele>
        <time>2021-11-08T21:27:34.604Z</time>
      </trkpt>
      <trkpt lat="47.549714" lon="7.770276">
        <ele>277.795962</ele>
        <time>2021-11-08T21:27:40.376Z</time>
      </trkpt>
      <trkpt lat="47.549678" lon="7.770148">
        <ele>277.873658</ele>
        <time>2021-11-08T21:27:42.167Z</time>
      </trkpt>
      <trkpt lat="47.549363" lon="7.768846">
        <ele>278.648622</ele>
        <time>2021-11-08T21:27:59.349Z</time>
      </trkpt>
      <trkpt lat="47.549184" lon="7.768021">
        <ele>279.211543</ele>
        <time>2021-11-08T21:28:11.791Z</time>
      </trkpt>
      <trkpt lat="47.548990" lon="7.767248">
        <ele>279.752544</ele>
        <time>2021-11-08T21:28:23.465Z</time>
      </trkpt>
      <trkpt lat="47.548565" lon="7.765680">
        <ele>280.021390</ele>
        <time>2021-11-08T21:28:42.275Z</time>
      </trkpt>
      <trkpt lat="47.547909" lon="7.763208">
        <ele>278.082042</ele>
        <time>2021-11-08T21:29:03.148Z</time>
      </trkpt>
      <trkpt lat="47.547848" lon="7.762928">
        <ele>277.766745</ele>
        <time>2021-11-08T21:29:05.301Z</time>
      </trkpt>
      <trkpt lat="47.547778" lon="7.762713">
        <ele>277.510942</ele>
        <time>2021-11-08T21:29:07.105Z</time>
      </trkpt>
      <trkpt lat="47.547639" lon="7.762432">
        <ele>277.137606</ele>
        <time>2021-11-08T21:29:09.709Z</time>
      </trkpt>
      <trkpt lat="47.547577" lon="7.762307">
        <ele>276.971375</ele>
        <time>2021-11-08T21:29:10.875Z</time>
      </trkpt>
      <trkpt lat="47.547194" lon="7.761352">
        <ele>275.907733</ele>
        <time>2021-11-08T21:29:19.384Z</time>
      </trkpt>
      <trkpt lat="47.546989" lon="7.760612">
        <ele>275.817925</ele>
        <time>2021-11-08T21:29:25.870Z</time>
      </trkpt>
      <trkpt lat="47.546948" lon="7.760482">
        <ele>275.801815</ele>
        <time>2021-11-08T21:29:27.110Z</time>
      </trkpt>
      <trkpt lat="47.546870" lon="7.760301">
        <ele>275.777705</ele>
        <time>2021-11-08T21:29:28.997Z</time>
      </trkpt>
      <trkpt lat="47.546804" lon="7.760164">
        <ele>275.758807</ele>
        <time>2021-11-08T21:29:30.449Z</time>
      </trkpt>
      <trkpt lat="47.546552" lon="7.759727">
        <ele>275.694276</ele>
        <time>2021-11-08T21:29:36.434Z</time>
      </trkpt>
      <trkpt lat="47.546312" lon="7.759326">
        <ele>275.634104</ele>
        <time>2021-11-08T21:29:42.798Z</time>
      </trkpt>
      <trkpt lat="47.546264" lon="7.759224">
        <ele>275.679318</ele>
        <time>2021-11-08T21:29:44.432Z</time>
      </trkpt>
      <trkpt lat="47.545911" lon="7.758393">
        <ele>277.576869</ele>
        <time>2021-11-08T21:30:00.832Z</time>
      </trkpt>
      <trkpt lat="47.545677" lon="7.757815">
        <ele>278.879430</ele>
        <time>2021-11-08T21:30:13.284Z</time>
      </trkpt>
      <trkpt lat="47.545429" lon="7.757231">
        <ele>280.212860</ele>
        <time>2021-11-08T21:30:26.590Z</time>
      </trkpt>
      <trkpt lat="47.545360" lon="7.757065">
        <ele>280.589625</ele>
        <time>2021-11-08T21:30:31.249Z</time>
      </trkpt>
      <trkpt lat="47.545326" lon="7.756949">
        <ele>280.835398</ele>
        <time>2021-11-08T21:30:34.000Z</time>
      </trkpt>
      <trkpt lat="47.545304" lon="7.756852">
        <ele>281.037595</ele>
        <time>2021-11-08T21:30:36.202Z</time>
      </trkpt>
      <trkpt lat="47.545260" lon="7.756637">
        <ele>281.481521</ele>
        <time>2021-11-08T21:30:41.259Z</time>
      </trkpt>
      <trkpt lat="47.545021" lon="7.756243">
        <ele>282.528220</ele>
        <time>2021-11-08T21:30:52.349Z</time>
      </trkpt>
      <trkpt lat="47.544022" lon="7.753705">
        <ele>287.347172</ele>
        <time>2021-11-08T21:31:40.819Z</time>
      </trkpt>
      <trkpt lat="47.543798" lon="7.753068">
        <ele>288.156487</ele>
        <time>2021-11-08T21:31:50.559Z</time>
      </trkpt>
      <trkpt lat="47.543319" lon="7.751355">
        <ele>289.474280</ele>
        <time>2021-11-08T21:32:13.792Z</time>
      </trkpt>
      <trkpt lat="47.543222" lon="7.751091">
        <ele>289.596142</ele>
        <time>2021-11-08T21:32:17.025Z</time>
      </trkpt>
      <trkpt lat="47.543115" lon="7.750826">
        <ele>289.721335</ele>
        <time>2021-11-08T21:32:21.832Z</time>
      </trkpt>
      <trkpt lat="47.543033" lon="7.750614">
        <ele>289.820397</ele>
        <time>2021-11-08T21:32:24.353Z</time>
      </trkpt>
      <trkpt lat="47.542682" lon="7.749895">
        <ele>290.123967</ele>
        <time>2021-11-08T21:32:34.249Z</time>
      </trkpt>
      <trkpt lat="47.542614" lon="7.749755">
        <ele>290.127500</ele>
        <time>2021-11-08T21:32:35.900Z</time>
      </trkpt>
      <trkpt lat="47.542390" lon="7.749307">
        <ele>290.138918</ele>
        <time>2021-11-08T21:32:41.715Z</time>
      </trkpt>
      <trkpt lat="47.542347" lon="7.749227">
        <ele>290.141013</ele>
        <time>2021-11-08T21:32:43.278Z</time>
      </trkpt>
      <trkpt lat="47.542132" lon="7.748742">
        <ele>290.152897</ele>
        <time>2021-11-08T21:32:50.851Z</time>
      </trkpt>
      <trkpt lat="47.541758" lon="7.747784">
        <ele>290.175572</ele>
        <time>2021-11-08T21:33:05.503Z</time>
      </trkpt>
      <trkpt lat="47.541583" lon="7.747186">
        <ele>290.198469</ele>
        <time>2021-11-08T21:33:14.682Z</time>
      </trkpt>
      <trkpt lat="47.541511" lon="7.746885">
        <ele>290.209688</ele>
        <time>2021-11-08T21:33:19.152Z</time>
      </trkpt>
      <trkpt lat="47.541432" lon="7.746552">
        <ele>290.222089</ele>
        <time>2021-11-08T21:33:24.263Z</time>
      </trkpt>
      <trkpt lat="47.541167" lon="7.745463">
        <ele>290.262757</ele>
        <time>2021-11-08T21:33:40.097Z</time>
      </trkpt>
      <trkpt lat="47.541160" lon="7.745250">
        <ele>290.269932</ele>
        <time>2021-11-08T21:33:42.967Z</time>
      </trkpt>
      <trkpt lat="47.541148" lon="7.745144">
        <ele>290.272614</ele>
        <time>2021-11-08T21:33:44.478Z</time>
      </trkpt>
      <trkpt lat="47.541130" lon="7.745083">
        <ele>290.274276</ele>
        <time>2021-11-08T21:33:45.393Z</time>
      </trkpt>
      <trkpt lat="47.541038" lon="7.744940">
        <ele>290.279205</ele>
        <time>2021-11-08T21:33:47.782Z</time>
      </trkpt>
      <trkpt lat="47.541019" lon="7.744859">
        <ele>290.281345</ele>
        <time>2021-11-08T21:33:49.026Z</time>
      </trkpt>
      <trkpt lat="47.540913" lon="7.744421">
        <ele>290.292956</ele>
        <time>2021-11-08T21:33:55.570Z</time>
      </trkpt>
      <trkpt lat="47.540765" lon="7.743764">
        <ele>290.310240</ele>
        <time>2021-11-08T21:34:05.492Z</time>
      </trkpt>
      <trkpt lat="47.540738" lon="7.743641">
        <ele>290.313467</ele>
        <time>2021-11-08T21:34:07.358Z</time>
      </trkpt>
      <trkpt lat="47.540617" lon="7.742875">
        <ele>290.333099</ele>
        <time>2021-11-08T21:34:18.324Z</time>
      </trkpt>
      <trkpt lat="47.540589" lon="7.742558">
        <ele>290.238458</ele>
        <time>2021-11-08T21:34:22.680Z</time>
      </trkpt>
      <trkpt lat="47.540552" lon="7.742240">
        <ele>290.094388</ele>
        <time>2021-11-08T21:34:26.967Z</time>
      </trkpt>
      <trkpt lat="47.540438" lon="7.740453">
        <ele>289.292997</ele>
        <time>2021-11-08T21:34:48.778Z</time>
      </trkpt>
      <trkpt lat="47.540374" lon="7.739620">
        <ele>288.753262</ele>
        <time>2021-11-08T21:34:58.235Z</time>
      </trkpt>
      <trkpt lat="47.540372" lon="7.739490">
        <ele>288.652972</ele>
        <time>2021-11-08T21:34:59.785Z</time>
      </trkpt>
      <trkpt lat="47.540387" lon="7.739372">
        <ele>288.560363</ele>
        <time>2021-11-08T21:35:01.273Z</time>
      </trkpt>
      <trkpt lat="47.540394" lon="7.739259">
        <ele>288.472844</ele>
        <time>2021-11-08T21:35:02.604Z</time>
      </trkpt>
      <trkpt lat="47.540388" lon="7.739213">
        <ele>288.436709</ele>
        <time>2021-11-08T21:35:02.996Z</time>
      </trkpt>
      <trkpt lat="47.540032" lon="7.737141">
        <ele>287.114251</ele>
        <time>2021-11-08T21:35:27.524Z</time>
      </trkpt>
      <trkpt lat="47.539305" lon="7.734151">
        <ele>287.689862</ele>
        <time>2021-11-08T21:36:14.318Z</time>
      </trkpt>
      <trkpt lat="47.539263" lon="7.733885">
        <ele>287.823040</ele>
        <time>2021-11-08T21:36:18.718Z</time>
      </trkpt>
      <trkpt lat="47.539178" lon="7.733656">
        <ele>287.950443</ele>
        <time>2021-11-08T21:36:22.869Z</time>
      </trkpt>
      <trkpt lat="47.538887" lon="7.732454">
        <ele>288.568798</ele>
        <time>2021-11-08T21:36:43.556Z</time>
      </trkpt>
      <trkpt lat="47.538512" lon="7.730958">
        <ele>289.223860</ele>
        <time>2021-11-08T21:37:09.059Z</time>
      </trkpt>
      <trkpt lat="47.538339" lon="7.730082">
        <ele>289.598524</ele>
        <time>2021-11-08T21:37:22.433Z</time>
      </trkpt>
      <trkpt lat="47.538275" lon="7.729744">
        <ele>289.485671</ele>
        <time>2021-11-08T21:37:27.296Z</time>
      </trkpt>
      <trkpt lat="47.538248" lon="7.729713">
        <ele>289.454335</ele>
        <time>2021-11-08T21:37:27.910Z</time>
      </trkpt>
      <trkpt lat="47.538168" lon="7.729263">
        <ele>289.166157</ele>
        <time>2021-11-08T21:37:33.995Z</time>
      </trkpt>
      <trkpt lat="47.538148" lon="7.729131">
        <ele>289.082378</ele>
        <time>2021-11-08T21:37:35.662Z</time>
      </trkpt>
      <trkpt lat="47.538123" lon="7.729100">
        <ele>289.052470</ele>
        <time>2021-11-08T21:37:36.258Z</time>
      </trkpt>
      <trkpt lat="47.538083" lon="7.728919">
        <ele>288.934526</ele>
        <time>2021-11-08T21:37:38.590Z</time>
      </trkpt>
      <trkpt lat="47.538039" lon="7.728633">
        <ele>288.752870</ele>
        <time>2021-11-08T21:37:42.168Z</time>
      </trkpt>
      <trkpt lat="47.537932" lon="7.727936">
        <ele>288.310209</ele>
        <time>2021-11-08T21:37:50.403Z</time>
      </trkpt>
      <trkpt lat="47.537861" lon="7.727909">
        <ele>288.242967</ele>
        <time>2021-11-08T21:37:51.590Z</time>
      </trkpt>
      <trkpt lat="47.537824" lon="7.727674">
        <ele>288.093529</ele>
        <time>2021-11-08T21:37:53.443Z</time>
      </trkpt>
      <trkpt lat="47.537675" lon="7.726458">
        <ele>285.633686</ele>
        <time>2021-11-08T21:38:02.385Z</time>
      </trkpt>
      <trkpt lat="47.537323" lon="7.724748">
        <ele>281.695781</ele>
        <time>2021-11-08T21:38:14.128Z</time>
      </trkpt>
      <trkpt lat="47.537127" lon="7.723974">
        <ele>279.885078</ele>
        <time>2021-11-08T21:38:19.564Z</time>
      </trkpt>
      <trkpt lat="47.537106" lon="7.723875">
        <ele>279.657777</ele>
        <time>2021-11-08T21:38:20.248Z</time>
      </trkpt>
      <trkpt lat="47.537075" lon="7.723694">
        <ele>279.248756</ele>
        <time>2021-11-08T21:38:21.477Z</time>
      </trkpt>
      <trkpt lat="47.536854" lon="7.722329">
        <ele>276.199577</ele>
        <time>2021-11-08T21:38:31.390Z</time>
      </trkpt>
      <trkpt lat="47.536667" lon="7.721718">
        <ele>275.077377</ele>
        <time>2021-11-08T21:38:36.513Z</time>
      </trkpt>
      <trkpt lat="47.536590" lon="7.721558">
        <ele>274.748688</ele>
        <time>2021-11-08T21:38:38.030Z</time>
      </trkpt>
      <trkpt lat="47.536471" lon="7.721389">
        <ele>274.340201</ele>
        <time>2021-11-08T21:38:39.959Z</time>
      </trkpt>
      <trkpt lat="47.536092" lon="7.720862">
        <ele>273.052163</ele>
        <time>2021-11-08T21:38:45.328Z</time>
      </trkpt>
      <trkpt lat="47.535988" lon="7.720671">
        <ele>272.641688</ele>
        <time>2021-11-08T21:38:47.002Z</time>
      </trkpt>
      <trkpt lat="47.535897" lon="7.720461">
        <ele>272.224259</ele>
        <time>2021-11-08T21:38:48.702Z</time>
      </trkpt>
      <trkpt lat="47.535876" lon="7.720409">
        <ele>272.122897</ele>
        <time>2021-11-08T21:38:49.105Z</time>
      </trkpt>
      <trkpt lat="47.535806" lon="7.720212">
        <ele>271.759798</ele>
        <time>2021-11-08T21:38:50.656Z</time>
      </trkpt>
      <trkpt lat="47.535746" lon="7.719899">
        <ele>271.283185</ele>
        <time>2021-11-08T21:38:52.934Z</time>
      </trkpt>
      <trkpt lat="47.535713" lon="7.719682">
        <ele>270.957355</ele>
        <time>2021-11-08T21:38:54.499Z</time>
      </trkpt>
      <trkpt lat="47.535661" lon="7.719317">
        <ele>270.410920</ele>
        <time>2021-11-08T21:38:57.201Z</time>
      </trkpt>
      <trkpt lat="47.535608" lon="7.718948">
        <ele>269.858302</ele>
        <time>2021-11-08T21:38:59.987Z</time>
      </trkpt>
      <trkpt lat="47.535597" lon="7.718872">
        <ele>269.744446</ele>
        <time>2021-11-08T21:39:00.511Z</time>
      </trkpt>
      <trkpt lat="47.535572" lon="7.718705">
        <ele>269.493879</ele>
        <time>2021-11-08T21:39:01.693Z</time>
      </trkpt>
      <trkpt lat="47.535558" lon="7.718578">
        <ele>269.305382</ele>
        <time>2021-11-08T21:39:02.780Z</time>
      </trkpt>
      <trkpt lat="47.535516" lon="7.718273">
        <ele>268.849411</ele>
        <time>2021-11-08T21:39:04.998Z</time>
      </trkpt>
      <trkpt lat="47.535494" lon="7.718111">
        <ele>268.607355</ele>
        <time>2021-11-08T21:39:06.170Z</time>
      </trkpt>
      <trkpt lat="47.535490" lon="7.718086">
        <ele>268.569720</ele>
        <time>2021-11-08T21:39:06.696Z</time>
      </trkpt>
      <trkpt lat="47.535419" lon="7.717562">
        <ele>267.974395</ele>
        <time>2021-11-08T21:39:10.717Z</time>
      </trkpt>
      <trkpt lat="47.535384" lon="7.717243">
        <ele>268.153946</ele>
        <time>2021-11-08T21:39:13.305Z</time>
      </trkpt>
      <trkpt lat="47.535370" lon="7.716931">
        <ele>268.327666</ele>
        <time>2021-11-08T21:39:16.682Z</time>
      </trkpt>
      <trkpt lat="47.535347" lon="7.716584">
        <ele>268.521375</ele>
        <time>2021-11-08T21:39:20.301Z</time>
      </trkpt>
      <trkpt lat="47.535313" lon="7.716133">
        <ele>268.773493</ele>
        <time>2021-11-08T21:39:27.451Z</time>
      </trkpt>
      <trkpt lat="47.535254" lon="7.715336">
        <ele>269.218935</ele>
        <time>2021-11-08T21:39:40.000Z</time>
      </trkpt>
      <trkpt lat="47.535269" lon="7.714924">
        <ele>269.469168</ele>
        <time>2021-11-08T21:39:46.133Z</time>
      </trkpt>
      <trkpt lat="47.535269" lon="7.714705">
        <ele>269.647332</ele>
        <time>2021-11-08T21:39:49.393Z</time>
      </trkpt>
      <trkpt lat="47.535269" lon="7.714432">
        <ele>269.869427</ele>
        <time>2021-11-08T21:39:53.043Z</time>
      </trkpt>
      <trkpt lat="47.535222" lon="7.713738">
        <ele>270.436855</ele>
        <time>2021-11-08T21:40:02.557Z</time>
      </trkpt>
      <trkpt lat="47.535202" lon="7.713540">
        <ele>270.599728</ele>
        <time>2021-11-08T21:40:05.254Z</time>
      </trkpt>
      <trkpt lat="47.535174" lon="7.713262">
        <ele>270.828394</ele>
        <time>2021-11-08T21:40:08.703Z</time>
      </trkpt>
      <trkpt lat="47.535128" lon="7.712889">
        <ele>271.136864</ele>
        <time>2021-11-08T21:40:13.500Z</time>
      </trkpt>
      <trkpt lat="47.535110" lon="7.712748">
        <ele>271.253606</ele>
        <time>2021-11-08T21:40:15.238Z</time>
      </trkpt>
      <trkpt lat="47.535067" lon="7.712436">
        <ele>271.512664</ele>
        <time>2021-11-08T21:40:19.280Z</time>
      </trkpt>
      <trkpt lat="47.535045" lon="7.712277">
        <ele>271.600742</ele>
        <time>2021-11-08T21:40:21.139Z</time>
      </trkpt>
      <trkpt lat="47.535010" lon="7.712016">
        <ele>271.689349</ele>
        <time>2021-11-08T21:40:24.466Z</time>
      </trkpt>
      <trkpt lat="47.534965" lon="7.711682">
        <ele>271.802758</ele>
        <time>2021-11-08T21:40:28.342Z</time>
      </trkpt>
      <trkpt lat="47.534909" lon="7.711265">
        <ele>271.944332</ele>
        <time>2021-11-08T21:40:33.370Z</time>
      </trkpt>
      <trkpt lat="47.534768" lon="7.710504">
        <ele>272.207102</ele>
        <time>2021-11-08T21:40:42.478Z</time>
      </trkpt>
      <trkpt lat="47.534734" lon="7.710344">
        <ele>272.262956</ele>
        <time>2021-11-08T21:40:44.354Z</time>
      </trkpt>
      <trkpt lat="47.534641" lon="7.709912">
        <ele>272.413941</ele>
        <time>2021-11-08T21:40:49.197Z</time>
      </trkpt>
      <trkpt lat="47.534615" lon="7.709805">
        <ele>272.451808</ele>
        <time>2021-11-08T21:40:50.383Z</time>
      </trkpt>
      <trkpt lat="47.534577" lon="7.709613">
        <ele>272.422275</ele>
        <time>2021-11-08T21:40:52.452Z</time>
      </trkpt>
      <trkpt lat="47.534509" lon="7.709297">
        <ele>272.358770</ele>
        <time>2021-11-08T21:40:55.616Z</time>
      </trkpt>
      <trkpt lat="47.534390" lon="7.708741">
        <ele>272.247089</ele>
        <time>2021-11-08T21:41:01.013Z</time>
      </trkpt>
      <trkpt lat="47.534357" lon="7.708594">
        <ele>272.217427</ele>
        <time>2021-11-08T21:41:02.403Z</time>
      </trkpt>
      <trkpt lat="47.534132" lon="7.707553">
        <ele>272.008136</ele>
        <time>2021-11-08T21:41:12.212Z</time>
      </trkpt>
      <trkpt lat="47.534017" lon="7.707047">
        <ele>271.878597</ele>
        <time>2021-11-08T21:41:17.236Z</time>
      </trkpt>
      <trkpt lat="47.533747" lon="7.705801">
        <ele>271.462622</ele>
        <time>2021-11-08T21:41:28.970Z</time>
      </trkpt>
      <trkpt lat="47.533715" lon="7.705652">
        <ele>271.412919</ele>
        <time>2021-11-08T21:41:30.373Z</time>
      </trkpt>
      <trkpt lat="47.533704" lon="7.705593">
        <ele>271.393462</ele>
        <time>2021-11-08T21:41:30.920Z</time>
      </trkpt>
      <trkpt lat="47.533527" lon="7.704796">
        <ele>271.126759</ele>
        <time>2021-11-08T21:41:38.323Z</time>
      </trkpt>
      <trkpt lat="47.533301" lon="7.703780">
        <ele>270.822423</ele>
        <time>2021-11-08T21:41:48.110Z</time>
      </trkpt>
      <trkpt lat="47.532835" lon="7.701725">
        <ele>270.197624</ele>
        <time>2021-11-08T21:42:07.903Z</time>
      </trkpt>
      <trkpt lat="47.532793" lon="7.701522">
        <ele>270.131703</ele>
        <time>2021-11-08T21:42:09.780Z</time>
      </trkpt>
      <trkpt lat="47.532428" lon="7.699970">
        <ele>269.621429</ele>
        <time>2021-11-08T21:42:24.750Z</time>
      </trkpt>
      <trkpt lat="47.532407" lon="7.699875">
        <ele>269.590392</ele>
        <time>2021-11-08T21:42:25.643Z</time>
      </trkpt>
      <trkpt lat="47.532378" lon="7.699751">
        <ele>269.549647</ele>
        <time>2021-11-08T21:42:26.803Z</time>
      </trkpt>
      <trkpt lat="47.532326" lon="7.699504">
        <ele>269.387530</ele>
        <time>2021-11-08T21:42:29.165Z</time>
      </trkpt>
      <trkpt lat="47.532317" lon="7.699464">
        <ele>269.354440</ele>
        <time>2021-11-08T21:42:29.518Z</time>
      </trkpt>
      <trkpt lat="47.532234" lon="7.699115">
        <ele>269.064045</ele>
        <time>2021-11-08T21:42:32.713Z</time>
      </trkpt>
      <trkpt lat="47.532082" lon="7.698472">
        <ele>268.529371</ele>
        <time>2021-11-08T21:42:38.337Z</time>
      </trkpt>
      <trkpt lat="47.531987" lon="7.698056">
        <ele>268.184717</ele>
        <time>2021-11-08T21:42:41.846Z</time>
      </trkpt>
      <trkpt lat="47.531820" lon="7.697324">
        <ele>267.578317</ele>
        <time>2021-11-08T21:42:47.820Z</time>
      </trkpt>
      <trkpt lat="47.531503" lon="7.695640">
        <ele>266.139116</ele>
        <time>2021-11-08T21:43:01.066Z</time>
      </trkpt>
      <trkpt lat="47.531279" lon="7.693388">
        <ele>265.588251</ele>
        <time>2021-11-08T21:43:21.300Z</time>
      </trkpt>
      <trkpt lat="47.531252" lon="7.693049">
        <ele>265.693295</ele>
        <time>2021-11-08T21:43:25.872Z</time>
      </trkpt>
      <trkpt lat="47.531247" lon="7.692506">
        <ele>265.860408</ele>
        <time>2021-11-08T21:43:33.392Z</time>
      </trkpt>
      <trkpt lat="47.531250" lon="7.692032">
        <ele>266.006279</ele>
        <time>2021-11-08T21:43:39.869Z</time>
      </trkpt>
      <trkpt lat="47.531253" lon="7.691880">
        <ele>266.051529</ele>
        <time>2021-11-08T21:43:41.904Z</time>
      </trkpt>
      <trkpt lat="47.531254" lon="7.691721">
        <ele>266.088703</ele>
        <time>2021-11-08T21:43:43.905Z</time>
      </trkpt>
      <trkpt lat="47.531257" lon="7.691497">
        <ele>266.141083</ele>
        <time>2021-11-08T21:43:46.714Z</time>
      </trkpt>
      <trkpt lat="47.531218" lon="7.691259">
        <ele>266.198341</ele>
        <time>2021-11-08T21:43:49.484Z</time>
      </trkpt>
      <trkpt lat="47.531228" lon="7.690572">
        <ele>266.358993</ele>
        <time>2021-11-08T21:43:57.946Z</time>
      </trkpt>
      <trkpt lat="47.531244" lon="7.689927">
        <ele>266.509890</ele>
        <time>2021-11-08T21:44:04.525Z</time>
      </trkpt>
      <trkpt lat="47.531254" lon="7.689619">
        <ele>266.581982</ele>
        <time>2021-11-08T21:44:07.538Z</time>
      </trkpt>
      <trkpt lat="47.531264" lon="7.689333">
        <ele>266.648936</ele>
        <time>2021-11-08T21:44:10.212Z</time>
      </trkpt>
      <trkpt lat="47.531265" lon="7.689138">
        <ele>266.624829</ele>
        <time>2021-11-08T21:44:11.864Z</time>
      </trkpt>
      <trkpt lat="47.531267" lon="7.688842">
        <ele>266.501725</ele>
        <time>2021-11-08T21:44:14.563Z</time>
      </trkpt>
      <trkpt lat="47.531309" lon="7.687734">
        <ele>266.040214</ele>
        <time>2021-11-08T21:44:23.571Z</time>
      </trkpt>
      <trkpt lat="47.531311" lon="7.686964">
        <ele>265.719991</ele>
        <time>2021-11-08T21:44:30.151Z</time>
      </trkpt>
      <trkpt lat="47.531302" lon="7.686543">
        <ele>265.572020</ele>
        <time>2021-11-08T21:44:34.404Z</time>
      </trkpt>
      <trkpt lat="47.531297" lon="7.685934">
        <ele>265.729362</ele>
        <time>2021-11-08T21:44:40.932Z</time>
      </trkpt>
      <trkpt lat="47.531296" lon="7.684922">
        <ele>265.990805</ele>
        <time>2021-11-08T21:44:52.374Z</time>
      </trkpt>
      <trkpt lat="47.531277" lon="7.683432">
        <ele>266.515004</ele>
        <time>2021-11-08T21:45:09.537Z</time>
      </trkpt>
      <trkpt lat="47.531276" lon="7.682944">
        <ele>266.780352</ele>
        <time>2021-11-08T21:45:15.287Z</time>
      </trkpt>
      <trkpt lat="47.531275" lon="7.682615">
        <ele>266.959245</ele>
        <time>2021-11-08T21:45:19.268Z</time>
      </trkpt>
      <trkpt lat="47.531257" lon="7.681446">
        <ele>267.595046</ele>
        <time>2021-11-08T21:45:34.061Z</time>
      </trkpt>
      <trkpt lat="47.531222" lon="7.679157">
        <ele>268.671431</ele>
        <time>2021-11-08T21:46:02.609Z</time>
      </trkpt>
      <trkpt lat="47.531218" lon="7.678940">
        <ele>268.772041</ele>
        <time>2021-11-08T21:46:04.919Z</time>
      </trkpt>
      <trkpt lat="47.531215" lon="7.678292">
        <ele>268.939846</ele>
        <time>2021-11-08T21:46:11.434Z</time>
      </trkpt>
      <trkpt lat="47.531238" lon="7.677761">
        <ele>268.952098</ele>
        <time>2021-11-08T21:46:16.591Z</time>
      </trkpt>
      <trkpt lat="47.531253" lon="7.677527">
        <ele>268.957511</ele>
        <time>2021-11-08T21:46:18.966Z</time>
      </trkpt>
      <trkpt lat="47.531275" lon="7.677355">
        <ele>268.961542</ele>
        <time>2021-11-08T21:46:20.646Z</time>
      </trkpt>
      <trkpt lat="47.531314" lon="7.677106">
        <ele>268.967428</ele>
        <time>2021-11-08T21:46:23.510Z</time>
      </trkpt>
      <trkpt lat="47.531325" lon="7.677036">
        <ele>268.969083</ele>
        <time>2021-11-08T21:46:24.221Z</time>
      </trkpt>
      <trkpt lat="47.531397" lon="7.676665">
        <ele>268.977972</ele>
        <time>2021-11-08T21:46:28.177Z</time>
      </trkpt>
      <trkpt lat="47.531455" lon="7.676389">
        <ele>268.984628</ele>
        <time>2021-11-08T21:46:31.075Z</time>
      </trkpt>
      <trkpt lat="47.531545" lon="7.675929">
        <ele>268.969471</ele>
        <time>2021-11-08T21:46:36.274Z</time>
      </trkpt>
      <trkpt lat="47.531606" lon="7.675606">
        <ele>268.832433</ele>
        <time>2021-11-08T21:46:39.526Z</time>
      </trkpt>
      <trkpt lat="47.531635" lon="7.675449">
        <ele>268.765928</ele>
        <time>2021-11-08T21:46:40.860Z</time>
      </trkpt>
      <trkpt lat="47.531719" lon="7.675071">
        <ele>268.603334</ele>
        <time>2021-11-08T21:46:44.068Z</time>
      </trkpt>
      <trkpt lat="47.531825" lon="7.674498">
        <ele>268.360589</ele>
        <time>2021-11-08T21:46:48.856Z</time>
      </trkpt>
      <trkpt lat="47.531884" lon="7.674105">
        <ele>268.196095</ele>
        <time>2021-11-08T21:46:52.494Z</time>
      </trkpt>
      <trkpt lat="47.531942" lon="7.673731">
        <ele>268.039307</ele>
        <time>2021-11-08T21:46:56.104Z</time>
      </trkpt>
      <trkpt lat="47.531990" lon="7.673394">
        <ele>267.906181</ele>
        <time>2021-11-08T21:46:59.071Z</time>
      </trkpt>
      <trkpt lat="47.532036" lon="7.673089">
        <ele>267.912504</ele>
        <time>2021-11-08T21:47:01.982Z</time>
      </trkpt>
      <trkpt lat="47.532065" lon="7.672871">
        <ele>267.916999</ele>
        <time>2021-11-08T21:47:03.859Z</time>
      </trkpt>
      <trkpt lat="47.532344" lon="7.670949">
        <ele>267.956775</ele>
        <time>2021-11-08T21:47:21.999Z</time>
      </trkpt>
      <trkpt lat="47.532378" lon="7.670762">
        <ele>268.014366</ele>
        <time>2021-11-08T21:47:24.965Z</time>
      </trkpt>
      <trkpt lat="47.532450" lon="7.670414">
        <ele>268.428364</ele>
        <time>2021-11-08T21:47:30.875Z</time>
      </trkpt>
      <trkpt lat="47.532528" lon="7.670085">
        <ele>268.824984</ele>
        <time>2021-11-08T21:47:36.972Z</time>
      </trkpt>
      <trkpt lat="47.532604" lon="7.669823">
        <ele>269.149334</ele>
        <time>2021-11-08T21:47:42.107Z</time>
      </trkpt>
      <trkpt lat="47.532727" lon="7.669421">
        <ele>269.651346</ele>
        <time>2021-11-08T21:47:49.261Z</time>
      </trkpt>
      <trkpt lat="47.532897" lon="7.668969">
        <ele>270.239855</ele>
        <time>2021-11-08T21:47:57.054Z</time>
      </trkpt>
      <trkpt lat="47.533053" lon="7.668607">
        <ele>270.728329</ele>
        <time>2021-11-08T21:48:02.349Z</time>
      </trkpt>
      <trkpt lat="47.533159" lon="7.668361">
        <ele>270.995114</ele>
        <time>2021-11-08T21:48:06.646Z</time>
      </trkpt>
      <trkpt lat="47.533253" lon="7.668149">
        <ele>271.016695</ele>
        <time>2021-11-08T21:48:09.332Z</time>
      </trkpt>
      <trkpt lat="47.533486" lon="7.667627">
        <ele>271.069940</ele>
        <time>2021-11-08T21:48:16.954Z</time>
      </trkpt>
      <trkpt lat="47.533740" lon="7.667075">
        <ele>271.126779</ele>
        <time>2021-11-08T21:48:24.478Z</time>
      </trkpt>
      <trkpt lat="47.533835" lon="7.666868">
        <ele>271.148077</ele>
        <time>2021-11-08T21:48:26.547Z</time>
      </trkpt>
      <trkpt lat="47.533775" lon="7.666807">
        <ele>271.157248</ele>
        <time>2021-11-08T21:48:27.868Z</time>
      </trkpt>
      <trkpt lat="47.533696" lon="7.666647">
        <ele>271.174114</ele>
        <time>2021-11-08T21:48:29.830Z</time>
      </trkpt>
      <trkpt lat="47.533398" lon="7.666305">
        <ele>271.220924</ele>
        <time>2021-11-08T21:48:34.337Z</time>
      </trkpt>
      <trkpt lat="47.533116" lon="7.665988">
        <ele>271.259409</ele>
        <time>2021-11-08T21:48:38.560Z</time>
      </trkpt>
      <trkpt lat="47.532925" lon="7.665760">
        <ele>271.286077</ele>
        <time>2021-11-08T21:48:41.649Z</time>
      </trkpt>
      <trkpt lat="47.532786" lon="7.665641">
        <ele>271.303530</ele>
        <time>2021-11-08T21:48:43.795Z</time>
      </trkpt>
      <trkpt lat="47.532672" lon="7.665583">
        <ele>271.316633</ele>
        <time>2021-11-08T21:48:45.428Z</time>
      </trkpt>
      <trkpt lat="47.532292" lon="7.665148">
        <ele>271.368843</ele>
        <time>2021-11-08T21:48:53.924Z</time>
      </trkpt>
      <trkpt lat="47.532140" lon="7.664972">
        <ele>271.389817</ele>
        <time>2021-11-08T21:48:57.364Z</time>
      </trkpt>
      <trkpt lat="47.531991" lon="7.664806">
        <ele>271.410086</ele>
        <time>2021-11-08T21:49:01.246Z</time>
      </trkpt>
      <trkpt lat="47.531765" lon="7.664540">
        <ele>271.928091</ele>
        <time>2021-11-08T21:49:06.982Z</time>
      </trkpt>
      <trkpt lat="47.530899" lon="7.663616">
        <ele>273.963583</ele>
        <time>2021-11-08T21:49:30.457Z</time>
      </trkpt>
      <trkpt lat="47.530793" lon="7.663521">
        <ele>274.199867</ele>
        <time>2021-11-08T21:49:33.984Z</time>
      </trkpt>
      <trkpt lat="47.530719" lon="7.663465">
        <ele>274.358348</ele>
        <time>2021-11-08T21:49:36.359Z</time>
      </trkpt>
      <trkpt lat="47.529792" lon="7.663087">
        <ele>276.586328</ele>
        <time>2021-11-08T21:50:05.481Z</time>
      </trkpt>
      <trkpt lat="47.529676" lon="7.663021">
        <ele>276.892547</ele>
        <time>2021-11-08T21:50:09.202Z</time>
      </trkpt>
      <trkpt lat="47.529624" lon="7.662986">
        <ele>277.033300</ele>
        <time>2021-11-08T21:50:10.602Z</time>
      </trkpt>
      <trkpt lat="47.529576" lon="7.662954">
        <ele>277.163014</ele>
        <time>2021-11-08T21:50:11.973Z</time>
      </trkpt>
      <trkpt lat="47.529502" lon="7.662906">
        <ele>277.362090</ele>
        <time>2021-11-08T21:50:14.131Z</time>
      </trkpt>
      <trkpt lat="47.528985" lon="7.662541">
        <ele>278.773449</ele>
        <time>2021-11-08T21:50:31.411Z</time>
      </trkpt>
      <trkpt lat="47.528693" lon="7.662320">
        <ele>279.524391</ele>
        <time>2021-11-08T21:50:41.150Z</time>
      </trkpt>
      <trkpt lat="47.528592" lon="7.662229">
        <ele>279.761502</ele>
        <time>2021-11-08T21:50:44.264Z</time>
      </trkpt>
      <trkpt lat="47.528425" lon="7.662035">
        <ele>280.187191</ele>
        <time>2021-11-08T21:50:49.071Z</time>
      </trkpt>
      <trkpt lat="47.528226" lon="7.661637">
        <ele>280.857874</ele>
        <time>2021-11-08T21:50:56.847Z</time>
      </trkpt>
      <trkpt lat="47.527912" lon="7.660639">
        <ele>282.348955</ele>
        <time>2021-11-08T21:51:14.017Z</time>
      </trkpt>
      <trkpt lat="47.527673" lon="7.659801">
        <ele>282.959170</ele>
        <time>2021-11-08T21:51:27.303Z</time>
      </trkpt>
      <trkpt lat="47.527666" lon="7.659776">
        <ele>282.963219</ele>
        <time>2021-11-08T21:51:27.738Z</time>
      </trkpt>
      <trkpt lat="47.527370" lon="7.658528">
        <ele>283.161095</ele>
        <time>2021-11-08T21:51:41.258Z</time>
      </trkpt>
      <trkpt lat="47.527241" lon="7.658123">
        <ele>283.228083</ele>
        <time>2021-11-08T21:51:45.100Z</time>
      </trkpt>
      <trkpt lat="47.527139" lon="7.657807">
        <ele>283.280347</ele>
        <time>2021-11-08T21:51:48.096Z</time>
      </trkpt>
      <trkpt lat="47.527042" lon="7.657604">
        <ele>283.183675</ele>
        <time>2021-11-08T21:51:50.231Z</time>
      </trkpt>
      <trkpt lat="47.526917" lon="7.657402">
        <ele>283.077165</ele>
        <time>2021-11-08T21:51:52.579Z</time>
      </trkpt>
      <trkpt lat="47.526859" lon="7.657325">
        <ele>283.032323</ele>
        <time>2021-11-08T21:51:53.516Z</time>
      </trkpt>
      <trkpt lat="47.526880" lon="7.657295">
        <ele>283.015525</ele>
        <time>2021-11-08T21:51:53.868Z</time>
      </trkpt>
      <trkpt lat="47.526883" lon="7.657129">
        <ele>282.950973</ele>
        <time>2021-11-08T21:51:55.506Z</time>
      </trkpt>
      <trkpt lat="47.526863" lon="7.657097">
        <ele>282.934023</ele>
        <time>2021-11-08T21:51:55.841Z</time>
      </trkpt>
      <trkpt lat="47.526840" lon="7.657078">
        <ele>282.918861</ele>
        <time>2021-11-08T21:51:56.163Z</time>
      </trkpt>
      <trkpt lat="47.526789" lon="7.657068">
        <ele>282.889245</ele>
        <time>2021-11-08T21:51:56.785Z</time>
      </trkpt>
      <trkpt lat="47.526764" lon="7.657078">
        <ele>282.874337</ele>
        <time>2021-11-08T21:51:57.097Z</time>
      </trkpt>
      <trkpt lat="47.526741" lon="7.657100">
        <ele>282.858574</ele>
        <time>2021-11-08T21:51:57.440Z</time>
      </trkpt>
      <trkpt lat="47.526722" lon="7.657130">
        <ele>282.842585</ele>
        <time>2021-11-08T21:51:57.761Z</time>
      </trkpt>
      <trkpt lat="47.526710" lon="7.657166">
        <ele>282.826979</ele>
        <time>2021-11-08T21:51:58.087Z</time>
      </trkpt>
      <trkpt lat="47.526706" lon="7.657209">
        <ele>282.810105</ele>
        <time>2021-11-08T21:51:58.439Z</time>
      </trkpt>
      <trkpt lat="47.526723" lon="7.657291">
        <ele>282.776761</ele>
        <time>2021-11-08T21:51:59.209Z</time>
      </trkpt>
      <trkpt lat="47.526743" lon="7.657323">
        <ele>282.759811</ele>
        <time>2021-11-08T21:51:59.727Z</time>
      </trkpt>
      <trkpt lat="47.526694" lon="7.657412">
        <ele>282.715171</ele>
        <time>2021-11-08T21:52:01.116Z</time>
      </trkpt>
      <trkpt lat="47.526672" lon="7.657453">
        <ele>282.694814</ele>
        <time>2021-11-08T21:52:01.683Z</time>
      </trkpt>
      <trkpt lat="47.526339" lon="7.657736">
        <ele>282.473786</ele>
        <time>2021-11-08T21:52:08.481Z</time>
      </trkpt>
      <trkpt lat="47.526194" lon="7.657732">
        <ele>282.390297</ele>
        <time>2021-11-08T21:52:10.932Z</time>
      </trkpt>
      <trkpt lat="47.526129" lon="7.657714">
        <ele>282.352228</ele>
        <time>2021-11-08T21:52:12.235Z</time>
      </trkpt>
      <trkpt lat="47.526058" lon="7.657663">
        <ele>282.306800</ele>
        <time>2021-11-08T21:52:13.681Z</time>
      </trkpt>
      <trkpt lat="47.525992" lon="7.657583">
        <ele>282.257700</ele>
        <time>2021-11-08T21:52:15.194Z</time>
      </trkpt>
      <trkpt lat="47.525949" lon="7.657484">
        <ele>282.373243</ele>
        <time>2021-11-08T21:52:16.748Z</time>
      </trkpt>
      <trkpt lat="47.525879" lon="7.657237">
        <ele>282.777457</ele>
        <time>2021-11-08T21:52:20.894Z</time>
      </trkpt>
      <trkpt lat="47.525864" lon="7.656858">
        <ele>283.350344</ele>
        <time>2021-11-08T21:52:27.022Z</time>
      </trkpt>
      <trkpt lat="47.525910" lon="7.656589">
        <ele>283.769074</ele>
        <time>2021-11-08T21:52:31.646Z</time>
      </trkpt>
      <trkpt lat="47.525936" lon="7.656458">
        <ele>283.975113</ele>
        <time>2021-11-08T21:52:34.002Z</time>
      </trkpt>
      <trkpt lat="47.525829" lon="7.656401">
        <ele>284.229224</ele>
        <time>2021-11-08T21:52:38.189Z</time>
      </trkpt>
      <trkpt lat="47.525670" lon="7.656313">
        <ele>284.608541</ele>
        <time>2021-11-08T21:52:41.707Z</time>
      </trkpt>
      <trkpt lat="47.525472" lon="7.656212">
        <ele>285.076521</ele>
        <time>2021-11-08T21:52:49.163Z</time>
      </trkpt>
      <trkpt lat="47.525397" lon="7.656172">
        <ele>285.254660</ele>
        <time>2021-11-08T21:52:50.779Z</time>
      </trkpt>
      <trkpt lat="47.525224" lon="7.656080">
        <ele>285.665431</ele>
        <time>2021-11-08T21:52:56.892Z</time>
      </trkpt>
      <trkpt lat="47.525220" lon="7.656078">
        <ele>285.674866</ele>
        <time>2021-11-08T21:52:57.368Z</time>
      </trkpt>
      <trkpt lat="47.524919" lon="7.655918">
        <ele>286.423180</ele>
        <time>2021-11-08T21:53:05.684Z</time>
      </trkpt>
      <trkpt lat="47.524818" lon="7.655865">
        <ele>286.727029</ele>
        <time>2021-11-08T21:53:09.395Z</time>
      </trkpt>
      <trkpt lat="47.524761" lon="7.655834">
        <ele>286.899216</ele>
        <time>2021-11-08T21:53:10.474Z</time>
      </trkpt>
      <trkpt lat="47.524698" lon="7.655801">
        <ele>287.088708</ele>
        <time>2021-11-08T21:53:11.761Z</time>
      </trkpt>
      <trkpt lat="47.524663" lon="7.655783">
        <ele>287.193770</ele>
        <time>2021-11-08T21:53:12.458Z</time>
      </trkpt>
      <trkpt lat="47.524616" lon="7.655757">
        <ele>287.336041</ele>
        <time>2021-11-08T21:53:15.172Z</time>
      </trkpt>
      <trkpt lat="47.524572" lon="7.655735">
        <ele>287.467729</ele>
        <time>2021-11-08T21:53:16.055Z</time>
      </trkpt>
      <trkpt lat="47.524519" lon="7.655706">
        <ele>287.627949</ele>
        <time>2021-11-08T21:53:18.871Z</time>
      </trkpt>
      <trkpt lat="47.524305" lon="7.655610">
        <ele>288.262009</ele>
        <time>2021-11-08T21:53:22.572Z</time>
      </trkpt>
      <trkpt lat="47.524277" lon="7.655598">
        <ele>288.344665</ele>
        <time>2021-11-08T21:53:24.798Z</time>
      </trkpt>
      <trkpt lat="47.524304" lon="7.655410">
        <ele>288.712708</ele>
        <time>2021-11-08T21:53:28.787Z</time>
      </trkpt>
      <trkpt lat="47.524475" lon="7.654210">
        <ele>291.061125</ele>
        <time>2021-11-08T21:53:48.789Z</time>
      </trkpt>
      <trkpt lat="47.524506" lon="7.653987">
        <ele>291.409582</ele>
        <time>2021-11-08T21:53:53.268Z</time>
      </trkpt>
      <trkpt lat="47.524516" lon="7.653915">
        <ele>291.457306</ele>
        <time>2021-11-08T21:53:54.864Z</time>
      </trkpt>
      <trkpt lat="47.524555" lon="7.653632">
        <ele>291.644829</ele>
        <time>2021-11-08T21:53:58.894Z</time>
      </trkpt>
      <trkpt lat="47.524557" lon="7.652450">
        <ele>292.412238</ele>
        <time>2021-11-08T21:54:13.255Z</time>
      </trkpt>
      <trkpt lat="47.524523" lon="7.652322">
        <ele>292.501540</ele>
        <time>2021-11-08T21:54:14.602Z</time>
      </trkpt>
      <trkpt lat="47.524484" lon="7.652177">
        <ele>292.602873</ele>
        <time>2021-11-08T21:54:16.035Z</time>
      </trkpt>
      <trkpt lat="47.524402" lon="7.651879">
        <ele>292.811795</ele>
        <time>2021-11-08T21:54:19.270Z</time>
      </trkpt>
      <trkpt lat="47.524245" lon="7.651314">
        <ele>293.245261</ele>
        <time>2021-11-08T21:54:25.843Z</time>
      </trkpt>
      <trkpt lat="47.524034" lon="7.650528">
        <ele>293.970963</ele>
        <time>2021-11-08T21:54:37.424Z</time>
      </trkpt>
      <trkpt lat="47.523968" lon="7.650324">
        <ele>294.165041</ele>
        <time>2021-11-08T21:54:40.118Z</time>
      </trkpt>
      <trkpt lat="47.523851" lon="7.649952">
        <ele>294.517130</ele>
        <time>2021-11-08T21:54:46.563Z</time>
      </trkpt>
      <trkpt lat="47.523799" lon="7.649826">
        <ele>294.643826</ele>
        <time>2021-11-08T21:54:48.350Z</time>
      </trkpt>
      <trkpt lat="47.523763" lon="7.649750">
        <ele>294.723475</ele>
        <time>2021-11-08T21:54:50.157Z</time>
      </trkpt>
      <trkpt lat="47.523318" lon="7.648996">
        <ele>295.614718</ele>
        <time>2021-11-08T21:55:03.251Z</time>
      </trkpt>
      <trkpt lat="47.523157" lon="7.648702">
        <ele>295.990697</ele>
        <time>2021-11-08T21:55:08.919Z</time>
      </trkpt>
      <trkpt lat="47.523005" lon="7.648426">
        <ele>296.344453</ele>
        <time>2021-11-08T21:55:14.522Z</time>
      </trkpt>
      <trkpt lat="47.522716" lon="7.647943">
        <ele>296.985444</ele>
        <time>2021-11-08T21:55:23.935Z</time>
      </trkpt>
      <trkpt lat="47.522552" lon="7.647695">
        <ele>297.330223</ele>
        <time>2021-11-08T21:55:28.169Z</time>
      </trkpt>
      <trkpt lat="47.522504" lon="7.647599">
        <ele>297.448873</ele>
        <time>2021-11-08T21:55:30.050Z</time>
      </trkpt>
      <trkpt lat="47.522477" lon="7.647501">
        <ele>297.554006</ele>
        <time>2021-11-08T21:55:31.331Z</time>
      </trkpt>
      <trkpt lat="47.522444" lon="7.647497">
        <ele>297.602708</ele>
        <time>2021-11-08T21:55:32.088Z</time>
      </trkpt>
      <trkpt lat="47.522408" lon="7.647467">
        <ele>297.663469</ele>
        <time>2021-11-08T21:55:32.752Z</time>
      </trkpt>
      <trkpt lat="47.521923" lon="7.646845">
        <ele>298.803959</ele>
        <time>2021-11-08T21:55:45.354Z</time>
      </trkpt>
      <trkpt lat="47.521902" lon="7.646594">
        <ele>299.140070</ele>
        <time>2021-11-08T21:55:48.629Z</time>
      </trkpt>
      <trkpt lat="47.521884" lon="7.646444">
        <ele>299.342532</ele>
        <time>2021-11-08T21:55:51.076Z</time>
      </trkpt>
      <trkpt lat="47.521879" lon="7.646397">
        <ele>299.405762</ele>
        <time>2021-11-08T21:55:51.961Z</time>
      </trkpt>
      <trkpt lat="47.521839" lon="7.646113">
        <ele>299.791299</ele>
        <time>2021-11-08T21:55:56.123Z</time>
      </trkpt>
      <trkpt lat="47.521817" lon="7.645962">
        <ele>299.996585</ele>
        <time>2021-11-08T21:55:58.382Z</time>
      </trkpt>
      <trkpt lat="47.521589" lon="7.646090">
        <ele>300.476425</ele>
        <time>2021-11-08T21:56:04.317Z</time>
      </trkpt>
      <trkpt lat="47.521483" lon="7.646147">
        <ele>300.698348</ele>
        <time>2021-11-08T21:56:06.782Z</time>
      </trkpt>
      <trkpt lat="47.521344" lon="7.646223">
        <ele>300.989935</ele>
        <time>2021-11-08T21:56:10.819Z</time>
      </trkpt>
      <trkpt lat="47.521133" lon="7.646325">
        <ele>301.426724</ele>
        <time>2021-11-08T21:56:15.894Z</time>
      </trkpt>
      <trkpt lat="47.521082" lon="7.646351">
        <ele>301.532867</ele>
        <time>2021-11-08T21:56:17.580Z</time>
      </trkpt>
      <trkpt lat="47.520870" lon="7.646459">
        <ele>302.544282</ele>
        <time>2021-11-08T21:56:23.439Z</time>
      </trkpt>
      <trkpt lat="47.520716" lon="7.646501">
        <ele>303.281370</ele>
        <time>2021-11-08T21:56:27.886Z</time>
      </trkpt>
      <trkpt lat="47.520544" lon="7.646549">
        <ele>304.105248</ele>
        <time>2021-11-08T21:56:32.908Z</time>
      </trkpt>
      <trkpt lat="47.520453" lon="7.646560">
        <ele>304.535020</ele>
        <time>2021-11-08T21:56:35.399Z</time>
      </trkpt>
      <trkpt lat="47.520182" lon="7.646592">
        <ele>305.814699</ele>
        <time>2021-11-08T21:56:43.987Z</time>
      </trkpt>
      <trkpt lat="47.519670" lon="7.646767">
        <ele>308.288115</ele>
        <time>2021-11-08T21:57:06.938Z</time>
      </trkpt>
      <trkpt lat="47.519621" lon="7.646784">
        <ele>308.525010</ele>
        <time>2021-11-08T21:57:09.957Z</time>
      </trkpt>
      <trkpt lat="47.518736" lon="7.647340">
        <ele>313.253496</ele>
        <time>2021-11-08T21:57:52.557Z</time>
      </trkpt>
      <trkpt lat="47.518689" lon="7.647385">
        <ele>313.534685</ele>
        <time>2021-11-08T21:57:54.700Z</time>
      </trkpt>
      <trkpt lat="47.518582" lon="7.647538">
        <ele>314.281985</ele>
        <time>2021-11-08T21:58:03.676Z</time>
      </trkpt>
      <trkpt lat="47.518122" lon="7.648240">
        <ele>317.600722</ele>
        <time>2021-11-08T21:58:27.130Z</time>
      </trkpt>
      <trkpt lat="47.518072" lon="7.648268">
        <ele>317.869285</ele>
        <time>2021-11-08T21:58:31.273Z</time>
      </trkpt>
      <trkpt lat="47.517916" lon="7.648293">
        <ele>318.657599</ele>
        <time>2021-11-08T21:58:34.774Z</time>
      </trkpt>
      <trkpt lat="47.517896" lon="7.648297">
        <ele>318.758990</ele>
        <time>2021-11-08T21:58:35.201Z</time>
      </trkpt>
      <trkpt lat="47.516935" lon="7.648449">
        <ele>320.380795</ele>
        <time>2021-11-08T21:59:05.614Z</time>
      </trkpt>
      <trkpt lat="47.516513" lon="7.648597">
        <ele>321.010210</ele>
        <time>2021-11-08T21:59:14.819Z</time>
      </trkpt>
      <trkpt lat="47.516097" lon="7.648754">
        <ele>321.633275</ele>
        <time>2021-11-08T21:59:22.731Z</time>
      </trkpt>
      <trkpt lat="47.515854" lon="7.648881">
        <ele>321.788640</ele>
        <time>2021-11-08T21:59:27.528Z</time>
      </trkpt>
      <trkpt lat="47.515597" lon="7.649049">
        <ele>321.925979</ele>
        <time>2021-11-08T21:59:33.456Z</time>
      </trkpt>
      <trkpt lat="47.515511" lon="7.649123">
        <ele>321.974606</ele>
        <time>2021-11-08T21:59:35.220Z</time>
      </trkpt>
      <trkpt lat="47.515459" lon="7.649168">
        <ele>322.004051</ele>
        <time>2021-11-08T21:59:36.730Z</time>
      </trkpt>
      <trkpt lat="47.515328" lon="7.649326">
        <ele>322.086651</ele>
        <time>2021-11-08T21:59:40.207Z</time>
      </trkpt>
      <trkpt lat="47.515061" lon="7.649652">
        <ele>322.255836</ele>
        <time>2021-11-08T21:59:47.633Z</time>
      </trkpt>
      <trkpt lat="47.514893" lon="7.650085">
        <ele>322.420715</ele>
        <time>2021-11-08T21:59:55.385Z</time>
      </trkpt>
      <trkpt lat="47.514864" lon="7.650158">
        <ele>322.448678</ele>
        <time>2021-11-08T21:59:56.960Z</time>
      </trkpt>
      <trkpt lat="47.514691" lon="7.650573">
        <ele>322.856467</ele>
        <time>2021-11-08T22:00:05.192Z</time>
      </trkpt>
      <trkpt lat="47.514657" lon="7.650652">
        <ele>323.031910</ele>
        <time>2021-11-08T22:00:07.010Z</time>
      </trkpt>
      <trkpt lat="47.514509" lon="7.650991">
        <ele>323.787908</ele>
        <time>2021-11-08T22:00:14.872Z</time>
      </trkpt>
      <trkpt lat="47.514207" lon="7.651374">
        <ele>324.890560</ele>
        <time>2021-11-08T22:00:27.790Z</time>
      </trkpt>
      <trkpt lat="47.513848" lon="7.651830">
        <ele>326.202200</ele>
        <time>2021-11-08T22:00:43.203Z</time>
      </trkpt>
      <trkpt lat="47.513576" lon="7.652174">
        <ele>327.194162</ele>
        <time>2021-11-08T22:00:55.119Z</time>
      </trkpt>
      <trkpt lat="47.513405" lon="7.652446">
        <ele>328.058447</ele>
        <time>2021-11-08T22:01:02.431Z</time>
      </trkpt>
      <trkpt lat="47.513349" lon="7.653017">
        <ele>329.665343</ele>
        <time>2021-11-08T22:01:13.938Z</time>
      </trkpt>
      <trkpt lat="47.512895" lon="7.654488">
        <ele>334.169500</ele>
        <time>2021-11-08T22:01:49.299Z</time>
      </trkpt>
      <trkpt lat="47.512836" lon="7.654893">
        <ele>335.392982</ele>
        <time>2021-11-08T22:01:58.255Z</time>
      </trkpt>
      <trkpt lat="47.512752" lon="7.657349">
        <ele>343.557131</ele>
        <time>2021-11-08T22:02:53.454Z</time>
      </trkpt>
      <trkpt lat="47.512497" lon="7.658661">
        <ele>352.235762</ele>
        <time>2021-11-08T22:03:33.863Z</time>
      </trkpt>
      <trkpt lat="47.512501" lon="7.658820">
        <ele>353.274770</ele>
        <time>2021-11-08T22:03:39.535Z</time>
      </trkpt>
      <trkpt lat="47.512353" lon="7.658944">
        <ele>354.918875</ele>
        <time>2021-11-08T22:03:49.025Z</time>
      </trkpt>
      <trkpt lat="47.511959" lon="7.659188">
        <ele>359.047919</ele>
        <time>2021-11-08T22:04:16.088Z</time>
      </trkpt>
      <trkpt lat="47.511733" lon="7.659346">
        <ele>361.645841</ele>
        <time>2021-11-08T22:04:33.158Z</time>
      </trkpt>
      <trkpt lat="47.511727" lon="7.659486">
        <ele>363.171004</ele>
        <time>2021-11-08T22:04:40.786Z</time>
      </trkpt>
      <trkpt lat="47.511770" lon="7.659882">
        <ele>367.531657</ele>
        <time>2021-11-08T22:05:00.663Z</time>
      </trkpt>
      <trkpt lat="47.511762" lon="7.660042">
        <ele>369.275960</ele>
        <time>2021-11-08T22:05:09.697Z</time>
      </trkpt>
      <trkpt lat="47.511659" lon="7.660351">
        <ele>373.022287</ele>
        <time>2021-11-08T22:05:28.165Z</time>
      </trkpt>
      <trkpt lat="47.511534" lon="7.660808">
        <ele>378.382811</ele>
        <time>2021-11-08T22:05:54.710Z</time>
      </trkpt>
      <trkpt lat="47.511383" lon="7.661372">
        <ele>384.978882</ele>
        <time>2021-11-08T22:06:30.222Z</time>
      </trkpt>
      <trkpt lat="47.511171" lon="7.662330">
        <ele>395.273761</ele>
        <time>2021-11-08T22:07:28.602Z</time>
      </trkpt>
      <trkpt lat="47.511036" lon="7.663302">
        <ele>404.824012</ele>
        <time>2021-11-08T22:08:17.602Z</time>
      </trkpt>
      <trkpt lat="47.511026" lon="7.663371">
        <ele>405.503184</ele>
        <time>2021-11-08T22:08:22.665Z</time>
      </trkpt>
      <trkpt lat="47.510856" lon="7.664867">
        <ele>419.051872</ele>
        <time>2021-11-08T22:09:25.636Z</time>
      </trkpt>
      <trkpt lat="47.510474" lon="7.666465">
        <ele>431.407568</ele>
        <time>2021-11-08T22:10:29.263Z</time>
      </trkpt>
      <trkpt lat="47.510298" lon="7.667520">
        <ele>439.068410</ele>
        <time>2021-11-08T22:11:13.996Z</time>
      </trkpt>
      <trkpt lat="47.509793" lon="7.668697">
        <ele>448.594794</ele>
        <time>2021-11-08T22:12:04.816Z</time>
      </trkpt>
      <trkpt lat="47.509771" lon="7.668816">
        <ele>449.437707</ele>
        <time>2021-11-08T22:12:11.137Z</time>
      </trkpt>
      <trkpt lat="47.509723" lon="7.669074">
        <ele>451.266011</ele>
        <time>2021-11-08T22:12:19.247Z</time>
      </trkpt>
      <trkpt lat="47.509624" lon="7.670171">
        <ele>458.764613</ele>
        <time>2021-11-08T22:12:58.150Z</time>
      </trkpt>
      <trkpt lat="47.509726" lon="7.671680">
        <ele>469.006477</ele>
        <time>2021-11-08T22:13:54.115Z</time>
      </trkpt>
      <trkpt lat="47.509697" lon="7.671879">
        <ele>470.381335</ele>
        <time>2021-11-08T22:14:04.133Z</time>
      </trkpt>
      <trkpt lat="47.509547" lon="7.672123">
        <ele>472.481548</ele>
        <time>2021-11-08T22:14:15.921Z</time>
      </trkpt>
      <trkpt lat="47.509315" lon="7.672132">
        <ele>474.565150</ele>
        <time>2021-11-08T22:14:29.627Z</time>
      </trkpt>
      <trkpt lat="47.508783" lon="7.671376">
        <ele>481.185721</ele>
        <time>2021-11-08T22:15:10.112Z</time>
      </trkpt>
      <trkpt lat="47.508439" lon="7.670868">
        <ele>485.547969</ele>
        <time>2021-11-08T22:15:34.096Z</time>
      </trkpt>
      <trkpt lat="47.508400" lon="7.670630">
        <ele>487.033170</ele>
        <time>2021-11-08T22:15:40.069Z</time>
      </trkpt>
      <trkpt lat="47.508334" lon="7.668961">
        <ele>492.357498</ele>
        <time>2021-11-08T22:16:20.587Z</time>
      </trkpt>
      <trkpt lat="47.508311" lon="7.668787">
        <ele>492.897277</ele>
        <time>2021-11-08T22:16:23.721Z</time>
      </trkpt>
      <trkpt lat="47.508285" lon="7.668641">
        <ele>493.356952</ele>
        <time>2021-11-08T22:16:25.118Z</time>
      </trkpt>
      <trkpt lat="47.508251" lon="7.668646">
        <ele>493.510946</ele>
        <time>2021-11-08T22:16:26.037Z</time>
      </trkpt>
      <trkpt lat="47.508215" lon="7.668664">
        <ele>493.682203</ele>
        <time>2021-11-08T22:16:27.042Z</time>
      </trkpt>
      <trkpt lat="47.508195" lon="7.668698">
        <ele>493.819462</ele>
        <time>2021-11-08T22:16:28.198Z</time>
      </trkpt>
      <trkpt lat="47.508096" lon="7.668696">
        <ele>494.265701</ele>
        <time>2021-11-08T22:16:30.315Z</time>
      </trkpt>
      <trkpt lat="47.507055" lon="7.668067">
        <ele>500.266063</ele>
        <time>2021-11-08T22:17:02.257Z</time>
      </trkpt>
      <trkpt lat="47.506716" lon="7.667934">
        <ele>502.242746</ele>
        <time>2021-11-08T22:17:15.661Z</time>
      </trkpt>
      <trkpt lat="47.506336" lon="7.667946">
        <ele>504.385045</ele>
        <time>2021-11-08T22:17:34.351Z</time>
      </trkpt>
      <trkpt lat="47.505893" lon="7.667768">
        <ele>507.730040</ele>
        <time>2021-11-08T22:17:58.882Z</time>
      </trkpt>
      <trkpt lat="47.505709" lon="7.667844">
        <ele>509.473340</ele>
        <time>2021-11-08T22:18:05.792Z</time>
      </trkpt>
      <trkpt lat="47.505364" lon="7.668163">
        <ele>513.185470</ele>
        <time>2021-11-08T22:18:24.537Z</time>
      </trkpt>
      <trkpt lat="47.505295" lon="7.668259">
        <ele>514.049617</ele>
        <time>2021-11-08T22:18:30.180Z</time>
      </trkpt>
      <trkpt lat="47.505273" lon="7.668282">
        <ele>514.295406</ele>
        <time>2021-11-08T22:18:33.010Z</time>
      </trkpt>
      <trkpt lat="47.505003" lon="7.668423">
        <ele>516.908222</ele>
        <time>2021-11-08T22:18:46.131Z</time>
      </trkpt>
      <trkpt lat="47.504784" lon="7.668451">
        <ele>518.914232</ele>
        <time>2021-11-08T22:18:58.587Z</time>
      </trkpt>
      <trkpt lat="47.503852" lon="7.668457">
        <ele>527.931736</ele>
        <time>2021-11-08T22:19:51.695Z</time>
      </trkpt>
      <trkpt lat="47.503644" lon="7.668446">
        <ele>530.016154</ele>
        <time>2021-11-08T22:20:01.396Z</time>
      </trkpt>
      <trkpt lat="47.503078" lon="7.668512">
        <ele>535.702119</ele>
        <time>2021-11-08T22:20:33.575Z</time>
      </trkpt>
      <trkpt lat="47.502894" lon="7.668475">
        <ele>537.561777</ele>
        <time>2021-11-08T22:20:42.433Z</time>
      </trkpt>
      <trkpt lat="47.502567" lon="7.667896">
        <ele>542.362079</ele>
        <time>2021-11-08T22:21:12.600Z</time>
      </trkpt>
      <trkpt lat="47.502382" lon="7.667723">
        <ele>544.284858</ele>
        <time>2021-11-08T22:21:22.840Z</time>
      </trkpt>
      <trkpt lat="47.502331" lon="7.667705">
        <ele>544.745550</ele>
        <time>2021-11-08T22:21:26.944Z</time>
      </trkpt>
      <trkpt lat="47.502292" lon="7.667688">
        <ele>545.102788</ele>
        <time>2021-11-08T22:21:30.023Z</time>
      </trkpt>
      <trkpt lat="47.502151" lon="7.667642">
        <ele>546.371470</ele>
        <time>2021-11-08T22:21:35.776Z</time>
      </trkpt>
      <trkpt lat="47.502006" lon="7.667624">
        <ele>547.650039</ele>
        <time>2021-11-08T22:21:42.809Z</time>
      </trkpt>
      <trkpt lat="47.501882" lon="7.667549">
        <ele>548.827060</ele>
        <time>2021-11-08T22:21:50.753Z</time>
      </trkpt>
      <trkpt lat="47.501738" lon="7.667367">
        <ele>550.490855</ele>
        <time>2021-11-08T22:21:57.716Z</time>
      </trkpt>
      <trkpt lat="47.501725" lon="7.667123">
        <ele>551.943768</ele>
        <time>2021-11-08T22:22:07.284Z</time>
      </trkpt>
      <trkpt lat="47.502047" lon="7.666538">
        <ele>556.396030</ele>
        <time>2021-11-08T22:22:29.472Z</time>
      </trkpt>
      <trkpt lat="47.502211" lon="7.666089">
        <ele>559.240740</ele>
        <time>2021-11-08T22:22:45.813Z</time>
      </trkpt>
      <trkpt lat="47.502398" lon="7.665168">
        <ele>564.600477</ele>
        <time>2021-11-08T22:23:17.168Z</time>
      </trkpt>
      <trkpt lat="47.502680" lon="7.664603">
        <ele>568.515510</ele>
        <time>2021-11-08T22:23:38.517Z</time>
      </trkpt>
      <trkpt lat="47.502656" lon="7.664371">
        <ele>569.823555</ele>
        <time>2021-11-08T22:23:46.000Z</time>
      </trkpt>
      <trkpt lat="47.502470" lon="7.664143">
        <ele>571.817391</ele>
        <time>2021-11-08T22:23:58.378Z</time>
      </trkpt>
      <trkpt lat="47.502341" lon="7.664057">
        <ele>572.986379</ele>
        <time>2021-11-08T22:24:06.466Z</time>
      </trkpt>
      <trkpt lat="47.502215" lon="7.663950">
        <ele>574.186624</ele>
        <time>2021-11-08T22:24:14.989Z</time>
      </trkpt>
      <trkpt lat="47.502113" lon="7.663831">
        <ele>575.259709</ele>
        <time>2021-11-08T22:24:21.446Z</time>
      </trkpt>
      <trkpt lat="47.501982" lon="7.663470">
        <ele>577.547091</ele>
        <time>2021-11-08T22:24:36.586Z</time>
      </trkpt>
      <trkpt lat="47.501929" lon="7.662724">
        <ele>581.734174</ele>
        <time>2021-11-08T22:25:02.518Z</time>
      </trkpt>
      <trkpt lat="47.501880" lon="7.662547">
        <ele>582.801913</ele>
        <time>2021-11-08T22:25:08.951Z</time>
      </trkpt>
      <trkpt lat="47.501814" lon="7.662406">
        <ele>583.759431</ele>
        <time>2021-11-08T22:25:13.231Z</time>
      </trkpt>
      <trkpt lat="47.501739" lon="7.662303">
        <ele>584.604759</ele>
        <time>2021-11-08T22:25:18.060Z</time>
      </trkpt>
      <trkpt lat="47.501540" lon="7.662165">
        <ele>586.032088</ele>
        <time>2021-11-08T22:25:27.285Z</time>
      </trkpt>
      <trkpt lat="47.501427" lon="7.662094">
        <ele>586.514362</ele>
        <time>2021-11-08T22:25:30.814Z</time>
      </trkpt>
      <trkpt lat="47.501357" lon="7.661880">
        <ele>587.145408</ele>
        <time>2021-11-08T22:25:34.914Z</time>
      </trkpt>
      <trkpt lat="47.501296" lon="7.661615">
        <ele>587.888445</ele>
        <time>2021-11-08T22:25:39.759Z</time>
      </trkpt>
      <trkpt lat="47.501272" lon="7.661516">
        <ele>588.167604</ele>
        <time>2021-11-08T22:25:41.574Z</time>
      </trkpt>
      <trkpt lat="47.501255" lon="7.661462">
        <ele>588.325722</ele>
        <time>2021-11-08T22:25:42.717Z</time>
      </trkpt>
      <trkpt lat="47.501224" lon="7.661406">
        <ele>588.517875</ele>
        <time>2021-11-08T22:25:43.966Z</time>
      </trkpt>
      <trkpt lat="47.501172" lon="7.661341">
        <ele>588.785261</ele>
        <time>2021-11-08T22:25:45.558Z</time>
      </trkpt>
      <trkpt lat="47.501134" lon="7.661306">
        <ele>588.961091</ele>
        <time>2021-11-08T22:25:46.715Z</time>
      </trkpt>
      <trkpt lat="47.500892" lon="7.661159">
        <ele>589.988760</ele>
        <time>2021-11-08T22:25:55.218Z</time>
      </trkpt>
      <trkpt lat="47.500378" lon="7.660739">
        <ele>592.295328</ele>
        <time>2021-11-08T22:26:12.655Z</time>
      </trkpt>
      <trkpt lat="47.500168" lon="7.660591">
        <ele>593.321922</ele>
        <time>2021-11-08T22:26:17.838Z</time>
      </trkpt>
      <trkpt lat="47.499828" lon="7.660558">
        <ele>594.986840</ele>
        <time>2021-11-08T22:26:27.107Z</time>
      </trkpt>
      <trkpt lat="47.499384" lon="7.660566">
        <ele>597.156530</ele>
        <time>2021-11-08T22:26:41.002Z</time>
      </trkpt>
      <trkpt lat="47.498649" lon="7.660737">
        <ele>600.792074</ele>
        <time>2021-11-08T22:27:09.521Z</time>
      </trkpt>
      <trkpt lat="47.498450" lon="7.660673">
        <ele>601.801313</ele>
        <time>2021-11-08T22:27:18.754Z</time>
      </trkpt>
      <trkpt lat="47.498030" lon="7.660538">
        <ele>604.019415</ele>
        <time>2021-11-08T22:27:37.688Z</time>
      </trkpt>
      <trkpt lat="47.497005" lon="7.659684">
        <ele>610.089863</ele>
        <time>2021-11-08T22:28:18.245Z</time>
      </trkpt>
      <trkpt lat="47.496700" lon="7.659355">
        <ele>611.248683</ele>
        <time>2021-11-08T22:28:28.636Z</time>
      </trkpt>
      <trkpt lat="47.496419" lon="7.658896">
        <ele>612.011845</ele>
        <time>2021-11-08T22:28:39.283Z</time>
      </trkpt>
      <trkpt lat="47.495370" lon="7.658146">
        <ele>614.055240</ele>
        <time>2021-11-08T22:29:02.593Z</time>
      </trkpt>
      <trkpt lat="47.495295" lon="7.658106">
        <ele>613.896094</ele>
        <time>2021-11-08T22:29:04.001Z</time>
      </trkpt>
      <trkpt lat="47.495132" lon="7.658047">
        <ele>613.561109</ele>
        <time>2021-11-08T22:29:06.745Z</time>
      </trkpt>
      <trkpt lat="47.494878" lon="7.657874">
        <ele>613.002936</ele>
        <time>2021-11-08T22:29:09.900Z</time>
      </trkpt>
      <trkpt lat="47.493869" lon="7.656901">
        <ele>610.598848</ele>
        <time>2021-11-08T22:29:22.258Z</time>
      </trkpt>
      <trkpt lat="47.493727" lon="7.656848">
        <ele>610.386161</ele>
        <time>2021-11-08T22:29:23.691Z</time>
      </trkpt>
      <trkpt lat="47.493625" lon="7.656806">
        <ele>610.258783</ele>
        <time>2021-11-08T22:29:24.709Z</time>
      </trkpt>
      <trkpt lat="47.493454" lon="7.656654">
        <ele>610.018798</ele>
        <time>2021-11-08T22:29:26.942Z</time>
      </trkpt>
      <trkpt lat="47.493323" lon="7.656425">
        <ele>609.774885</ele>
        <time>2021-11-08T22:29:29.170Z</time>
      </trkpt>
      <trkpt lat="47.492960" lon="7.655784">
        <ele>609.094994</ele>
        <time>2021-11-08T22:29:35.865Z</time>
      </trkpt>
      <trkpt lat="47.492898" lon="7.656011">
        <ele>608.895956</ele>
        <time>2021-11-08T22:29:37.933Z</time>
      </trkpt>
      <trkpt lat="47.492834" lon="7.656127">
        <ele>608.774214</ele>
        <time>2021-11-08T22:29:39.230Z</time>
      </trkpt>
      <trkpt lat="47.492655" lon="7.656259">
        <ele>608.533606</ele>
        <time>2021-11-08T22:29:41.488Z</time>
      </trkpt>
      <trkpt lat="47.492368" lon="7.656441">
        <ele>608.864705</ele>
        <time>2021-11-08T22:29:47.478Z</time>
      </trkpt>
      <trkpt lat="47.492098" lon="7.656633">
        <ele>609.880491</ele>
        <time>2021-11-08T22:29:54.239Z</time>
      </trkpt>
      <trkpt lat="47.491848" lon="7.656926">
        <ele>610.961882</ele>
        <time>2021-11-08T22:30:03.763Z</time>
      </trkpt>
      <trkpt lat="47.491315" lon="7.657218">
        <ele>612.889165</ele>
        <time>2021-11-08T22:30:23.829Z</time>
      </trkpt>
      <trkpt lat="47.490868" lon="7.657356">
        <ele>614.437588</ele>
        <time>2021-11-08T22:30:38.979Z</time>
      </trkpt>
      <trkpt lat="47.491290" lon="7.658126">
        <ele>616.303495</ele>
        <time>2021-11-08T22:30:58.413Z</time>
      </trkpt>
      <trkpt lat="47.491352" lon="7.658296">
        <ele>616.666903</ele>
        <time>2021-11-08T22:31:02.104Z</time>
      </trkpt>
      <trkpt lat="47.491366" lon="7.658534">
        <ele>617.116315</ele>
        <time>2021-11-08T22:31:06.318Z</time>
      </trkpt>
      <trkpt lat="47.491283" lon="7.659274">
        <ele>618.527428</ele>
        <time>2021-11-08T22:31:18.866Z</time>
      </trkpt>
      <trkpt lat="47.491148" lon="7.660578">
        <ele>619.301200</ele>
        <time>2021-11-08T22:31:36.482Z</time>
      </trkpt>
      <trkpt lat="47.491135" lon="7.660667">
        <ele>619.284881</ele>
        <time>2021-11-08T22:31:37.144Z</time>
      </trkpt>
      <trkpt lat="47.491038" lon="7.661369">
        <ele>619.156462</ele>
        <time>2021-11-08T22:31:44.420Z</time>
      </trkpt>
      <trkpt lat="47.491127" lon="7.662280">
        <ele>618.991492</ele>
        <time>2021-11-08T22:31:52.454Z</time>
      </trkpt>
      <trkpt lat="47.491078" lon="7.662652">
        <ele>618.119988</ele>
        <time>2021-11-08T22:31:55.247Z</time>
      </trkpt>
      <trkpt lat="47.490960" lon="7.662986">
        <ele>616.947481</ele>
        <time>2021-11-08T22:31:57.653Z</time>
      </trkpt>
      <trkpt lat="47.490710" lon="7.663509">
        <ele>614.954492</ele>
        <time>2021-11-08T22:32:01.766Z</time>
      </trkpt>
      <trkpt lat="47.490681" lon="7.663697">
        <ele>614.354586</ele>
        <time>2021-11-08T22:32:03.139Z</time>
      </trkpt>
      <trkpt lat="47.490690" lon="7.663753">
        <ele>614.175513</ele>
        <time>2021-11-08T22:32:04.309Z</time>
      </trkpt>
      <trkpt lat="47.490724" lon="7.663818">
        <ele>613.919792</ele>
        <time>2021-11-08T22:32:04.775Z</time>
      </trkpt>
      <trkpt lat="47.491023" lon="7.664258">
        <ele>611.978489</ele>
        <time>2021-11-08T22:32:08.595Z</time>
      </trkpt>
      <trkpt lat="47.491167" lon="7.664633">
        <ele>610.617761</ele>
        <time>2021-11-08T22:32:11.380Z</time>
      </trkpt>
      <trkpt lat="47.491209" lon="7.664759">
        <ele>610.030733</ele>
        <time>2021-11-08T22:32:12.190Z</time>
      </trkpt>
      <trkpt lat="47.491235" lon="7.664889">
        <ele>609.464272</ele>
        <time>2021-11-08T22:32:13.074Z</time>
      </trkpt>
      <trkpt lat="47.491257" lon="7.665065">
        <ele>608.716431</ele>
        <time>2021-11-08T22:32:14.918Z</time>
      </trkpt>
      <trkpt lat="47.491275" lon="7.665260">
        <ele>607.894113</ele>
        <time>2021-11-08T22:32:16.042Z</time>
      </trkpt>
      <trkpt lat="47.491290" lon="7.665444">
        <ele>607.119749</ele>
        <time>2021-11-08T22:32:17.206Z</time>
      </trkpt>
      <trkpt lat="47.491308" lon="7.665727">
        <ele>605.932090</ele>
        <time>2021-11-08T22:32:18.950Z</time>
      </trkpt>
      <trkpt lat="47.491307" lon="7.665780">
        <ele>605.710559</ele>
        <time>2021-11-08T22:32:19.251Z</time>
      </trkpt>
      <trkpt lat="47.491296" lon="7.665853">
        <ele>605.398058</ele>
        <time>2021-11-08T22:32:19.688Z</time>
      </trkpt>
      <trkpt lat="47.491273" lon="7.665952">
        <ele>604.960649</ele>
        <time>2021-11-08T22:32:20.347Z</time>
      </trkpt>
      <trkpt lat="47.491126" lon="7.666409">
        <ele>602.845891</ele>
        <time>2021-11-08T22:32:23.444Z</time>
      </trkpt>
      <trkpt lat="47.490942" lon="7.667164">
        <ele>599.497213</ele>
        <time>2021-11-08T22:32:28.455Z</time>
      </trkpt>
      <trkpt lat="47.490690" lon="7.668617">
        <ele>593.617152</ele>
        <time>2021-11-08T22:32:38.035Z</time>
      </trkpt>
      <trkpt lat="47.490666" lon="7.670201">
        <ele>587.982099</ele>
        <time>2021-11-08T22:32:47.706Z</time>
      </trkpt>
      <trkpt lat="47.490706" lon="7.670713">
        <ele>586.634096</ele>
        <time>2021-11-08T22:32:50.869Z</time>
      </trkpt>
      <trkpt lat="47.490770" lon="7.671048">
        <ele>585.723593</ele>
        <time>2021-11-08T22:32:53.081Z</time>
      </trkpt>
      <trkpt lat="47.491002" lon="7.671806">
        <ele>583.547238</ele>
        <time>2021-11-08T22:32:59.078Z</time>
      </trkpt>
      <trkpt lat="47.491257" lon="7.672549">
        <ele>582.166101</ele>
        <time>2021-11-08T22:33:06.190Z</time>
      </trkpt>
      <trkpt lat="47.491431" lon="7.672880">
        <ele>582.155185</ele>
        <time>2021-11-08T22:33:09.775Z</time>
      </trkpt>
      <trkpt lat="47.491487" lon="7.672963">
        <ele>582.152132</ele>
        <time>2021-11-08T22:33:10.921Z</time>
      </trkpt>
      <trkpt lat="47.492120" lon="7.673689">
        <ele>582.121282</ele>
        <time>2021-11-08T22:33:24.504Z</time>
      </trkpt>
      <trkpt lat="47.492397" lon="7.673977">
        <ele>582.108241</ele>
        <time>2021-11-08T22:33:31.034Z</time>
      </trkpt>
      <trkpt lat="47.492419" lon="7.674013">
        <ele>582.106978</ele>
        <time>2021-11-08T22:33:31.933Z</time>
      </trkpt>
      <trkpt lat="47.492441" lon="7.674076">
        <ele>582.105132</ele>
        <time>2021-11-08T22:33:32.347Z</time>
      </trkpt>
      <trkpt lat="47.492431" lon="7.674567">
        <ele>580.588333</ele>
        <time>2021-11-08T22:33:39.470Z</time>
      </trkpt>
      <trkpt lat="47.492357" lon="7.674981">
        <ele>579.235256</ele>
        <time>2021-11-08T22:33:43.019Z</time>
      </trkpt>
      <trkpt lat="47.492252" lon="7.675376">
        <ele>577.894097</ele>
        <time>2021-11-08T22:33:45.693Z</time>
      </trkpt>
      <trkpt lat="47.492259" lon="7.675423">
        <ele>577.742030</ele>
        <time>2021-11-08T22:33:46.957Z</time>
      </trkpt>
      <trkpt lat="47.492364" lon="7.675466">
        <ele>577.232584</ele>
        <time>2021-11-08T22:33:47.950Z</time>
      </trkpt>
      <trkpt lat="47.492626" lon="7.675326">
        <ele>575.930024</ele>
        <time>2021-11-08T22:33:50.500Z</time>
      </trkpt>
      <trkpt lat="47.492876" lon="7.675193">
        <ele>574.687752</ele>
        <time>2021-11-08T22:33:52.821Z</time>
      </trkpt>
      <trkpt lat="47.492876" lon="7.675193">
        <ele>574.687752</ele>
        <time>2021-11-08T22:33:53.012Z</time>
      </trkpt>
      <trkpt lat="47.492876" lon="7.675193">
        <ele>574.687752</ele>
        <time>2021-11-08T22:33:53.045Z</time>
      </trkpt>
      <trkpt lat="47.493934" lon="7.674840">
        <ele>562.149553</ele>
        <time>2021-11-08T22:34:02.338Z</time>
      </trkpt>
      <trkpt lat="47.494214" lon="7.674823">
        <ele>558.439727</ele>
        <time>2021-11-08T22:34:04.658Z</time>
      </trkpt>
      <trkpt lat="47.494287" lon="7.674903">
        <ele>557.237250</ele>
        <time>2021-11-08T22:34:05.427Z</time>
      </trkpt>
      <trkpt lat="47.494344" lon="7.675092">
        <ele>555.385960</ele>
        <time>2021-11-08T22:34:06.592Z</time>
      </trkpt>
      <trkpt lat="47.494342" lon="7.675161">
        <ele>554.768215</ele>
        <time>2021-11-08T22:34:06.975Z</time>
      </trkpt>
      <trkpt lat="47.494328" lon="7.675230">
        <ele>554.123811</ele>
        <time>2021-11-08T22:34:07.373Z</time>
      </trkpt>
      <trkpt lat="47.494233" lon="7.675518">
        <ele>551.257167</ele>
        <time>2021-11-08T22:34:09.178Z</time>
      </trkpt>
      <trkpt lat="47.494229" lon="7.675736">
        <ele>549.252829</ele>
        <time>2021-11-08T22:34:10.385Z</time>
      </trkpt>
      <trkpt lat="47.494465" lon="7.676284">
        <ele>542.899009</ele>
        <time>2021-11-08T22:34:14.030Z</time>
      </trkpt>
      <trkpt lat="47.494529" lon="7.676434">
        <ele>541.164468</ele>
        <time>2021-11-08T22:34:15.017Z</time>
      </trkpt>
      <trkpt lat="47.494913" lon="7.677178">
        <ele>532.010600</ele>
        <time>2021-11-08T22:34:20.256Z</time>
      </trkpt>
      <trkpt lat="47.495197" lon="7.677947">
        <ele>523.555102</ele>
        <time>2021-11-08T22:34:25.275Z</time>
      </trkpt>
      <trkpt lat="47.495874" lon="7.678827">
        <ele>514.082236</ele>
        <time>2021-11-08T22:34:33.001Z</time>
      </trkpt>
      <trkpt lat="47.496153" lon="7.679066">
        <ele>510.693114</ele>
        <time>2021-11-08T22:34:35.764Z</time>
      </trkpt>
      <trkpt lat="47.496289" lon="7.679485">
        <ele>507.391195</ele>
        <time>2021-11-08T22:34:38.482Z</time>
      </trkpt>
      <trkpt lat="47.496525" lon="7.679952">
        <ele>503.299114</ele>
        <time>2021-11-08T22:34:41.851Z</time>
      </trkpt>
      <trkpt lat="47.496907" lon="7.680663">
        <ele>497.038223</ele>
        <time>2021-11-08T22:34:49.411Z</time>
      </trkpt>
      <trkpt lat="47.496916" lon="7.680688">
        <ele>496.842985</ele>
        <time>2021-11-08T22:34:49.578Z</time>
      </trkpt>
      <trkpt lat="47.496959" lon="7.680793">
        <ele>495.996745</ele>
        <time>2021-11-08T22:34:50.260Z</time>
      </trkpt>
      <trkpt lat="47.497186" lon="7.681839">
        <ele>488.424772</ele>
        <time>2021-11-08T22:34:56.607Z</time>
      </trkpt>
      <trkpt lat="47.497142" lon="7.682124">
        <ele>486.442813</ele>
        <time>2021-11-08T22:34:58.347Z</time>
      </trkpt>
      <trkpt lat="47.496983" lon="7.682567">
        <ele>483.592776</ele>
        <time>2021-11-08T22:35:01.280Z</time>
      </trkpt>
      <trkpt lat="47.497012" lon="7.682986">
        <ele>481.199743</ele>
        <time>2021-11-08T22:35:03.736Z</time>
      </trkpt>
      <trkpt lat="47.497149" lon="7.683668">
        <ele>477.157281</ele>
        <time>2021-11-08T22:35:08.023Z</time>
      </trkpt>
      <trkpt lat="47.497155" lon="7.683756">
        <ele>476.654765</ele>
        <time>2021-11-08T22:35:08.567Z</time>
      </trkpt>
      <trkpt lat="47.497128" lon="7.683933">
        <ele>475.623818</ele>
        <time>2021-11-08T22:35:09.677Z</time>
      </trkpt>
      <trkpt lat="47.497043" lon="7.684092">
        <ele>474.471865</ele>
        <time>2021-11-08T22:35:10.889Z</time>
      </trkpt>
      <trkpt lat="47.496620" lon="7.684549">
        <ele>470.143190</ele>
        <time>2021-11-08T22:35:15.513Z</time>
      </trkpt>
      <trkpt lat="47.496136" lon="7.684606">
        <ele>466.279153</ele>
        <time>2021-11-08T22:35:19.759Z</time>
      </trkpt>
      <trkpt lat="47.495883" lon="7.684734">
        <ele>464.151296</ele>
        <time>2021-11-08T22:35:22.148Z</time>
      </trkpt>
      <trkpt lat="47.495359" lon="7.684972">
        <ele>459.789153</ele>
        <time>2021-11-08T22:35:26.955Z</time>
      </trkpt>
      <trkpt lat="47.495085" lon="7.685344">
        <ele>456.939707</ele>
        <time>2021-11-08T22:35:31.650Z</time>
      </trkpt>
      <trkpt lat="47.494766" lon="7.685867">
        <ele>454.418699</ele>
        <time>2021-11-08T22:35:37.756Z</time>
      </trkpt>
      <trkpt lat="47.494620" lon="7.686242">
        <ele>452.870123</ele>
        <time>2021-11-08T22:35:41.524Z</time>
      </trkpt>
      <trkpt lat="47.494500" lon="7.686629">
        <ele>451.346570</ele>
        <time>2021-11-08T22:35:45.304Z</time>
      </trkpt>
      <trkpt lat="47.494501" lon="7.686964">
        <ele>450.147917</ele>
        <time>2021-11-08T22:35:47.535Z</time>
      </trkpt>
      <trkpt lat="47.494574" lon="7.687731">
        <ele>447.562532</ele>
        <time>2021-11-08T22:35:52.964Z</time>
      </trkpt>
      <trkpt lat="47.494828" lon="7.688691">
        <ele>446.550950</ele>
        <time>2021-11-08T22:36:00.555Z</time>
      </trkpt>
      <trkpt lat="47.494878" lon="7.689605">
        <ele>445.651217</ele>
        <time>2021-11-08T22:36:09.128Z</time>
      </trkpt>
      <trkpt lat="47.494857" lon="7.690242">
        <ele>445.025462</ele>
        <time>2021-11-08T22:36:14.311Z</time>
      </trkpt>
      <trkpt lat="47.494965" lon="7.691034">
        <ele>444.184452</ele>
        <time>2021-11-08T22:36:20.627Z</time>
      </trkpt>
      <trkpt lat="47.495161" lon="7.691470">
        <ele>443.639169</ele>
        <time>2021-11-08T22:36:24.588Z</time>
      </trkpt>
      <trkpt lat="47.496021" lon="7.692277">
        <ele>442.097750</ele>
        <time>2021-11-08T22:36:36.105Z</time>
      </trkpt>
      <trkpt lat="47.496567" lon="7.693176">
        <ele>441.034735</ele>
        <time>2021-11-08T22:36:45.682Z</time>
      </trkpt>
      <trkpt lat="47.496875" lon="7.693546">
        <ele>440.518435</ele>
        <time>2021-11-08T22:36:50.464Z</time>
      </trkpt>
      <trkpt lat="47.498235" lon="7.694839">
        <ele>437.540620</ele>
        <time>2021-11-08T22:37:09.699Z</time>
      </trkpt>
      <trkpt lat="47.498379" lon="7.695259">
        <ele>436.884075</ele>
        <time>2021-11-08T22:37:13.009Z</time>
      </trkpt>
      <trkpt lat="47.498753" lon="7.696892">
        <ele>432.375238</ele>
        <time>2021-11-08T22:37:24.389Z</time>
      </trkpt>
      <trkpt lat="47.498728" lon="7.697073">
        <ele>431.801841</ele>
        <time>2021-11-08T22:37:25.550Z</time>
      </trkpt>
      <trkpt lat="47.498660" lon="7.697568">
        <ele>430.234051</ele>
        <time>2021-11-08T22:37:28.752Z</time>
      </trkpt>
      <trkpt lat="47.498166" lon="7.700897">
        <ele>418.601572</ele>
        <time>2021-11-08T22:37:50.285Z</time>
      </trkpt>
      <trkpt lat="47.498213" lon="7.701072">
        <ele>417.928813</ele>
        <time>2021-11-08T22:37:52.033Z</time>
      </trkpt>
      <trkpt lat="47.498365" lon="7.702472">
        <ele>412.863258</ele>
        <time>2021-11-08T22:38:05.334Z</time>
      </trkpt>
      <trkpt lat="47.499043" lon="7.704392">
        <ele>403.435791</ele>
        <time>2021-11-08T22:38:24.337Z</time>
      </trkpt>
      <trkpt lat="47.499136" lon="7.704671">
        <ele>401.853595</ele>
        <time>2021-11-08T22:38:26.969Z</time>
      </trkpt>
      <trkpt lat="47.499247" lon="7.705013">
        <ele>399.924017</ele>
        <time>2021-11-08T22:38:30.222Z</time>
      </trkpt>
      <trkpt lat="47.499385" lon="7.705412">
        <ele>397.644410</ele>
        <time>2021-11-08T22:38:34.026Z</time>
      </trkpt>
      <trkpt lat="47.499871" lon="7.706570">
        <ele>389.798142</ele>
        <time>2021-11-08T22:38:45.399Z</time>
      </trkpt>
      <trkpt lat="47.500529" lon="7.707770">
        <ele>380.460684</ele>
        <time>2021-11-08T22:38:58.294Z</time>
      </trkpt>
      <trkpt lat="47.500794" lon="7.708227">
        <ele>376.947779</ele>
        <time>2021-11-08T22:39:03.349Z</time>
      </trkpt>
      <trkpt lat="47.500920" lon="7.708420">
        <ele>375.402821</ele>
        <time>2021-11-08T22:39:05.637Z</time>
      </trkpt>
      <trkpt lat="47.500998" lon="7.708641">
        <ele>373.967521</ele>
        <time>2021-11-08T22:39:07.722Z</time>
      </trkpt>
      <trkpt lat="47.501058" lon="7.708888">
        <ele>372.456583</ele>
        <time>2021-11-08T22:39:09.978Z</time>
      </trkpt>
      <trkpt lat="47.501135" lon="7.709245">
        <ele>370.299377</ele>
        <time>2021-11-08T22:39:13.117Z</time>
      </trkpt>
      <trkpt lat="47.501139" lon="7.709271">
        <ele>370.145880</ele>
        <time>2021-11-08T22:39:13.351Z</time>
      </trkpt>
      <trkpt lat="47.501153" lon="7.709374">
        <ele>369.541096</ele>
        <time>2021-11-08T22:39:14.237Z</time>
      </trkpt>
      <trkpt lat="47.501179" lon="7.709570">
        <ele>368.391310</ele>
        <time>2021-11-08T22:39:15.911Z</time>
      </trkpt>
      <trkpt lat="47.501202" lon="7.709890">
        <ele>366.538888</ele>
        <time>2021-11-08T22:39:18.639Z</time>
      </trkpt>
      <trkpt lat="47.501237" lon="7.710370">
        <ele>363.712338</ele>
        <time>2021-11-08T22:39:22.706Z</time>
      </trkpt>
      <trkpt lat="47.501273" lon="7.710979">
        <ele>359.774871</ele>
        <time>2021-11-08T22:39:27.831Z</time>
      </trkpt>
      <trkpt lat="47.501331" lon="7.711411">
        <ele>356.938011</ele>
        <time>2021-11-08T22:39:31.502Z</time>
      </trkpt>
      <trkpt lat="47.501351" lon="7.711552">
        <ele>356.010050</ele>
        <time>2021-11-08T22:39:32.697Z</time>
      </trkpt>
      <trkpt lat="47.501393" lon="7.711928">
        <ele>353.555414</ele>
        <time>2021-11-08T22:39:35.883Z</time>
      </trkpt>
      <trkpt lat="47.501389" lon="7.712321">
        <ele>351.023878</ele>
        <time>2021-11-08T22:39:39.161Z</time>
      </trkpt>
      <trkpt lat="47.501382" lon="7.712454">
        <ele>350.164651</ele>
        <time>2021-11-08T22:39:40.231Z</time>
      </trkpt>
      <trkpt lat="47.501372" lon="7.712655">
        <ele>348.866536</ele>
        <time>2021-11-08T22:39:41.885Z</time>
      </trkpt>
      <trkpt lat="47.501341" lon="7.712838">
        <ele>347.651373</ele>
        <time>2021-11-08T22:39:43.460Z</time>
      </trkpt>
      <trkpt lat="47.501370" lon="7.713044">
        <ele>346.256245</ele>
        <time>2021-11-08T22:39:45.155Z</time>
      </trkpt>
      <trkpt lat="47.501304" lon="7.713203">
        <ele>344.987335</ele>
        <time>2021-11-08T22:39:46.233Z</time>
      </trkpt>
      <trkpt lat="47.501178" lon="7.713343">
        <ele>343.401622</ele>
        <time>2021-11-08T22:39:47.563Z</time>
      </trkpt>
      <trkpt lat="47.500910" lon="7.713640">
        <ele>340.032004</ele>
        <time>2021-11-08T22:39:50.419Z</time>
      </trkpt>
      <trkpt lat="47.500876" lon="7.713680">
        <ele>339.594874</ele>
        <time>2021-11-08T22:39:50.780Z</time>
      </trkpt>
      <trkpt lat="47.500773" lon="7.713818">
        <ele>338.196578</ele>
        <time>2021-11-08T22:39:51.983Z</time>
      </trkpt>
      <trkpt lat="47.500845" lon="7.713984">
        <ele>336.855229</ele>
        <time>2021-11-08T22:39:53.135Z</time>
      </trkpt>
      <trkpt lat="47.500887" lon="7.714055">
        <ele>336.213535</ele>
        <time>2021-11-08T22:39:53.660Z</time>
      </trkpt>
      <trkpt lat="47.501047" lon="7.714326">
        <ele>333.766309</ele>
        <time>2021-11-08T22:39:55.755Z</time>
      </trkpt>
      <trkpt lat="47.501327" lon="7.714687">
        <ele>330.028995</ele>
        <time>2021-11-08T22:39:58.992Z</time>
      </trkpt>
      <trkpt lat="47.501422" lon="7.714809">
        <ele>328.822888</ele>
        <time>2021-11-08T22:40:00.070Z</time>
      </trkpt>
      <trkpt lat="47.501936" lon="7.715129">
        <ele>325.531641</ele>
        <time>2021-11-08T22:40:05.106Z</time>
      </trkpt>
      <trkpt lat="47.501972" lon="7.715215">
        <ele>325.128224</ele>
        <time>2021-11-08T22:40:05.745Z</time>
      </trkpt>
      <trkpt lat="47.501933" lon="7.715492">
        <ele>323.999967</ele>
        <time>2021-11-08T22:40:07.458Z</time>
      </trkpt>
      <trkpt lat="47.501081" lon="7.715458">
        <ele>318.969295</ele>
        <time>2021-11-08T22:40:15.567Z</time>
      </trkpt>
      <trkpt lat="47.500876" lon="7.715465">
        <ele>318.025416</ele>
        <time>2021-11-08T22:40:17.487Z</time>
      </trkpt>
      <trkpt lat="47.500779" lon="7.715477">
        <ele>317.738443</ele>
        <time>2021-11-08T22:40:18.505Z</time>
      </trkpt>
      <trkpt lat="47.500713" lon="7.715490">
        <ele>317.542146</ele>
        <time>2021-11-08T22:40:19.305Z</time>
      </trkpt>
      <trkpt lat="47.500619" lon="7.715512">
        <ele>317.261572</ele>
        <time>2021-11-08T22:40:20.184Z</time>
      </trkpt>
      <trkpt lat="47.500551" lon="7.715539">
        <ele>317.054007</ele>
        <time>2021-11-08T22:40:20.853Z</time>
      </trkpt>
      <trkpt lat="47.500461" lon="7.715594">
        <ele>316.766944</ele>
        <time>2021-11-08T22:40:21.850Z</time>
      </trkpt>
      <trkpt lat="47.500458" lon="7.715596">
        <ele>316.757244</ele>
        <time>2021-11-08T22:40:21.883Z</time>
      </trkpt>
      <trkpt lat="47.500326" lon="7.715689">
        <ele>316.326245</ele>
        <time>2021-11-08T22:40:23.613Z</time>
      </trkpt>
      <trkpt lat="47.500225" lon="7.715795">
        <ele>315.961223</ele>
        <time>2021-11-08T22:40:24.797Z</time>
      </trkpt>
      <trkpt lat="47.500039" lon="7.716140">
        <ele>315.082078</ele>
        <time>2021-11-08T22:40:27.956Z</time>
      </trkpt>
      <trkpt lat="47.499940" lon="7.716540">
        <ele>314.233586</ele>
        <time>2021-11-08T22:40:31.167Z</time>
      </trkpt>
      <trkpt lat="47.499933" lon="7.716599">
        <ele>314.114272</ele>
        <time>2021-11-08T22:40:31.522Z</time>
      </trkpt>
      <trkpt lat="47.499921" lon="7.716812">
        <ele>313.688550</ele>
        <time>2021-11-08T22:40:33.045Z</time>
      </trkpt>
      <trkpt lat="47.499921" lon="7.717049">
        <ele>313.216498</ele>
        <time>2021-11-08T22:40:34.994Z</time>
      </trkpt>
      <trkpt lat="47.499941" lon="7.717298">
        <ele>312.869433</ele>
        <time>2021-11-08T22:40:36.671Z</time>
      </trkpt>
      <trkpt lat="47.499979" lon="7.717601">
        <ele>312.600136</ele>
        <time>2021-11-08T22:40:39.278Z</time>
      </trkpt>
      <trkpt lat="47.500101" lon="7.718657">
        <ele>311.663966</ele>
        <time>2021-11-08T22:40:47.562Z</time>
      </trkpt>
      <trkpt lat="47.500113" lon="7.718753">
        <ele>311.578654</ele>
        <time>2021-11-08T22:40:48.208Z</time>
      </trkpt>
      <trkpt lat="47.500152" lon="7.719065">
        <ele>311.301390</ele>
        <time>2021-11-08T22:40:51.113Z</time>
      </trkpt>
      <trkpt lat="47.500196" lon="7.719527">
        <ele>310.893685</ele>
        <time>2021-11-08T22:40:55.313Z</time>
      </trkpt>
      <trkpt lat="47.500211" lon="7.719679">
        <ele>310.759453</ele>
        <time>2021-11-08T22:40:56.731Z</time>
      </trkpt>
      <trkpt lat="47.500263" lon="7.720235">
        <ele>310.236266</ele>
        <time>2021-11-08T22:41:01.757Z</time>
      </trkpt>
      <trkpt lat="47.500280" lon="7.720537">
        <ele>309.949426</ele>
        <time>2021-11-08T22:41:04.527Z</time>
      </trkpt>
      <trkpt lat="47.500292" lon="7.720666">
        <ele>309.826172</ele>
        <time>2021-11-08T22:41:05.641Z</time>
      </trkpt>
      <trkpt lat="47.500342" lon="7.720808">
        <ele>309.674607</ele>
        <time>2021-11-08T22:41:07.069Z</time>
      </trkpt>
      <trkpt lat="47.500320" lon="7.720834">
        <ele>309.635165</ele>
        <time>2021-11-08T22:41:07.398Z</time>
      </trkpt>
      <trkpt lat="47.500299" lon="7.720909">
        <ele>309.558320</ele>
        <time>2021-11-08T22:41:08.172Z</time>
      </trkpt>
      <trkpt lat="47.500336" lon="7.721015">
        <ele>309.445388</ele>
        <time>2021-11-08T22:41:09.043Z</time>
      </trkpt>
      <trkpt lat="47.500362" lon="7.721031">
        <ele>309.405939</ele>
        <time>2021-11-08T22:41:09.371Z</time>
      </trkpt>
      <trkpt lat="47.500389" lon="7.721033">
        <ele>309.368063</ele>
        <time>2021-11-08T22:41:09.738Z</time>
      </trkpt>
      <trkpt lat="47.500461" lon="7.720933">
        <ele>309.229735</ele>
        <time>2021-11-08T22:41:10.950Z</time>
      </trkpt>
      <trkpt lat="47.500460" lon="7.720893">
        <ele>309.191849</ele>
        <time>2021-11-08T22:41:11.338Z</time>
      </trkpt>
      <trkpt lat="47.500553" lon="7.720873">
        <ele>309.060184</ele>
        <time>2021-11-08T22:41:12.495Z</time>
      </trkpt>
      <trkpt lat="47.500806" lon="7.720829">
        <ele>308.703284</ele>
        <time>2021-11-08T22:41:15.324Z</time>
      </trkpt>
      <trkpt lat="47.500848" lon="7.720821">
        <ele>308.643955</ele>
        <time>2021-11-08T22:41:15.834Z</time>
      </trkpt>
      <trkpt lat="47.500946" lon="7.720804">
        <ele>308.505714</ele>
        <time>2021-11-08T22:41:16.883Z</time>
      </trkpt>
      <trkpt lat="47.501183" lon="7.720763">
        <ele>308.171408</ele>
        <time>2021-11-08T22:41:19.376Z</time>
      </trkpt>
      <trkpt lat="47.501265" lon="7.720750">
        <ele>307.913049</ele>
        <time>2021-11-08T22:41:20.259Z</time>
      </trkpt>
      <trkpt lat="47.501369" lon="7.720733">
        <ele>307.523754</ele>
        <time>2021-11-08T22:41:21.272Z</time>
      </trkpt>
      <trkpt lat="47.501475" lon="7.720701">
        <ele>307.121250</ele>
        <time>2021-11-08T22:41:22.382Z</time>
      </trkpt>
      <trkpt lat="47.501487" lon="7.720740">
        <ele>307.013534</ele>
        <time>2021-11-08T22:41:22.676Z</time>
      </trkpt>
      <trkpt lat="47.501590" lon="7.720794">
        <ele>306.606984</ele>
        <time>2021-11-08T22:41:23.826Z</time>
      </trkpt>
      <trkpt lat="47.501616" lon="7.720776">
        <ele>306.500191</ele>
        <time>2021-11-08T22:41:24.122Z</time>
      </trkpt>
      <trkpt lat="47.501635" lon="7.720835">
        <ele>306.335906</ele>
        <time>2021-11-08T22:41:24.522Z</time>
      </trkpt>
      <trkpt lat="47.501658" lon="7.720911">
        <ele>306.126586</ele>
        <time>2021-11-08T22:41:25.095Z</time>
      </trkpt>
      <trkpt lat="47.501816" lon="7.721777">
        <ele>303.871891</ele>
        <time>2021-11-08T22:41:31.174Z</time>
      </trkpt>
      <trkpt lat="47.501908" lon="7.722222">
        <ele>302.702171</ele>
        <time>2021-11-08T22:41:34.171Z</time>
      </trkpt>
      <trkpt lat="47.501978" lon="7.722527">
        <ele>301.892517</ele>
        <time>2021-11-08T22:41:36.200Z</time>
      </trkpt>
      <trkpt lat="47.502028" lon="7.722740">
        <ele>301.349563</ele>
        <time>2021-11-08T22:41:37.670Z</time>
      </trkpt>
      <trkpt lat="47.502046" lon="7.722829">
        <ele>301.160791</ele>
        <time>2021-11-08T22:41:38.258Z</time>
      </trkpt>
      <trkpt lat="47.502072" lon="7.722973">
        <ele>300.857924</ele>
        <time>2021-11-08T22:41:39.203Z</time>
      </trkpt>
      <trkpt lat="47.502112" lon="7.723201">
        <ele>300.379280</ele>
        <time>2021-11-08T22:41:40.743Z</time>
      </trkpt>
      <trkpt lat="47.502133" lon="7.723553">
        <ele>299.661260</ele>
        <time>2021-11-08T22:41:43.088Z</time>
      </trkpt>
      <trkpt lat="47.502126" lon="7.723727">
        <ele>299.307080</ele>
        <time>2021-11-08T22:41:44.256Z</time>
      </trkpt>
      <trkpt lat="47.502105" lon="7.724063">
        <ele>298.621440</ele>
        <time>2021-11-08T22:41:46.551Z</time>
      </trkpt>
      <trkpt lat="47.502074" lon="7.724375">
        <ele>297.980660</ele>
        <time>2021-11-08T22:41:48.755Z</time>
      </trkpt>
      <trkpt lat="47.502069" lon="7.724437">
        <ele>297.853787</ele>
        <time>2021-11-08T22:41:49.217Z</time>
      </trkpt>
      <trkpt lat="47.502067" lon="7.724454">
        <ele>297.818724</ele>
        <time>2021-11-08T22:41:49.325Z</time>
      </trkpt>
      <trkpt lat="47.502055" lon="7.724669">
        <ele>297.380373</ele>
        <time>2021-11-08T22:41:50.932Z</time>
      </trkpt>
      <trkpt lat="47.502055" lon="7.724669">
        <ele>297.380373</ele>
        <time>2021-11-08T22:41:50.934Z</time>
      </trkpt>
      <trkpt lat="47.502055" lon="7.724669">
        <ele>297.380373</ele>
        <time>2021-11-08T22:41:50.952Z</time>
      </trkpt>
      <trkpt lat="47.502172" lon="7.724685">
        <ele>297.026968</ele>
        <time>2021-11-08T22:41:52.830Z</time>
      </trkpt>
      <trkpt lat="47.502179" lon="7.724686">
        <ele>297.005816</ele>
        <time>2021-11-08T22:41:52.945Z</time>
      </trkpt>
      <trkpt lat="47.502205" lon="7.724690">
        <ele>296.927194</ele>
        <time>2021-11-08T22:41:53.361Z</time>
      </trkpt>
      <trkpt lat="47.502283" lon="7.724703">
        <ele>296.691107</ele>
        <time>2021-11-08T22:41:54.631Z</time>
      </trkpt>
      <trkpt lat="47.502584" lon="7.724671">
        <ele>295.951703</ele>
        <time>2021-11-08T22:41:59.716Z</time>
      </trkpt>
      <trkpt lat="47.502794" lon="7.724635">
        <ele>295.732507</ele>
        <time>2021-11-08T22:42:03.355Z</time>
      </trkpt>
      <trkpt lat="47.503201" lon="7.724541">
        <ele>295.305399</ele>
        <time>2021-11-08T22:42:10.636Z</time>
      </trkpt>
      <trkpt lat="47.503333" lon="7.724502">
        <ele>295.165834</ele>
        <time>2021-11-08T22:42:13.021Z</time>
      </trkpt>
      <trkpt lat="47.503457" lon="7.724469">
        <ele>295.035202</ele>
        <time>2021-11-08T22:42:15.366Z</time>
      </trkpt>
      <trkpt lat="47.503494" lon="7.724462">
        <ele>294.996526</ele>
        <time>2021-11-08T22:42:16.125Z</time>
      </trkpt>
      <trkpt lat="47.503945" lon="7.724377">
        <ele>294.525127</ele>
        <time>2021-11-08T22:42:24.373Z</time>
      </trkpt>
      <trkpt lat="47.504048" lon="7.724357">
        <ele>294.417415</ele>
        <time>2021-11-08T22:42:26.092Z</time>
      </trkpt>
      <trkpt lat="47.504396" lon="7.724291">
        <ele>293.946530</ele>
        <time>2021-11-08T22:42:32.005Z</time>
      </trkpt>
      <trkpt lat="47.504514" lon="7.724269">
        <ele>293.714630</ele>
        <time>2021-11-08T22:42:34.025Z</time>
      </trkpt>
      <trkpt lat="47.504610" lon="7.724250">
        <ele>293.525779</ele>
        <time>2021-11-08T22:42:35.689Z</time>
      </trkpt>
      <trkpt lat="47.504856" lon="7.724220">
        <ele>293.044491</ele>
        <time>2021-11-08T22:42:39.599Z</time>
      </trkpt>
      <trkpt lat="47.505012" lon="7.724231">
        <ele>292.739970</ele>
        <time>2021-11-08T22:42:42.154Z</time>
      </trkpt>
      <trkpt lat="47.505073" lon="7.724246">
        <ele>292.619399</ele>
        <time>2021-11-08T22:42:43.047Z</time>
      </trkpt>
      <trkpt lat="47.505161" lon="7.724267">
        <ele>292.445598</ele>
        <time>2021-11-08T22:42:44.466Z</time>
      </trkpt>
      <trkpt lat="47.505365" lon="7.724317">
        <ele>292.042413</ele>
        <time>2021-11-08T22:42:47.820Z</time>
      </trkpt>
      <trkpt lat="47.505646" lon="7.724350">
        <ele>291.492785</ele>
        <time>2021-11-08T22:42:52.119Z</time>
      </trkpt>
      <trkpt lat="47.505783" lon="7.724344">
        <ele>291.225538</ele>
        <time>2021-11-08T22:42:54.153Z</time>
      </trkpt>
      <trkpt lat="47.505851" lon="7.724341">
        <ele>291.092890</ele>
        <time>2021-11-08T22:42:55.234Z</time>
      </trkpt>
      <trkpt lat="47.505891" lon="7.724339">
        <ele>291.014852</ele>
        <time>2021-11-08T22:42:55.830Z</time>
      </trkpt>
      <trkpt lat="47.505930" lon="7.724337">
        <ele>290.938762</ele>
        <time>2021-11-08T22:42:56.433Z</time>
      </trkpt>
      <trkpt lat="47.506453" lon="7.724284">
        <ele>289.909208</ele>
        <time>2021-11-08T22:43:04.402Z</time>
      </trkpt>
      <trkpt lat="47.506607" lon="7.724268">
        <ele>289.605230</ele>
        <time>2021-11-08T22:43:06.719Z</time>
      </trkpt>
      <trkpt lat="47.506921" lon="7.724257">
        <ele>288.986780</ele>
        <time>2021-11-08T22:43:11.716Z</time>
      </trkpt>
      <trkpt lat="47.506945" lon="7.724261">
        <ele>288.939224</ele>
        <time>2021-11-08T22:43:12.095Z</time>
      </trkpt>
      <trkpt lat="47.507064" lon="7.724278">
        <ele>288.703820</ele>
        <time>2021-11-08T22:43:13.971Z</time>
      </trkpt>
      <trkpt lat="47.507444" lon="7.724343">
        <ele>287.950608</ele>
        <time>2021-11-08T22:43:20.095Z</time>
      </trkpt>
      <trkpt lat="47.507810" lon="7.724326">
        <ele>287.229586</ele>
        <time>2021-11-08T22:43:26.078Z</time>
      </trkpt>
      <trkpt lat="47.508175" lon="7.724311">
        <ele>286.816615</ele>
        <time>2021-11-08T22:43:32.118Z</time>
      </trkpt>
      <trkpt lat="47.508425" lon="7.724317">
        <ele>286.568862</ele>
        <time>2021-11-08T22:43:36.343Z</time>
      </trkpt>
      <trkpt lat="47.508629" lon="7.724301">
        <ele>286.366438</ele>
        <time>2021-11-08T22:43:39.712Z</time>
      </trkpt>
      <trkpt lat="47.508823" lon="7.724215">
        <ele>286.165773</ele>
        <time>2021-11-08T22:43:42.194Z</time>
      </trkpt>
      <trkpt lat="47.509150" lon="7.724070">
        <ele>285.827532</ele>
        <time>2021-11-08T22:43:46.369Z</time>
      </trkpt>
      <trkpt lat="47.509672" lon="7.723906">
        <ele>285.345795</ele>
        <time>2021-11-08T22:43:53.292Z</time>
      </trkpt>
      <trkpt lat="47.509849" lon="7.723882">
        <ele>285.351353</ele>
        <time>2021-11-08T22:43:56.896Z</time>
      </trkpt>
      <trkpt lat="47.510349" lon="7.724011">
        <ele>285.367223</ele>
        <time>2021-11-08T22:44:07.864Z</time>
      </trkpt>
      <trkpt lat="47.510952" lon="7.724263">
        <ele>285.386815</ele>
        <time>2021-11-08T22:44:21.924Z</time>
      </trkpt>
      <trkpt lat="47.511606" lon="7.724590">
        <ele>285.629986</ele>
        <time>2021-11-08T22:44:34.393Z</time>
      </trkpt>
      <trkpt lat="47.511791" lon="7.724622">
        <ele>285.801236</ele>
        <time>2021-11-08T22:44:37.963Z</time>
      </trkpt>
      <trkpt lat="47.511979" lon="7.724618">
        <ele>285.974105</ele>
        <time>2021-11-08T22:44:41.805Z</time>
      </trkpt>
      <trkpt lat="47.512214" lon="7.724543">
        <ele>286.195133</ele>
        <time>2021-11-08T22:44:47.873Z</time>
      </trkpt>
      <trkpt lat="47.512277" lon="7.724501">
        <ele>286.258658</ele>
        <time>2021-11-08T22:44:48.973Z</time>
      </trkpt>
      <trkpt lat="47.512857" lon="7.723931">
        <ele>286.898711</ele>
        <time>2021-11-08T22:45:09.730Z</time>
      </trkpt>
      <trkpt lat="47.512888" lon="7.724074">
        <ele>286.991976</ele>
        <time>2021-11-08T22:45:11.843Z</time>
      </trkpt>
      <trkpt lat="47.512910" lon="7.724174">
        <ele>287.057318</ele>
        <time>2021-11-08T22:45:13.735Z</time>
      </trkpt>
      <trkpt lat="47.512976" lon="7.724418">
        <ele>287.222221</ele>
        <time>2021-11-08T22:45:17.222Z</time>
      </trkpt>
      <trkpt lat="47.513078" lon="7.724821">
        <ele>287.492227</ele>
        <time>2021-11-08T22:45:23.098Z</time>
      </trkpt>
      <trkpt lat="47.513150" lon="7.725105">
        <ele>287.682544</ele>
        <time>2021-11-08T22:45:25.461Z</time>
      </trkpt>
      <trkpt lat="47.513193" lon="7.725244">
        <ele>287.778462</ele>
        <time>2021-11-08T22:45:28.467Z</time>
      </trkpt>
      <trkpt lat="47.513232" lon="7.725318">
        <ele>287.837350</ele>
        <time>2021-11-08T22:45:29.655Z</time>
      </trkpt>
      <trkpt lat="47.513538" lon="7.725582">
        <ele>288.166325</ele>
        <time>2021-11-08T22:45:36.751Z</time>
      </trkpt>
      <trkpt lat="47.513681" lon="7.725617">
        <ele>288.300958</ele>
        <time>2021-11-08T22:45:39.057Z</time>
      </trkpt>
      <trkpt lat="47.513968" lon="7.725568">
        <ele>288.569314</ele>
        <time>2021-11-08T22:45:45.399Z</time>
      </trkpt>
      <trkpt lat="47.514143" lon="7.725538">
        <ele>288.711747</ele>
        <time>2021-11-08T22:45:48.658Z</time>
      </trkpt>
      <trkpt lat="47.515140" lon="7.725368">
        <ele>287.145679</ele>
        <time>2021-11-08T22:46:00.583Z</time>
      </trkpt>
      <trkpt lat="47.515697" lon="7.725255">
        <ele>286.268378</ele>
        <time>2021-11-08T22:46:06.373Z</time>
      </trkpt>
      <trkpt lat="47.515959" lon="7.725102">
        <ele>285.792870</ele>
        <time>2021-11-08T22:46:09.355Z</time>
      </trkpt>
      <trkpt lat="47.516416" lon="7.724623">
        <ele>284.567279</ele>
        <time>2021-11-08T22:46:15.312Z</time>
      </trkpt>
      <trkpt lat="47.517269" lon="7.723372">
        <ele>281.956025</ele>
        <time>2021-11-08T22:46:28.376Z</time>
      </trkpt>
      <trkpt lat="47.517885" lon="7.722793">
        <ele>280.994972</ele>
        <time>2021-11-08T22:46:36.710Z</time>
      </trkpt>
      <trkpt lat="47.518038" lon="7.722700">
        <ele>280.777125</ele>
        <time>2021-11-08T22:46:38.589Z</time>
      </trkpt>
      <trkpt lat="47.518237" lon="7.722578">
        <ele>280.493429</ele>
        <time>2021-11-08T22:46:41.208Z</time>
      </trkpt>
      <trkpt lat="47.519305" lon="7.722165">
        <ele>279.710928</ele>
        <time>2021-11-08T22:46:54.807Z</time>
      </trkpt>
      <trkpt lat="47.520760" lon="7.721667">
        <ele>280.604344</ele>
        <time>2021-11-08T22:47:18.805Z</time>
      </trkpt>
      <trkpt lat="47.521121" lon="7.721544">
        <ele>282.273933</ele>
        <time>2021-11-08T22:47:28.247Z</time>
      </trkpt>
      <trkpt lat="47.521455" lon="7.721426">
        <ele>283.821565</ele>
        <time>2021-11-08T22:47:39.418Z</time>
      </trkpt>
      <trkpt lat="47.521722" lon="7.721283">
        <ele>285.101261</ele>
        <time>2021-11-08T22:47:49.016Z</time>
      </trkpt>
      <trkpt lat="47.521846" lon="7.721211">
        <ele>285.701574</ele>
        <time>2021-11-08T22:47:55.291Z</time>
      </trkpt>
      <trkpt lat="47.521984" lon="7.721168">
        <ele>286.337178</ele>
        <time>2021-11-08T22:48:00.045Z</time>
      </trkpt>
      <trkpt lat="47.522249" lon="7.721165">
        <ele>287.531602</ele>
        <time>2021-11-08T22:48:12.102Z</time>
      </trkpt>
      <trkpt lat="47.522498" lon="7.721207">
        <ele>288.820411</ele>
        <time>2021-11-08T22:48:22.739Z</time>
      </trkpt>
      <trkpt lat="47.522682" lon="7.721170">
        <ele>289.907097</ele>
        <time>2021-11-08T22:48:30.191Z</time>
      </trkpt>
      <trkpt lat="47.522888" lon="7.721170">
        <ele>291.112649</ele>
        <time>2021-11-08T22:48:39.924Z</time>
      </trkpt>
      <trkpt lat="47.523111" lon="7.721224">
        <ele>292.435021</ele>
        <time>2021-11-08T22:48:48.288Z</time>
      </trkpt>
      <trkpt lat="47.523300" lon="7.721328">
        <ele>293.614979</ele>
        <time>2021-11-08T22:48:57.613Z</time>
      </trkpt>
      <trkpt lat="47.523671" lon="7.721634">
        <ele>296.100199</ele>
        <time>2021-11-08T22:49:13.529Z</time>
      </trkpt>
      <trkpt lat="47.523902" lon="7.721670">
        <ele>297.459521</ele>
        <time>2021-11-08T22:49:22.344Z</time>
      </trkpt>
      <trkpt lat="47.524263" lon="7.721598">
        <ele>298.778447</ele>
        <time>2021-11-08T22:49:33.687Z</time>
      </trkpt>
      <trkpt lat="47.524632" lon="7.721805">
        <ele>299.086301</ele>
        <time>2021-11-08T22:49:43.047Z</time>
      </trkpt>
      <trkpt lat="47.524884" lon="7.722022">
        <ele>299.313731</ele>
        <time>2021-11-08T22:49:48.294Z</time>
      </trkpt>
      <trkpt lat="47.525258" lon="7.722384">
        <ele>299.662320</ele>
        <time>2021-11-08T22:49:54.432Z</time>
      </trkpt>
      <trkpt lat="47.525373" lon="7.722545">
        <ele>299.785789</ele>
        <time>2021-11-08T22:49:56.439Z</time>
      </trkpt>
      <trkpt lat="47.526099" lon="7.723563">
        <ele>299.243837</ele>
        <time>2021-11-08T22:50:07.837Z</time>
      </trkpt>
      <trkpt lat="47.526744" lon="7.724750">
        <ele>297.962291</ele>
        <time>2021-11-08T22:50:19.773Z</time>
      </trkpt>
      <trkpt lat="47.526894" lon="7.725042">
        <ele>297.843051</ele>
        <time>2021-11-08T22:50:22.810Z</time>
      </trkpt>
      <trkpt lat="47.527862" lon="7.727114">
        <ele>298.186529</ele>
        <time>2021-11-08T22:50:51.022Z</time>
      </trkpt>
      <trkpt lat="47.528009" lon="7.727429">
        <ele>298.190152</ele>
        <time>2021-11-08T22:50:55.915Z</time>
      </trkpt>
      <trkpt lat="47.528065" lon="7.727556">
        <ele>298.191587</ele>
        <time>2021-11-08T22:50:57.737Z</time>
      </trkpt>
      <trkpt lat="47.528164" lon="7.727824">
        <ele>298.194478</ele>
        <time>2021-11-08T22:51:01.253Z</time>
      </trkpt>
      <trkpt lat="47.528320" lon="7.728136">
        <ele>298.198152</ele>
        <time>2021-11-08T22:51:05.514Z</time>
      </trkpt>
      <trkpt lat="47.528408" lon="7.728307">
        <ele>298.200186</ele>
        <time>2021-11-08T22:51:07.577Z</time>
      </trkpt>
      <trkpt lat="47.528552" lon="7.728411">
        <ele>298.202431</ele>
        <time>2021-11-08T22:51:09.882Z</time>
      </trkpt>
      <trkpt lat="47.528614" lon="7.728431">
        <ele>298.203320</ele>
        <time>2021-11-08T22:51:10.804Z</time>
      </trkpt>
      <trkpt lat="47.528688" lon="7.728441">
        <ele>298.204362</ele>
        <time>2021-11-08T22:51:11.759Z</time>
      </trkpt>
      <trkpt lat="47.528715" lon="7.728334">
        <ele>298.205443</ele>
        <time>2021-11-08T22:51:12.761Z</time>
      </trkpt>
      <trkpt lat="47.528746" lon="7.728265">
        <ele>298.206227</ele>
        <time>2021-11-08T22:51:13.543Z</time>
      </trkpt>
      <trkpt lat="47.528803" lon="7.728159">
        <ele>298.207509</ele>
        <time>2021-11-08T22:51:14.799Z</time>
      </trkpt>
      <trkpt lat="47.528848" lon="7.728118">
        <ele>298.208250</ele>
        <time>2021-11-08T22:51:15.517Z</time>
      </trkpt>
      <trkpt lat="47.528941" lon="7.728048">
        <ele>298.209712</ele>
        <time>2021-11-08T22:51:16.821Z</time>
      </trkpt>
      <trkpt lat="47.529207" lon="7.727883">
        <ele>298.031545</ele>
        <time>2021-11-08T22:51:20.524Z</time>
      </trkpt>
      <trkpt lat="47.529269" lon="7.727844">
        <ele>297.963215</ele>
        <time>2021-11-08T22:51:21.305Z</time>
      </trkpt>
      <trkpt lat="47.529976" lon="7.727410">
        <ele>297.186874</ele>
        <time>2021-11-08T22:51:30.478Z</time>
      </trkpt>
      <trkpt lat="47.530372" lon="7.727161">
        <ele>296.750470</ele>
        <time>2021-11-08T22:51:35.609Z</time>
      </trkpt>
      <trkpt lat="47.530756" lon="7.726844">
        <ele>296.339496</ele>
        <time>2021-11-08T22:51:40.936Z</time>
      </trkpt>
      <trkpt lat="47.531031" lon="7.726569">
        <ele>296.146094</ele>
        <time>2021-11-08T22:51:45.099Z</time>
      </trkpt>
      <trkpt lat="47.531193" lon="7.726888">
        <ele>295.989008</ele>
        <time>2021-11-08T22:51:48.536Z</time>
      </trkpt>
      <trkpt lat="47.531296" lon="7.727089">
        <ele>295.889704</ele>
        <time>2021-11-08T22:51:50.870Z</time>
      </trkpt>
      <trkpt lat="47.531623" lon="7.727725">
        <ele>295.575105</ele>
        <time>2021-11-08T22:51:58.082Z</time>
      </trkpt>
      <trkpt lat="47.531815" lon="7.728165">
        <ele>295.368933</ele>
        <time>2021-11-08T22:52:02.831Z</time>
      </trkpt>
      <trkpt lat="47.531944" lon="7.728603">
        <ele>295.311709</ele>
        <time>2021-11-08T22:52:07.168Z</time>
      </trkpt>
      <trkpt lat="47.532193" lon="7.730459">
        <ele>295.185616</ele>
        <time>2021-11-08T22:52:25.441Z</time>
      </trkpt>
      <trkpt lat="47.532405" lon="7.731493">
        <ele>295.221713</ele>
        <time>2021-11-08T22:52:37.398Z</time>
      </trkpt>
      <trkpt lat="47.532473" lon="7.731703">
        <ele>295.241696</ele>
        <time>2021-11-08T22:52:39.866Z</time>
      </trkpt>
      <trkpt lat="47.532665" lon="7.732105">
        <ele>295.283946</ele>
        <time>2021-11-08T22:52:45.350Z</time>
      </trkpt>
      <trkpt lat="47.532776" lon="7.732283">
        <ele>295.304737</ele>
        <time>2021-11-08T22:52:47.925Z</time>
      </trkpt>
      <trkpt lat="47.532853" lon="7.732416">
        <ele>295.319769</ele>
        <time>2021-11-08T22:52:49.841Z</time>
      </trkpt>
      <trkpt lat="47.532961" lon="7.732599">
        <ele>295.340624</ele>
        <time>2021-11-08T22:52:52.132Z</time>
      </trkpt>
      <trkpt lat="47.533220" lon="7.733022">
        <ele>295.388559</ele>
        <time>2021-11-08T22:52:57.667Z</time>
      </trkpt>
      <trkpt lat="47.533324" lon="7.733190">
        <ele>295.293015</ele>
        <time>2021-11-08T22:52:59.970Z</time>
      </trkpt>
      <trkpt lat="47.533436" lon="7.733399">
        <ele>295.181165</ele>
        <time>2021-11-08T22:53:02.315Z</time>
      </trkpt>
      <trkpt lat="47.533577" lon="7.733712">
        <ele>295.023438</ele>
        <time>2021-11-08T22:53:05.828Z</time>
      </trkpt>
      <trkpt lat="47.533685" lon="7.734026">
        <ele>294.875720</ele>
        <time>2021-11-08T22:53:08.940Z</time>
      </trkpt>
      <trkpt lat="47.533860" lon="7.734479">
        <ele>294.656946</ele>
        <time>2021-11-08T22:53:13.435Z</time>
      </trkpt>
      <trkpt lat="47.534301" lon="7.735625">
        <ele>294.273077</ele>
        <time>2021-11-08T22:53:24.286Z</time>
      </trkpt>
      <trkpt lat="47.534450" lon="7.736026">
        <ele>294.273469</ele>
        <time>2021-11-08T22:53:28.059Z</time>
      </trkpt>
      <trkpt lat="47.534670" lon="7.736644">
        <ele>294.274066</ele>
        <time>2021-11-08T22:53:34.086Z</time>
      </trkpt>
      <trkpt lat="47.534765" lon="7.736911">
        <ele>294.274324</ele>
        <time>2021-11-08T22:53:36.737Z</time>
      </trkpt>
      <trkpt lat="47.534806" lon="7.737025">
        <ele>294.274435</ele>
        <time>2021-11-08T22:53:38.071Z</time>
      </trkpt>
      <trkpt lat="47.535216" lon="7.738157">
        <ele>296.735364</ele>
        <time>2021-11-08T22:53:56.167Z</time>
      </trkpt>
      <trkpt lat="47.534755" lon="7.738529">
        <ele>299.869844</ele>
        <time>2021-11-08T22:54:16.393Z</time>
      </trkpt>
      <trkpt lat="47.534011" lon="7.739126">
        <ele>304.922068</ele>
        <time>2021-11-08T22:54:58.155Z</time>
      </trkpt>
      <trkpt lat="47.533446" lon="7.739598">
        <ele>309.324358</ele>
        <time>2021-11-08T22:55:30.073Z</time>
      </trkpt>
      <trkpt lat="47.533226" lon="7.739781">
        <ele>311.041775</ele>
        <time>2021-11-08T22:55:41.410Z</time>
      </trkpt>
      <trkpt lat="47.533191" lon="7.739816">
        <ele>311.329216</ele>
        <time>2021-11-08T22:55:44.661Z</time>
      </trkpt>
      <trkpt lat="47.533352" lon="7.740430">
        <ele>314.356168</ele>
        <time>2021-11-08T22:56:03.344Z</time>
      </trkpt>
      <trkpt lat="47.533707" lon="7.742025">
        <ele>317.938461</ele>
        <time>2021-11-08T22:56:35.629Z</time>
      </trkpt>
      <trkpt lat="47.533870" lon="7.743466">
        <ele>318.888758</ele>
        <time>2021-11-08T22:56:47.707Z</time>
      </trkpt>
      <trkpt lat="47.534043" lon="7.744207">
        <ele>318.874522</ele>
        <time>2021-11-08T22:56:54.790Z</time>
      </trkpt>
      <trkpt lat="47.534097" lon="7.744343">
        <ele>318.845731</ele>
        <time>2021-11-08T22:56:56.238Z</time>
      </trkpt>
      <trkpt lat="47.534179" lon="7.744495">
        <ele>318.810228</ele>
        <time>2021-11-08T22:56:58.117Z</time>
      </trkpt>
      <trkpt lat="47.534370" lon="7.744709">
        <ele>318.745499</ele>
        <time>2021-11-08T22:57:01.411Z</time>
      </trkpt>
      <trkpt lat="47.534429" lon="7.744856">
        <ele>318.714293</ele>
        <time>2021-11-08T22:57:03.173Z</time>
      </trkpt>
      <trkpt lat="47.534874" lon="7.746551">
        <ele>318.606378</ele>
        <time>2021-11-08T22:57:20.723Z</time>
      </trkpt>
      <trkpt lat="47.535912" lon="7.749669">
        <ele>319.232167</ele>
        <time>2021-11-08T22:57:59.064Z</time>
      </trkpt>
      <trkpt lat="47.537134" lon="7.752309">
        <ele>319.962638</ele>
        <time>2021-11-08T22:58:33.216Z</time>
      </trkpt>
      <trkpt lat="47.537371" lon="7.752851">
        <ele>320.115858</ele>
        <time>2021-11-08T22:58:39.865Z</time>
      </trkpt>
      <trkpt lat="47.537564" lon="7.753073">
        <ele>320.794373</ele>
        <time>2021-11-08T22:58:43.680Z</time>
      </trkpt>
      <trkpt lat="47.537715" lon="7.753194">
        <ele>321.279667</ele>
        <time>2021-11-08T22:58:47.525Z</time>
      </trkpt>
      <trkpt lat="47.538052" lon="7.753460">
        <ele>322.359086</ele>
        <time>2021-11-08T22:58:56.610Z</time>
      </trkpt>
      <trkpt lat="47.538359" lon="7.753900">
        <ele>323.566616</ele>
        <time>2021-11-08T22:59:07.841Z</time>
      </trkpt>
      <trkpt lat="47.538494" lon="7.754103">
        <ele>324.110395</ele>
        <time>2021-11-08T22:59:13.646Z</time>
      </trkpt>
      <trkpt lat="47.538723" lon="7.754445">
        <ele>325.029618</ele>
        <time>2021-11-08T22:59:23.839Z</time>
      </trkpt>
      <trkpt lat="47.538792" lon="7.754549">
        <ele>325.406046</ele>
        <time>2021-11-08T22:59:27.701Z</time>
      </trkpt>
      <trkpt lat="47.539079" lon="7.754976">
        <ele>327.620822</ele>
        <time>2021-11-08T22:59:43.399Z</time>
      </trkpt>
      <trkpt lat="47.539230" lon="7.755294">
        <ele>329.049872</ele>
        <time>2021-11-08T22:59:54.059Z</time>
      </trkpt>
      <trkpt lat="47.539346" lon="7.755736">
        <ele>330.792963</ele>
        <time>2021-11-08T23:00:07.350Z</time>
      </trkpt>
      <trkpt lat="47.539595" lon="7.757548">
        <ele>335.565691</ele>
        <time>2021-11-08T23:00:51.272Z</time>
      </trkpt>
      <trkpt lat="47.539722" lon="7.758107">
        <ele>336.042465</ele>
        <time>2021-11-08T23:01:00.280Z</time>
      </trkpt>
      <trkpt lat="47.539949" lon="7.758688">
        <ele>336.585105</ele>
        <time>2021-11-08T23:01:07.492Z</time>
      </trkpt>
      <trkpt lat="47.540447" lon="7.759585">
        <ele>335.556883</ele>
        <time>2021-11-08T23:01:16.016Z</time>
      </trkpt>
      <trkpt lat="47.540567" lon="7.759901">
        <ele>334.313180</ele>
        <time>2021-11-08T23:01:18.402Z</time>
      </trkpt>
      <trkpt lat="47.540921" lon="7.761599">
        <ele>328.217162</ele>
        <time>2021-11-08T23:01:29.525Z</time>
      </trkpt>
      <trkpt lat="47.541004" lon="7.762306">
        <ele>323.855597</ele>
        <time>2021-11-08T23:01:33.745Z</time>
      </trkpt>
      <trkpt lat="47.541023" lon="7.762922">
        <ele>319.957056</ele>
        <time>2021-11-08T23:01:37.328Z</time>
      </trkpt>
      <trkpt lat="47.541219" lon="7.763853">
        <ele>313.791507</ele>
        <time>2021-11-08T23:01:42.952Z</time>
      </trkpt>
      <trkpt lat="47.541334" lon="7.764020">
        <ele>312.283301</ele>
        <time>2021-11-08T23:01:44.418Z</time>
      </trkpt>
      <trkpt lat="47.541377" lon="7.764045">
        <ele>311.850685</ele>
        <time>2021-11-08T23:01:44.791Z</time>
      </trkpt>
      <trkpt lat="47.541364" lon="7.764150">
        <ele>311.175786</ele>
        <time>2021-11-08T23:01:45.402Z</time>
      </trkpt>
      <trkpt lat="47.541443" lon="7.764512">
        <ele>309.353080</ele>
        <time>2021-11-08T23:01:47.713Z</time>
      </trkpt>
      <trkpt lat="47.541552" lon="7.764869">
        <ele>307.478789</ele>
        <time>2021-11-08T23:01:50.006Z</time>
      </trkpt>
      <trkpt lat="47.541697" lon="7.765479">
        <ele>304.385191</ele>
        <time>2021-11-08T23:01:53.897Z</time>
      </trkpt>
      <trkpt lat="47.542003" lon="7.766985">
        <ele>298.053230</ele>
        <time>2021-11-08T23:02:03.622Z</time>
      </trkpt>
      <trkpt lat="47.542138" lon="7.767651">
        <ele>297.272326</ele>
        <time>2021-11-08T23:02:09.017Z</time>
      </trkpt>
      <trkpt lat="47.542317" lon="7.768533">
        <ele>296.238056</ele>
        <time>2021-11-08T23:02:17.088Z</time>
      </trkpt>
      <trkpt lat="47.542450" lon="7.769311">
        <ele>295.441265</ele>
        <time>2021-11-08T23:02:24.855Z</time>
      </trkpt>
      <trkpt lat="47.542720" lon="7.770771">
        <ele>295.720255</ele>
        <time>2021-11-08T23:02:40.949Z</time>
      </trkpt>
      <trkpt lat="47.543108" lon="7.773069">
        <ele>296.104692</ele>
        <time>2021-11-08T23:03:07.802Z</time>
      </trkpt>
      <trkpt lat="47.543145" lon="7.773277">
        <ele>296.135696</ele>
        <time>2021-11-08T23:03:09.927Z</time>
      </trkpt>
      <trkpt lat="47.543350" lon="7.774507">
        <ele>296.344252</ele>
        <time>2021-11-08T23:03:22.391Z</time>
      </trkpt>
      <trkpt lat="47.543402" lon="7.775016">
        <ele>296.534049</ele>
        <time>2021-11-08T23:03:27.454Z</time>
      </trkpt>
      <trkpt lat="47.543449" lon="7.775478">
        <ele>296.706304</ele>
        <time>2021-11-08T23:03:32.147Z</time>
      </trkpt>
      <trkpt lat="47.543482" lon="7.776095">
        <ele>296.934494</ele>
        <time>2021-11-08T23:03:38.855Z</time>
      </trkpt>
      <trkpt lat="47.543527" lon="7.776532">
        <ele>297.097472</ele>
        <time>2021-11-08T23:03:44.014Z</time>
      </trkpt>
      <trkpt lat="47.543707" lon="7.777394">
        <ele>298.244521</ele>
        <time>2021-11-08T23:03:56.300Z</time>
      </trkpt>
      <trkpt lat="47.543933" lon="7.778374">
        <ele>300.754488</ele>
        <time>2021-11-08T23:04:14.627Z</time>
      </trkpt>
      <trkpt lat="47.544100" lon="7.779438">
        <ele>303.402040</ele>
        <time>2021-11-08T23:04:38.828Z</time>
      </trkpt>
      <trkpt lat="47.544461" lon="7.782254">
        <ele>314.278017</ele>
        <time>2021-11-08T23:05:59.429Z</time>
      </trkpt>
      <trkpt lat="47.544469" lon="7.782455">
        <ele>314.072155</ele>
        <time>2021-11-08T23:06:04.462Z</time>
      </trkpt>
      <trkpt lat="47.544474" lon="7.782623">
        <ele>313.900222</ele>
        <time>2021-11-08T23:06:06.850Z</time>
      </trkpt>
      <trkpt lat="47.544490" lon="7.783060">
        <ele>313.452769</ele>
        <time>2021-11-08T23:06:10.741Z</time>
      </trkpt>
      <trkpt lat="47.544555" lon="7.783372">
        <ele>313.118928</ele>
        <time>2021-11-08T23:06:13.226Z</time>
      </trkpt>
      <trkpt lat="47.544627" lon="7.783499">
        <ele>312.949361</ele>
        <time>2021-11-08T23:06:14.624Z</time>
      </trkpt>
      <trkpt lat="47.544950" lon="7.784008">
        <ele>312.235098</ele>
        <time>2021-11-08T23:06:21.436Z</time>
      </trkpt>
      <trkpt lat="47.545054" lon="7.784227">
        <ele>311.961331</ele>
        <time>2021-11-08T23:06:24.008Z</time>
      </trkpt>
      <trkpt lat="47.545240" lon="7.784746">
        <ele>310.638791</ele>
        <time>2021-11-08T23:06:29.163Z</time>
      </trkpt>
      <trkpt lat="47.545250" lon="7.784778">
        <ele>310.501098</ele>
        <time>2021-11-08T23:06:29.436Z</time>
      </trkpt>
      <trkpt lat="47.545624" lon="7.785548">
        <ele>306.796972</ele>
        <time>2021-11-08T23:06:37.600Z</time>
      </trkpt>
      <trkpt lat="47.545672" lon="7.785654">
        <ele>306.298564</ele>
        <time>2021-11-08T23:06:38.608Z</time>
      </trkpt>
      <trkpt lat="47.545856" lon="7.785973">
        <ele>304.660137</ele>
        <time>2021-11-08T23:06:42.449Z</time>
      </trkpt>
      <trkpt lat="47.546102" lon="7.786217">
        <ele>302.947603</ele>
        <time>2021-11-08T23:06:46.437Z</time>
      </trkpt>
      <trkpt lat="47.546417" lon="7.786331">
        <ele>301.189721</ele>
        <time>2021-11-08T23:06:51.022Z</time>
      </trkpt>
      <trkpt lat="47.546464" lon="7.786335">
        <ele>301.146585</ele>
        <time>2021-11-08T23:06:51.790Z</time>
      </trkpt>
      <trkpt lat="47.546526" lon="7.786353">
        <ele>301.088696</ele>
        <time>2021-11-08T23:06:52.793Z</time>
      </trkpt>
      <trkpt lat="47.546913" lon="7.786470">
        <ele>300.726793</ele>
        <time>2021-11-08T23:06:58.981Z</time>
      </trkpt>
      <trkpt lat="47.546952" lon="7.786540">
        <ele>300.670657</ele>
        <time>2021-11-08T23:06:59.914Z</time>
      </trkpt>
      <trkpt lat="47.546959" lon="7.786598">
        <ele>300.634217</ele>
        <time>2021-11-08T23:07:00.610Z</time>
      </trkpt>
      <trkpt lat="47.546897" lon="7.787133">
        <ele>300.298496</ele>
        <time>2021-11-08T23:07:07.776Z</time>
      </trkpt>
      <trkpt lat="47.546738" lon="7.788413">
        <ele>299.627564</ele>
        <time>2021-11-08T23:07:26.430Z</time>
      </trkpt>
      <trkpt lat="47.546695" lon="7.788763">
        <ele>299.826883</ele>
        <time>2021-11-08T23:07:31.473Z</time>
      </trkpt>
      <trkpt lat="47.546673" lon="7.788921">
        <ele>299.917271</ele>
        <time>2021-11-08T23:07:34.128Z</time>
      </trkpt>
      <trkpt lat="47.546446" lon="7.790584">
        <ele>300.867876</ele>
        <time>2021-11-08T23:08:01.236Z</time>
      </trkpt>
      <trkpt lat="47.546253" lon="7.791998">
        <ele>301.532002</ele>
        <time>2021-11-08T23:08:26.203Z</time>
      </trkpt>
      <trkpt lat="47.546027" lon="7.793254">
        <ele>302.090780</ele>
        <time>2021-11-08T23:08:45.904Z</time>
      </trkpt>
      <trkpt lat="47.545984" lon="7.793553">
        <ele>302.188751</ele>
        <time>2021-11-08T23:08:49.619Z</time>
      </trkpt>
      <trkpt lat="47.545969" lon="7.793663">
        <ele>302.155829</ele>
        <time>2021-11-08T23:08:51.089Z</time>
      </trkpt>
      <trkpt lat="47.545921" lon="7.794468">
        <ele>301.918750</ele>
        <time>2021-11-08T23:09:00.965Z</time>
      </trkpt>
      <trkpt lat="47.545947" lon="7.794710">
        <ele>301.846861</ele>
        <time>2021-11-08T23:09:03.788Z</time>
      </trkpt>
      <trkpt lat="47.546019" lon="7.795020">
        <ele>301.750685</ele>
        <time>2021-11-08T23:09:07.831Z</time>
      </trkpt>
      <trkpt lat="47.546165" lon="7.795511">
        <ele>301.593285</ele>
        <time>2021-11-08T23:09:14.730Z</time>
      </trkpt>
      <trkpt lat="47.546170" lon="7.795612">
        <ele>301.563576</ele>
        <time>2021-11-08T23:09:15.779Z</time>
      </trkpt>
      <trkpt lat="47.546154" lon="7.795747">
        <ele>301.523366</ele>
        <time>2021-11-08T23:09:17.557Z</time>
      </trkpt>
      <trkpt lat="47.546105" lon="7.795928">
        <ele>301.466155</ele>
        <time>2021-11-08T23:09:20.674Z</time>
      </trkpt>
      <trkpt lat="47.546038" lon="7.796107">
        <ele>301.422172</ele>
        <time>2021-11-08T23:09:22.999Z</time>
      </trkpt>
      <trkpt lat="47.545889" lon="7.796500">
        <ele>301.436551</ele>
        <time>2021-11-08T23:09:29.851Z</time>
      </trkpt>
      <trkpt lat="47.545788" lon="7.796748">
        <ele>301.445790</ele>
        <time>2021-11-08T23:09:33.524Z</time>
      </trkpt>
      <trkpt lat="47.545728" lon="7.796950">
        <ele>301.452831</ele>
        <time>2021-11-08T23:09:36.813Z</time>
      </trkpt>
      <trkpt lat="47.545689" lon="7.797076">
        <ele>301.457253</ele>
        <time>2021-11-08T23:09:38.284Z</time>
      </trkpt>
      <trkpt lat="47.545670" lon="7.797142">
        <ele>301.459542</ele>
        <time>2021-11-08T23:09:39.346Z</time>
      </trkpt>
      <trkpt lat="47.545645" lon="7.797258">
        <ele>301.463426</ele>
        <time>2021-11-08T23:09:41.095Z</time>
      </trkpt>
      <trkpt lat="47.545637" lon="7.797310">
        <ele>301.465127</ele>
        <time>2021-11-08T23:09:42.435Z</time>
      </trkpt>
      <trkpt lat="47.545576" lon="7.797957">
        <ele>301.485967</ele>
        <time>2021-11-08T23:09:51.330Z</time>
      </trkpt>
      <trkpt lat="47.545558" lon="7.798144">
        <ele>301.491993</ele>
        <time>2021-11-08T23:09:53.752Z</time>
      </trkpt>
      <trkpt lat="47.545511" lon="7.798680">
        <ele>301.476006</ele>
        <time>2021-11-08T23:10:01.820Z</time>
      </trkpt>
      <trkpt lat="47.545581" lon="7.798713">
        <ele>301.447745</ele>
        <time>2021-11-08T23:10:03.318Z</time>
      </trkpt>
      <trkpt lat="47.545731" lon="7.798810">
        <ele>301.384781</ele>
        <time>2021-11-08T23:10:07.284Z</time>
      </trkpt>
      <trkpt lat="47.545807" lon="7.798846">
        <ele>301.354085</ele>
        <time>2021-11-08T23:10:08.638Z</time>
      </trkpt>
      <trkpt lat="47.546418" lon="7.798980">
        <ele>301.116465</ele>
        <time>2021-11-08T23:10:20.673Z</time>
      </trkpt>
      <trkpt lat="47.547540" lon="7.799538">
        <ele>300.685652</ele>
        <time>2021-11-08T23:10:41.356Z</time>
      </trkpt>
      <trkpt lat="47.547912" lon="7.799646">
        <ele>300.563250</ele>
        <time>2021-11-08T23:10:48.736Z</time>
      </trkpt>
      <trkpt lat="47.548459" lon="7.799691">
        <ele>300.386355</ele>
        <time>2021-11-08T23:10:59.674Z</time>
      </trkpt>
      <trkpt lat="47.548535" lon="7.799720">
        <ele>300.361014</ele>
        <time>2021-11-08T23:11:01.194Z</time>
      </trkpt>
      <trkpt lat="47.548514" lon="7.799795">
        <ele>300.343317</ele>
        <time>2021-11-08T23:11:02.258Z</time>
      </trkpt>
      <trkpt lat="47.548519" lon="7.799896">
        <ele>300.321246</ele>
        <time>2021-11-08T23:11:03.613Z</time>
      </trkpt>
      <trkpt lat="47.548545" lon="7.800404">
        <ele>300.226106</ele>
        <time>2021-11-08T23:11:10.404Z</time>
      </trkpt>
      <trkpt lat="47.548560" lon="7.800672">
        <ele>300.208606</ele>
        <time>2021-11-08T23:11:14.096Z</time>
      </trkpt>
      <trkpt lat="47.548569" lon="7.800838">
        <ele>300.197769</ele>
        <time>2021-11-08T23:11:16.340Z</time>
      </trkpt>
      <trkpt lat="47.548576" lon="7.800968">
        <ele>300.189283</ele>
        <time>2021-11-08T23:11:18.116Z</time>
      </trkpt>
      <trkpt lat="47.548596" lon="7.801213">
        <ele>300.173224</ele>
        <time>2021-11-08T23:11:21.495Z</time>
      </trkpt>
      <trkpt lat="47.548607" lon="7.801690">
        <ele>300.142166</ele>
        <time>2021-11-08T23:11:28.000Z</time>
      </trkpt>
      <trkpt lat="47.548626" lon="7.802129">
        <ele>300.113540</ele>
        <time>2021-11-08T23:11:33.918Z</time>
      </trkpt>
      <trkpt lat="47.548877" lon="7.802168">
        <ele>300.089209</ele>
        <time>2021-11-08T23:11:38.908Z</time>
      </trkpt>
      <trkpt lat="47.549410" lon="7.802226">
        <ele>299.984143</ele>
        <time>2021-11-08T23:11:49.325Z</time>
      </trkpt>
      <trkpt lat="47.549481" lon="7.802234">
        <ele>299.960403</ele>
        <time>2021-11-08T23:11:50.664Z</time>
      </trkpt>
      <trkpt lat="47.549840" lon="7.802246">
        <ele>299.840679</ele>
        <time>2021-11-08T23:11:57.397Z</time>
      </trkpt>
      <trkpt lat="47.549879" lon="7.802247">
        <ele>299.827674</ele>
        <time>2021-11-08T23:11:58.126Z</time>
      </trkpt>
      <trkpt lat="47.550009" lon="7.802254">
        <ele>299.784303</ele>
        <time>2021-11-08T23:12:00.558Z</time>
      </trkpt>
      <trkpt lat="47.550146" lon="7.802262">
        <ele>299.738591</ele>
        <time>2021-11-08T23:12:03.206Z</time>
      </trkpt>
      <trkpt lat="47.550134" lon="7.803051">
        <ele>299.560996</ele>
        <time>2021-11-08T23:12:13.427Z</time>
      </trkpt>
      <trkpt lat="47.550196" lon="7.803120">
        <ele>299.535143</ele>
        <time>2021-11-08T23:12:14.887Z</time>
      </trkpt>
      <trkpt lat="47.550981" lon="7.803132">
        <ele>299.500836</ele>
        <time>2021-11-08T23:12:29.531Z</time>
      </trkpt>
      <trkpt lat="47.551163" lon="7.803129">
        <ele>299.514202</ele>
        <time>2021-11-08T23:12:32.934Z</time>
      </trkpt>
      <trkpt lat="47.551598" lon="7.803160">
        <ele>299.546183</ele>
        <time>2021-11-08T23:12:41.527Z</time>
      </trkpt>
      <trkpt lat="47.551666" lon="7.803144">
        <ele>299.551239</ele>
        <time>2021-11-08T23:12:46.271Z</time>
      </trkpt>
      <trkpt lat="47.551732" lon="7.803125">
        <ele>299.556176</ele>
        <time>2021-11-08T23:12:50.938Z</time>
      </trkpt>
      <trkpt lat="47.551744" lon="7.803277">
        <ele>299.563761</ele>
        <time>2021-11-08T23:12:52.632Z</time>
      </trkpt>
      <trkpt lat="47.551751" lon="7.803369">
        <ele>299.568350</ele>
        <time>2021-11-08T23:12:53.706Z</time>
      </trkpt>
      <trkpt lat="47.551692" lon="7.803510">
        <ele>299.576573</ele>
        <time>2021-11-08T23:12:56.300Z</time>
      </trkpt>
      <trkpt lat="47.551741" lon="7.804294">
        <ele>299.836876</ele>
        <time>2021-11-08T23:13:09.318Z</time>
      </trkpt>
      <trkpt lat="47.551744" lon="7.804473">
        <ele>299.928509</ele>
        <time>2021-11-08T23:13:11.837Z</time>
      </trkpt>
      <trkpt lat="47.551731" lon="7.804667">
        <ele>300.028279</ele>
        <time>2021-11-08T23:13:15.817Z</time>
      </trkpt>
      <trkpt lat="47.551709" lon="7.805000">
        <ele>300.199509</ele>
        <time>2021-11-08T23:13:20.309Z</time>
      </trkpt>
      <trkpt lat="47.551681" lon="7.805477">
        <ele>300.444541</ele>
        <time>2021-11-08T23:13:28.045Z</time>
      </trkpt>
      <trkpt lat="47.551671" lon="7.806117">
        <ele>300.772155</ele>
        <time>2021-11-08T23:13:38.135Z</time>
      </trkpt>
      <trkpt lat="47.551651" lon="7.806246">
        <ele>300.839892</ele>
        <time>2021-11-08T23:13:41.037Z</time>
      </trkpt>
      <trkpt lat="47.551895" lon="7.806278">
        <ele>300.935082</ele>
        <time>2021-11-08T23:13:44.563Z</time>
      </trkpt>
      <trkpt lat="47.552015" lon="7.806307">
        <ele>300.907922</ele>
        <time>2021-11-08T23:13:47.433Z</time>
      </trkpt>
      <trkpt lat="47.552068" lon="7.806445">
        <ele>300.883984</ele>
        <time>2021-11-08T23:13:48.890Z</time>
      </trkpt>
      <trkpt lat="47.552398" lon="7.808880">
        <ele>300.420338</ele>
        <time>2021-11-08T23:14:11.033Z</time>
      </trkpt>
      <trkpt lat="47.552566" lon="7.810386">
        <ele>299.727376</ele>
        <time>2021-11-08T23:14:24.044Z</time>
      </trkpt>
      <trkpt lat="47.552711" lon="7.812955">
        <ele>298.598993</ele>
        <time>2021-11-08T23:14:46.653Z</time>
      </trkpt>
      <trkpt lat="47.552844" lon="7.816432">
        <ele>297.294843</ele>
        <time>2021-11-08T23:15:17.013Z</time>
      </trkpt>
      <trkpt lat="47.552925" lon="7.818703">
        <ele>297.530532</ele>
        <time>2021-11-08T23:15:40.525Z</time>
      </trkpt>
      <trkpt lat="47.552948" lon="7.819358">
        <ele>297.669610</ele>
        <time>2021-11-08T23:15:48.221Z</time>
      </trkpt>
      <trkpt lat="47.552896" lon="7.820699">
        <ele>298.332209</ele>
        <time>2021-11-08T23:16:04.430Z</time>
      </trkpt>
      <trkpt lat="47.552567" lon="7.824508">
        <ele>300.261195</ele>
        <time>2021-11-08T23:16:51.050Z</time>
      </trkpt>
      <trkpt lat="47.552491" lon="7.827227">
        <ele>301.588379</ele>
        <time>2021-11-08T23:17:22.790Z</time>
      </trkpt>
      <trkpt lat="47.552502" lon="7.827652">
        <ele>302.039506</ele>
        <time>2021-11-08T23:17:28.442Z</time>
      </trkpt>
      <trkpt lat="47.552515" lon="7.828094">
        <ele>302.508777</ele>
        <time>2021-11-08T23:17:34.500Z</time>
      </trkpt>
      <trkpt lat="47.552477" lon="7.828294">
        <ele>302.729162</ele>
        <time>2021-11-08T23:17:37.117Z</time>
      </trkpt>
      <trkpt lat="47.552421" lon="7.828481">
        <ele>302.946161</ele>
        <time>2021-11-08T23:17:40.049Z</time>
      </trkpt>
      <trkpt lat="47.552404" lon="7.828582">
        <ele>303.056572</ele>
        <time>2021-11-08T23:17:41.733Z</time>
      </trkpt>
      <trkpt lat="47.552416" lon="7.828822">
        <ele>303.311837</ele>
        <time>2021-11-08T23:17:44.967Z</time>
      </trkpt>
      <trkpt lat="47.552554" lon="7.829266">
        <ele>303.830324</ele>
        <time>2021-11-08T23:17:52.319Z</time>
      </trkpt>
      <trkpt lat="47.552645" lon="7.830686">
        <ele>305.860594</ele>
        <time>2021-11-08T23:18:15.623Z</time>
      </trkpt>
      <trkpt lat="47.552690" lon="7.832598">
        <ele>308.909024</ele>
        <time>2021-11-08T23:18:47.492Z</time>
      </trkpt>
      <trkpt lat="47.552616" lon="7.832891">
        <ele>309.348583</ele>
        <time>2021-11-08T23:18:52.245Z</time>
      </trkpt>
      <trkpt lat="47.552556" lon="7.832977">
        <ele>309.522374</ele>
        <time>2021-11-08T23:18:54.974Z</time>
      </trkpt>
      <trkpt lat="47.552556" lon="7.832977">
        <ele>309.522374</ele>
        <time>2021-11-08T23:18:54.978Z</time>
      </trkpt>
      <trkpt lat="47.552508" lon="7.832936">
        <ele>309.637717</ele>
        <time>2021-11-08T23:18:56.424Z</time>
      </trkpt>
      <trkpt lat="47.552458" lon="7.832824">
        <ele>309.826394</ele>
        <time>2021-11-08T23:18:58.879Z</time>
      </trkpt>
      <trkpt lat="47.552368" lon="7.832305">
        <ele>310.579302</ele>
        <time>2021-11-08T23:19:09.453Z</time>
      </trkpt>
      <trkpt lat="47.552251" lon="7.831814">
        <ele>311.310920</ele>
        <time>2021-11-08T23:19:19.575Z</time>
      </trkpt>
      <trkpt lat="47.552065" lon="7.831350">
        <ele>312.069190</ele>
        <time>2021-11-08T23:19:29.836Z</time>
      </trkpt>
      <trkpt lat="47.551640" lon="7.830558">
        <ele>312.783168</ele>
        <time>2021-11-08T23:19:48.293Z</time>
      </trkpt>
      <trkpt lat="47.550675" lon="7.828955">
        <ele>313.493163</ele>
        <time>2021-11-08T23:20:19.988Z</time>
      </trkpt>
      <trkpt lat="47.550522" lon="7.828744">
        <ele>313.224422</ele>
        <time>2021-11-08T23:20:23.891Z</time>
      </trkpt>
      <trkpt lat="47.550183" lon="7.828277">
        <ele>312.629276</ele>
        <time>2021-11-08T23:20:31.537Z</time>
      </trkpt>
      <trkpt lat="47.549105" lon="7.827067">
        <ele>311.055052</ele>
        <time>2021-11-08T23:20:52.882Z</time>
      </trkpt>
      <trkpt lat="47.548679" lon="7.826710">
        <ele>310.625571</ele>
        <time>2021-11-08T23:21:01.070Z</time>
      </trkpt>
      <trkpt lat="47.548237" lon="7.826410">
        <ele>310.198942</ele>
        <time>2021-11-08T23:21:09.810Z</time>
      </trkpt>
      <trkpt lat="47.547666" lon="7.826091">
        <ele>310.100989</ele>
        <time>2021-11-08T23:21:22.332Z</time>
      </trkpt>
      <trkpt lat="47.547233" lon="7.825872">
        <ele>310.750583</ele>
        <time>2021-11-08T23:21:33.899Z</time>
      </trkpt>
      <trkpt lat="47.546693" lon="7.825618">
        <ele>311.554968</ele>
        <time>2021-11-08T23:21:49.274Z</time>
      </trkpt>
      <trkpt lat="47.546589" lon="7.825597">
        <ele>311.703989</ele>
        <time>2021-11-08T23:21:52.204Z</time>
      </trkpt>
      <trkpt lat="47.546589" lon="7.825597">
        <ele>311.703989</ele>
        <time>2021-11-08T23:21:52.268Z</time>
      </trkpt>
      <trkpt lat="47.546589" lon="7.825597">
        <ele>311.703989</ele>
        <time>2021-11-08T23:21:52.274Z</time>
      </trkpt>
      <trkpt lat="47.546574" lon="7.826239">
        <ele>312.319603</ele>
        <time>2021-11-08T23:22:04.564Z</time>
      </trkpt>
      <trkpt lat="47.546592" lon="7.826850">
        <ele>313.191116</ele>
        <time>2021-11-08T23:22:16.362Z</time>
      </trkpt>
      <trkpt lat="47.546721" lon="7.828140">
        <ele>315.124860</ele>
        <time>2021-11-08T23:22:42.654Z</time>
      </trkpt>
      <trkpt lat="47.546823" lon="7.829336">
        <ele>316.858654</ele>
        <time>2021-11-08T23:23:05.954Z</time>
      </trkpt>
      <trkpt lat="47.546946" lon="7.830852">
        <ele>318.911737</ele>
        <time>2021-11-08T23:23:35.197Z</time>
      </trkpt>
      <trkpt lat="47.547020" lon="7.831965">
        <ele>320.364046</ele>
        <time>2021-11-08T23:23:56.035Z</time>
      </trkpt>
      <trkpt lat="47.547190" lon="7.835066">
        <ele>324.138569</ele>
        <time>2021-11-08T23:24:53.125Z</time>
      </trkpt>
      <trkpt lat="47.547240" lon="7.836221">
        <ele>325.568236</ele>
        <time>2021-11-08T23:25:14.599Z</time>
      </trkpt>
      <trkpt lat="47.547276" lon="7.837287">
        <ele>326.873554</ele>
        <time>2021-11-08T23:25:34.711Z</time>
      </trkpt>
      <trkpt lat="47.547300" lon="7.838688">
        <ele>328.555815</ele>
        <time>2021-11-08T23:26:01.458Z</time>
      </trkpt>
      <trkpt lat="47.547332" lon="7.840572">
        <ele>330.113441</ele>
        <time>2021-11-08T23:26:34.146Z</time>
      </trkpt>
      <trkpt lat="47.547339" lon="7.841072">
        <ele>330.360475</ele>
        <time>2021-11-08T23:26:41.978Z</time>
      </trkpt>
      <trkpt lat="47.547362" lon="7.841665">
        <ele>330.653878</ele>
        <time>2021-11-08T23:26:50.803Z</time>
      </trkpt>
      <trkpt lat="47.547448" lon="7.842262">
        <ele>330.942054</ele>
        <time>2021-11-08T23:26:59.251Z</time>
      </trkpt>
      <trkpt lat="47.547549" lon="7.842268">
        <ele>330.962277</ele>
        <time>2021-11-08T23:27:01.177Z</time>
      </trkpt>
      <trkpt lat="47.547549" lon="7.842268">
        <ele>330.962277</ele>
        <time>2021-11-08T23:27:01.179Z</time>
      </trkpt>
      <trkpt lat="47.547549" lon="7.842268">
        <ele>330.962277</ele>
        <time>2021-11-08T23:27:01.193Z</time>
      </trkpt>
      <trkpt lat="47.547448" lon="7.842262">
        <ele>330.982499</ele>
        <time>2021-11-08T23:27:03.272Z</time>
      </trkpt>
      <trkpt lat="47.547354" lon="7.842839">
        <ele>331.062653</ele>
        <time>2021-11-08T23:27:10.986Z</time>
      </trkpt>
      <trkpt lat="47.547313" lon="7.843735">
        <ele>331.183925</ele>
        <time>2021-11-08T23:27:23.206Z</time>
      </trkpt>
      <trkpt lat="47.547295" lon="7.844722">
        <ele>331.455052</ele>
        <time>2021-11-08T23:27:38.134Z</time>
      </trkpt>
      <trkpt lat="47.547274" lon="7.845536">
        <ele>332.308503</ele>
        <time>2021-11-08T23:27:51.586Z</time>
      </trkpt>
      <trkpt lat="47.547124" lon="7.848795">
        <ele>336.210880</ele>
        <time>2021-11-08T23:28:53.740Z</time>
      </trkpt>
      <trkpt lat="47.547143" lon="7.849985">
        <ele>337.773885</ele>
        <time>2021-11-08T23:29:16.592Z</time>
      </trkpt>
      <trkpt lat="47.547141" lon="7.850355">
        <ele>338.081460</ele>
        <time>2021-11-08T23:29:23.691Z</time>
      </trkpt>
      <trkpt lat="47.546945" lon="7.851719">
        <ele>339.240705</ele>
        <time>2021-11-08T23:29:48.224Z</time>
      </trkpt>
      <trkpt lat="47.546582" lon="7.856413">
        <ele>340.672019</ele>
        <time>2021-11-08T23:30:56.536Z</time>
      </trkpt>
      <trkpt lat="47.546537" lon="7.857497">
        <ele>340.854756</ele>
        <time>2021-11-08T23:31:11.844Z</time>
      </trkpt>
      <trkpt lat="47.546487" lon="7.859119">
        <ele>341.206426</ele>
        <time>2021-11-08T23:31:35.292Z</time>
      </trkpt>
      <trkpt lat="47.546526" lon="7.861665">
        <ele>341.212266</ele>
        <time>2021-11-08T23:32:12.466Z</time>
      </trkpt>
      <trkpt lat="47.546592" lon="7.863006">
        <ele>340.862696</ele>
        <time>2021-11-08T23:32:28.933Z</time>
      </trkpt>
      <trkpt lat="47.546877" lon="7.864345">
        <ele>339.233005</ele>
        <time>2021-11-08T23:32:44.102Z</time>
      </trkpt>
      <trkpt lat="47.546885" lon="7.864500">
        <ele>339.037026</ele>
        <time>2021-11-08T23:32:45.781Z</time>
      </trkpt>
      <trkpt lat="47.546894" lon="7.864837">
        <ele>338.611837</ele>
        <time>2021-11-08T23:32:49.261Z</time>
      </trkpt>
      <trkpt lat="47.546889" lon="7.865225">
        <ele>338.122596</ele>
        <time>2021-11-08T23:32:53.382Z</time>
      </trkpt>
      <trkpt lat="47.546819" lon="7.865489">
        <ele>337.765012</ele>
        <time>2021-11-08T23:32:56.459Z</time>
      </trkpt>
      <trkpt lat="47.546510" lon="7.865766">
        <ele>337.191138</ele>
        <time>2021-11-08T23:33:02.154Z</time>
      </trkpt>
      <trkpt lat="47.546327" lon="7.865959">
        <ele>336.883819</ele>
        <time>2021-11-08T23:33:05.485Z</time>
      </trkpt>
      <trkpt lat="47.546096" lon="7.866147">
        <ele>336.523242</ele>
        <time>2021-11-08T23:33:09.551Z</time>
      </trkpt>
      <trkpt lat="47.545240" lon="7.866887">
        <ele>335.167352</ele>
        <time>2021-11-08T23:33:26.225Z</time>
      </trkpt>
      <trkpt lat="47.545160" lon="7.866985">
        <ele>335.025334</ele>
        <time>2021-11-08T23:33:28.181Z</time>
      </trkpt>
      <trkpt lat="47.545003" lon="7.867278">
        <ele>335.247232</ele>
        <time>2021-11-08T23:33:33.849Z</time>
      </trkpt>
      <trkpt lat="47.544568" lon="7.867693">
        <ele>335.770352</ele>
        <time>2021-11-08T23:33:46.640Z</time>
      </trkpt>
      <trkpt lat="47.544469" lon="7.867776">
        <ele>335.885364</ele>
        <time>2021-11-08T23:33:49.502Z</time>
      </trkpt>
      <trkpt lat="47.544410" lon="7.867825">
        <ele>335.953751</ele>
        <time>2021-11-08T23:33:51.590Z</time>
      </trkpt>
      <trkpt lat="47.544246" lon="7.867967">
        <ele>336.145810</ele>
        <time>2021-11-08T23:33:56.274Z</time>
      </trkpt>
      <trkpt lat="47.544214" lon="7.867988">
        <ele>336.181196</ele>
        <time>2021-11-08T23:33:57.122Z</time>
      </trkpt>
      <trkpt lat="47.543801" lon="7.868269">
        <ele>336.640700</ele>
        <time>2021-11-08T23:34:08.725Z</time>
      </trkpt>
      <trkpt lat="47.543657" lon="7.868359">
        <ele>336.798720</ele>
        <time>2021-11-08T23:34:13.074Z</time>
      </trkpt>
      <trkpt lat="47.543201" lon="7.868657">
        <ele>336.824662</ele>
        <time>2021-11-08T23:34:23.275Z</time>
      </trkpt>
      <trkpt lat="47.543105" lon="7.868711">
        <ele>336.824662</ele>
        <time>2021-11-08T23:34:25.840Z</time>
      </trkpt>
      <trkpt lat="47.543049" lon="7.868759">
        <ele>336.824662</ele>
        <time>2021-11-08T23:34:27.138Z</time>
      </trkpt>
      <trkpt lat="47.542722" lon="7.869201">
        <ele>336.824662</ele>
        <time>2021-11-08T23:34:36.507Z</time>
      </trkpt>
      <trkpt lat="47.542696" lon="7.869257">
        <ele>336.824662</ele>
        <time>2021-11-08T23:34:37.257Z</time>
      </trkpt>
      <trkpt lat="47.542657" lon="7.869354">
        <ele>336.824662</ele>
        <time>2021-11-08T23:34:38.661Z</time>
      </trkpt>
      <trkpt lat="47.542372" lon="7.869746">
        <ele>336.824662</ele>
        <time>2021-11-08T23:34:45.494Z</time>
      </trkpt>
      <trkpt lat="47.542329" lon="7.869820">
        <ele>336.824662</ele>
        <time>2021-11-08T23:34:46.706Z</time>
      </trkpt>
      <trkpt lat="47.542348" lon="7.869983">
        <ele>336.824662</ele>
        <time>2021-11-08T23:34:48.233Z</time>
      </trkpt>
      <trkpt lat="47.542317" lon="7.870012">
        <ele>336.824662</ele>
        <time>2021-11-08T23:34:48.828Z</time>
      </trkpt>
      <trkpt lat="47.542181" lon="7.870131">
        <ele>336.824662</ele>
        <time>2021-11-08T23:34:51.182Z</time>
      </trkpt>
      <trkpt lat="47.542118" lon="7.870134">
        <ele>336.824662</ele>
        <time>2021-11-08T23:34:52.215Z</time>
      </trkpt>
    </trkseg>
  </trk>
</gpx>